<?xml version="1.0" encoding="UTF-8" standalone="no" ?>
<gpx xmlns="http://www.topografix.com/GPX/1/1" xmlns:xsi="http://www.w3.org/2001/XMLSchema-instance" xsi:schemaLocation="http://www.topografix.com/GPX/1/1 http://www.topografix.com/GPX/1/1/gpx.xsd" version="1.1" creator="VisuGPX - https://www.visugpx.com">
  <metadata>
    <name>Vetaroute 2011</name>
    <desc><![CDATA[Partie VTT]]></desc>
  </metadata>
  <trk>
    <name><![CDATA[Vetaroute 2011_1]]></name>
    <trkseg>
      <trkpt lat="48.38323" lon="2.47082">
        <ele>81</ele>
        <time>2011-10-15T12:00:22Z</time>
      </trkpt>
      <trkpt lat="48.38324" lon="2.47083">
        <ele>81</ele>
        <time>2011-10-15T12:00:25Z</time>
      </trkpt>
      <trkpt lat="48.38325" lon="2.47072">
        <ele>81</ele>
        <time>2011-10-15T12:00:29Z</time>
      </trkpt>
      <trkpt lat="48.38335" lon="2.47036">
        <ele>86</ele>
        <time>2011-10-15T12:00:35Z</time>
      </trkpt>
      <trkpt lat="48.38347" lon="2.46982">
        <ele>89</ele>
        <time>2011-10-15T12:00:42Z</time>
      </trkpt>
      <trkpt lat="48.38359" lon="2.46929">
        <ele>91</ele>
        <time>2011-10-15T12:00:49Z</time>
      </trkpt>
      <trkpt lat="48.38374" lon="2.46866">
        <ele>95</ele>
        <time>2011-10-15T12:00:57Z</time>
      </trkpt>
      <trkpt lat="48.38375" lon="2.46827">
        <ele>101</ele>
        <time>2011-10-15T12:01:02Z</time>
      </trkpt>
      <trkpt lat="48.38361" lon="2.46749">
        <ele>106</ele>
        <time>2011-10-15T12:01:12Z</time>
      </trkpt>
      <trkpt lat="48.38362" lon="2.46694">
        <ele>108</ele>
        <time>2011-10-15T12:01:19Z</time>
      </trkpt>
      <trkpt lat="48.38361" lon="2.46672">
        <ele>108</ele>
        <time>2011-10-15T12:01:22Z</time>
      </trkpt>
      <trkpt lat="48.38351" lon="2.46634">
        <ele>112</ele>
        <time>2011-10-15T12:01:28Z</time>
      </trkpt>
      <trkpt lat="48.38346" lon="2.46608">
        <ele>112</ele>
        <time>2011-10-15T12:01:32Z</time>
      </trkpt>
      <trkpt lat="48.38348" lon="2.46564">
        <ele>115</ele>
        <time>2011-10-15T12:01:38Z</time>
      </trkpt>
      <trkpt lat="48.38359" lon="2.46517">
        <ele>118</ele>
        <time>2011-10-15T12:01:45Z</time>
      </trkpt>
      <trkpt lat="48.38364" lon="2.46473">
        <ele>122</ele>
        <time>2011-10-15T12:01:52Z</time>
      </trkpt>
      <trkpt lat="48.38366" lon="2.46424">
        <ele>123</ele>
        <time>2011-10-15T12:01:59Z</time>
      </trkpt>
      <trkpt lat="48.38363" lon="2.46394">
        <ele>124</ele>
        <time>2011-10-15T12:02:03Z</time>
      </trkpt>
      <trkpt lat="48.38348" lon="2.46338">
        <ele>123</ele>
        <time>2011-10-15T12:02:10Z</time>
      </trkpt>
      <trkpt lat="48.38319" lon="2.4626">
        <ele>122</ele>
        <time>2011-10-15T12:02:20Z</time>
      </trkpt>
      <trkpt lat="48.38316" lon="2.46253">
        <ele>122</ele>
        <time>2011-10-15T12:02:21Z</time>
      </trkpt>
      <trkpt lat="48.38314" lon="2.46227">
        <ele>123</ele>
        <time>2011-10-15T12:02:24Z</time>
      </trkpt>
      <trkpt lat="48.38328" lon="2.46214">
        <ele>123</ele>
        <time>2011-10-15T12:02:27Z</time>
      </trkpt>
      <trkpt lat="48.38346" lon="2.46213">
        <ele>122</ele>
        <time>2011-10-15T12:02:30Z</time>
      </trkpt>
      <trkpt lat="48.38359" lon="2.46214">
        <ele>122</ele>
        <time>2011-10-15T12:02:32Z</time>
      </trkpt>
      <trkpt lat="48.38384" lon="2.46203">
        <ele>122</ele>
        <time>2011-10-15T12:02:36Z</time>
      </trkpt>
      <trkpt lat="48.3842" lon="2.46189">
        <ele>122</ele>
        <time>2011-10-15T12:02:41Z</time>
      </trkpt>
      <trkpt lat="48.38456" lon="2.46185">
        <ele>122</ele>
        <time>2011-10-15T12:02:46Z</time>
      </trkpt>
      <trkpt lat="48.38486" lon="2.46162">
        <ele>122</ele>
        <time>2011-10-15T12:02:51Z</time>
      </trkpt>
      <trkpt lat="48.38532" lon="2.46114">
        <ele>120</ele>
        <time>2011-10-15T12:02:59Z</time>
      </trkpt>
      <trkpt lat="48.3858" lon="2.46065">
        <ele>121</ele>
        <time>2011-10-15T12:03:07Z</time>
      </trkpt>
      <trkpt lat="48.38593" lon="2.46052">
        <ele>118</ele>
        <time>2011-10-15T12:03:10Z</time>
      </trkpt>
      <trkpt lat="48.38595" lon="2.4605">
        <ele>118</ele>
        <time>2011-10-15T12:03:11Z</time>
      </trkpt>
      <trkpt lat="48.38596" lon="2.46037">
        <ele>119</ele>
        <time>2011-10-15T12:03:16Z</time>
      </trkpt>
      <trkpt lat="48.38603" lon="2.46018">
        <ele>119</ele>
        <time>2011-10-15T12:03:20Z</time>
      </trkpt>
      <trkpt lat="48.38614" lon="2.46012">
        <ele>119</ele>
        <time>2011-10-15T12:03:23Z</time>
      </trkpt>
      <trkpt lat="48.38623" lon="2.46004">
        <ele>118</ele>
        <time>2011-10-15T12:03:26Z</time>
      </trkpt>
      <trkpt lat="48.38643" lon="2.45977">
        <ele>119</ele>
        <time>2011-10-15T12:03:32Z</time>
      </trkpt>
      <trkpt lat="48.38647" lon="2.45972">
        <ele>119</ele>
        <time>2011-10-15T12:03:33Z</time>
      </trkpt>
      <trkpt lat="48.38662" lon="2.45954">
        <ele>119</ele>
        <time>2011-10-15T12:03:38Z</time>
      </trkpt>
      <trkpt lat="48.38665" lon="2.45948">
        <ele>119</ele>
        <time>2011-10-15T12:03:39Z</time>
      </trkpt>
      <trkpt lat="48.38676" lon="2.45926">
        <ele>117</ele>
        <time>2011-10-15T12:03:42Z</time>
      </trkpt>
      <trkpt lat="48.38689" lon="2.45929">
        <ele>117</ele>
        <time>2011-10-15T12:03:46Z</time>
      </trkpt>
      <trkpt lat="48.38705" lon="2.45953">
        <ele>117</ele>
        <time>2011-10-15T12:03:49Z</time>
      </trkpt>
      <trkpt lat="48.38728" lon="2.45984">
        <ele>114</ele>
        <time>2011-10-15T12:03:52Z</time>
      </trkpt>
      <trkpt lat="48.3876" lon="2.46029">
        <ele>107</ele>
        <time>2011-10-15T12:03:56Z</time>
      </trkpt>
      <trkpt lat="48.38799" lon="2.46093">
        <ele>101</ele>
        <time>2011-10-15T12:04:01Z</time>
      </trkpt>
      <trkpt lat="48.38816" lon="2.46153">
        <ele>100</ele>
        <time>2011-10-15T12:04:06Z</time>
      </trkpt>
      <trkpt lat="48.38818" lon="2.46163">
        <ele>99</ele>
        <time>2011-10-15T12:04:07Z</time>
      </trkpt>
      <trkpt lat="48.38818" lon="2.4618">
        <ele>99</ele>
        <time>2011-10-15T12:04:10Z</time>
      </trkpt>
      <trkpt lat="48.38805" lon="2.46193">
        <ele>99</ele>
        <time>2011-10-15T12:04:13Z</time>
      </trkpt>
      <trkpt lat="48.38766" lon="2.46233">
        <ele>99</ele>
        <time>2011-10-15T12:04:21Z</time>
      </trkpt>
      <trkpt lat="48.38753" lon="2.46247">
        <ele>100</ele>
        <time>2011-10-15T12:04:24Z</time>
      </trkpt>
      <trkpt lat="48.38739" lon="2.46275">
        <ele>104</ele>
        <time>2011-10-15T12:04:28Z</time>
      </trkpt>
      <trkpt lat="48.38731" lon="2.46286">
        <ele>105</ele>
        <time>2011-10-15T12:04:30Z</time>
      </trkpt>
      <trkpt lat="48.38717" lon="2.4628">
        <ele>106</ele>
        <time>2011-10-15T12:04:34Z</time>
      </trkpt>
      <trkpt lat="48.38713" lon="2.46275">
        <ele>107</ele>
        <time>2011-10-15T12:04:35Z</time>
      </trkpt>
      <trkpt lat="48.38706" lon="2.46264">
        <ele>107</ele>
        <time>2011-10-15T12:04:37Z</time>
      </trkpt>
      <trkpt lat="48.38692" lon="2.46243">
        <ele>108</ele>
        <time>2011-10-15T12:04:42Z</time>
      </trkpt>
      <trkpt lat="48.38675" lon="2.46217">
        <ele>108</ele>
        <time>2011-10-15T12:04:50Z</time>
      </trkpt>
      <trkpt lat="48.38668" lon="2.46207">
        <ele>107</ele>
        <time>2011-10-15T12:04:53Z</time>
      </trkpt>
      <trkpt lat="48.38654" lon="2.46213">
        <ele>114</ele>
        <time>2011-10-15T12:04:58Z</time>
      </trkpt>
      <trkpt lat="48.38634" lon="2.46237">
        <ele>116</ele>
        <time>2011-10-15T12:05:05Z</time>
      </trkpt>
      <trkpt lat="48.38626" lon="2.46258">
        <ele>119</ele>
        <time>2011-10-15T12:05:10Z</time>
      </trkpt>
      <trkpt lat="48.38613" lon="2.46278">
        <ele>120</ele>
        <time>2011-10-15T12:05:16Z</time>
      </trkpt>
      <trkpt lat="48.38601" lon="2.46291">
        <ele>121</ele>
        <time>2011-10-15T12:05:21Z</time>
      </trkpt>
      <trkpt lat="48.38586" lon="2.46308">
        <ele>122</ele>
        <time>2011-10-15T12:05:27Z</time>
      </trkpt>
      <trkpt lat="48.38565" lon="2.46328">
        <ele>124</ele>
        <time>2011-10-15T12:05:34Z</time>
      </trkpt>
      <trkpt lat="48.38548" lon="2.46345">
        <ele>127</ele>
        <time>2011-10-15T12:05:39Z</time>
      </trkpt>
      <trkpt lat="48.38542" lon="2.4635">
        <ele>128</ele>
        <time>2011-10-15T12:05:41Z</time>
      </trkpt>
      <trkpt lat="48.38541" lon="2.46364">
        <ele>128</ele>
        <time>2011-10-15T12:05:45Z</time>
      </trkpt>
      <trkpt lat="48.38554" lon="2.46397">
        <ele>129</ele>
        <time>2011-10-15T12:05:51Z</time>
      </trkpt>
      <trkpt lat="48.3856" lon="2.4642">
        <ele>131</ele>
        <time>2011-10-15T12:05:55Z</time>
      </trkpt>
      <trkpt lat="48.38562" lon="2.46426">
        <ele>131</ele>
        <time>2011-10-15T12:05:56Z</time>
      </trkpt>
      <trkpt lat="48.38574" lon="2.4646">
        <ele>131</ele>
        <time>2011-10-15T12:06:02Z</time>
      </trkpt>
      <trkpt lat="48.38581" lon="2.46484">
        <ele>131</ele>
        <time>2011-10-15T12:06:06Z</time>
      </trkpt>
      <trkpt lat="48.38583" lon="2.46495">
        <ele>131</ele>
        <time>2011-10-15T12:06:08Z</time>
      </trkpt>
      <trkpt lat="48.38592" lon="2.46539">
        <ele>125</ele>
        <time>2011-10-15T12:06:14Z</time>
      </trkpt>
      <trkpt lat="48.38598" lon="2.46559">
        <ele>125</ele>
        <time>2011-10-15T12:06:17Z</time>
      </trkpt>
      <trkpt lat="48.3861" lon="2.46589">
        <ele>122</ele>
        <time>2011-10-15T12:06:22Z</time>
      </trkpt>
      <trkpt lat="48.38623" lon="2.46613">
        <ele>121</ele>
        <time>2011-10-15T12:06:26Z</time>
      </trkpt>
      <trkpt lat="48.38626" lon="2.46623">
        <ele>120</ele>
        <time>2011-10-15T12:06:28Z</time>
      </trkpt>
      <trkpt lat="48.38623" lon="2.46657">
        <ele>120</ele>
        <time>2011-10-15T12:06:33Z</time>
      </trkpt>
      <trkpt lat="48.38608" lon="2.46701">
        <ele>115</ele>
        <time>2011-10-15T12:06:39Z</time>
      </trkpt>
      <trkpt lat="48.38588" lon="2.46742">
        <ele>108</ele>
        <time>2011-10-15T12:06:43Z</time>
      </trkpt>
      <trkpt lat="48.38581" lon="2.46774">
        <ele>105</ele>
        <time>2011-10-15T12:06:46Z</time>
      </trkpt>
      <trkpt lat="48.38585" lon="2.46821">
        <ele>102</ele>
        <time>2011-10-15T12:06:49Z</time>
      </trkpt>
      <trkpt lat="48.38582" lon="2.46848">
        <ele>99</ele>
        <time>2011-10-15T12:06:52Z</time>
      </trkpt>
      <trkpt lat="48.38567" lon="2.4684">
        <ele>99</ele>
        <time>2011-10-15T12:06:56Z</time>
      </trkpt>
      <trkpt lat="48.38543" lon="2.46842">
        <ele>101</ele>
        <time>2011-10-15T12:07:01Z</time>
      </trkpt>
      <trkpt lat="48.38531" lon="2.46858">
        <ele>101</ele>
        <time>2011-10-15T12:07:05Z</time>
      </trkpt>
      <trkpt lat="48.38527" lon="2.4687">
        <ele>101</ele>
        <time>2011-10-15T12:07:08Z</time>
      </trkpt>
      <trkpt lat="48.3852" lon="2.46884">
        <ele>101</ele>
        <time>2011-10-15T12:07:12Z</time>
      </trkpt>
      <trkpt lat="48.38515" lon="2.46905">
        <ele>101</ele>
        <time>2011-10-15T12:07:17Z</time>
      </trkpt>
      <trkpt lat="48.38503" lon="2.46921">
        <ele>102</ele>
        <time>2011-10-15T12:07:21Z</time>
      </trkpt>
      <trkpt lat="48.3849" lon="2.46937">
        <ele>99</ele>
        <time>2011-10-15T12:07:26Z</time>
      </trkpt>
      <trkpt lat="48.38488" lon="2.4694">
        <ele>99</ele>
        <time>2011-10-15T12:07:27Z</time>
      </trkpt>
      <trkpt lat="48.38488" lon="2.46942">
        <ele>99</ele>
        <time>2011-10-15T12:07:29Z</time>
      </trkpt>
      <trkpt lat="48.38502" lon="2.46954">
        <ele>98</ele>
        <time>2011-10-15T12:07:34Z</time>
      </trkpt>
      <trkpt lat="48.38504" lon="2.46969">
        <ele>98</ele>
        <time>2011-10-15T12:07:37Z</time>
      </trkpt>
      <trkpt lat="48.38501" lon="2.47002">
        <ele>98</ele>
        <time>2011-10-15T12:07:43Z</time>
      </trkpt>
      <trkpt lat="48.38498" lon="2.4703">
        <ele>94</ele>
        <time>2011-10-15T12:07:47Z</time>
      </trkpt>
      <trkpt lat="48.38496" lon="2.47043">
        <ele>94</ele>
        <time>2011-10-15T12:07:49Z</time>
      </trkpt>
      <trkpt lat="48.38498" lon="2.47062">
        <ele>93</ele>
        <time>2011-10-15T12:07:52Z</time>
      </trkpt>
      <trkpt lat="48.38506" lon="2.47101">
        <ele>90</ele>
        <time>2011-10-15T12:07:58Z</time>
      </trkpt>
      <trkpt lat="48.38509" lon="2.47143">
        <ele>88</ele>
        <time>2011-10-15T12:08:03Z</time>
      </trkpt>
      <trkpt lat="48.38492" lon="2.47203">
        <ele>84</ele>
        <time>2011-10-15T12:08:09Z</time>
      </trkpt>
      <trkpt lat="48.38461" lon="2.47274">
        <ele>78</ele>
        <time>2011-10-15T12:08:15Z</time>
      </trkpt>
      <trkpt lat="48.38441" lon="2.47313">
        <ele>75</ele>
        <time>2011-10-15T12:08:19Z</time>
      </trkpt>
      <trkpt lat="48.38438" lon="2.47319">
        <ele>75</ele>
        <time>2011-10-15T12:08:20Z</time>
      </trkpt>
      <trkpt lat="48.38427" lon="2.47316">
        <ele>75</ele>
        <time>2011-10-15T12:08:23Z</time>
      </trkpt>
      <trkpt lat="48.38403" lon="2.47287">
        <ele>75</ele>
        <time>2011-10-15T12:08:28Z</time>
      </trkpt>
      <trkpt lat="48.38348" lon="2.47242">
        <ele>77</ele>
        <time>2011-10-15T12:08:37Z</time>
      </trkpt>
      <trkpt lat="48.38311" lon="2.47217">
        <ele>76</ele>
        <time>2011-10-15T12:08:43Z</time>
      </trkpt>
      <trkpt lat="48.383" lon="2.47194">
        <ele>76</ele>
        <time>2011-10-15T12:08:46Z</time>
      </trkpt>
      <trkpt lat="48.38303" lon="2.47175">
        <ele>77</ele>
        <time>2011-10-15T12:08:48Z</time>
      </trkpt>
      <trkpt lat="48.38317" lon="2.47117">
        <ele>79</ele>
        <time>2011-10-15T12:08:55Z</time>
      </trkpt>
      <trkpt lat="48.38334" lon="2.47048">
        <ele>85</ele>
        <time>2011-10-15T12:09:04Z</time>
      </trkpt>
      <trkpt lat="48.38343" lon="2.47">
        <ele>86</ele>
        <time>2011-10-15T12:09:11Z</time>
      </trkpt>
      <trkpt lat="48.38345" lon="2.46988">
        <ele>88</ele>
        <time>2011-10-15T12:09:16Z</time>
      </trkpt>
      <trkpt lat="48.38344" lon="2.46987">
        <ele>88</ele>
        <time>2011-10-15T12:09:19Z</time>
      </trkpt>
      <trkpt lat="48.38343" lon="2.46986">
        <ele>88</ele>
        <time>2011-10-15T12:09:30Z</time>
      </trkpt>
      <trkpt lat="48.38343" lon="2.46988">
        <ele>88</ele>
        <time>2011-10-15T12:09:42Z</time>
      </trkpt>
      <trkpt lat="48.38343" lon="2.46988">
        <ele>88</ele>
        <time>2011-10-15T12:09:50Z</time>
      </trkpt>
      <trkpt lat="48.38344" lon="2.46989">
        <ele>88</ele>
        <time>2011-10-15T12:09:55Z</time>
      </trkpt>
      <trkpt lat="48.38345" lon="2.46989">
        <ele>88</ele>
        <time>2011-10-15T12:10:00Z</time>
      </trkpt>
      <trkpt lat="48.38346" lon="2.46984">
        <ele>89</ele>
        <time>2011-10-15T12:10:03Z</time>
      </trkpt>
      <trkpt lat="48.38348" lon="2.46978">
        <ele>89</ele>
        <time>2011-10-15T12:10:07Z</time>
      </trkpt>
      <trkpt lat="48.38349" lon="2.46974">
        <ele>89</ele>
        <time>2011-10-15T12:10:13Z</time>
      </trkpt>
      <trkpt lat="48.38352" lon="2.46963">
        <ele>90</ele>
        <time>2011-10-15T12:10:17Z</time>
      </trkpt>
      <trkpt lat="48.38353" lon="2.46972">
        <ele>90</ele>
        <time>2011-10-15T12:10:21Z</time>
      </trkpt>
      <trkpt lat="48.3835" lon="2.46975">
        <ele>89</ele>
        <time>2011-10-15T12:10:22Z</time>
      </trkpt>
      <trkpt lat="48.38346" lon="2.46979">
        <ele>89</ele>
        <time>2011-10-15T12:10:24Z</time>
      </trkpt>
      <trkpt lat="48.38345" lon="2.46982">
        <ele>89</ele>
        <time>2011-10-15T12:10:29Z</time>
      </trkpt>
      <trkpt lat="48.38345" lon="2.46982">
        <ele>89</ele>
        <time>2011-10-15T12:10:35Z</time>
      </trkpt>
      <trkpt lat="48.38346" lon="2.46982">
        <ele>89</ele>
        <time>2011-10-15T12:10:42Z</time>
      </trkpt>
      <trkpt lat="48.38346" lon="2.46983">
        <ele>89</ele>
        <time>2011-10-15T12:10:46Z</time>
      </trkpt>
      <trkpt lat="48.38348" lon="2.46985">
        <ele>89</ele>
        <time>2011-10-15T12:10:55Z</time>
      </trkpt>
      <trkpt lat="48.38353" lon="2.46961">
        <ele>90</ele>
        <time>2011-10-15T12:11:02Z</time>
      </trkpt>
      <trkpt lat="48.38359" lon="2.46935">
        <ele>91</ele>
        <time>2011-10-15T12:11:09Z</time>
      </trkpt>
      <trkpt lat="48.38364" lon="2.46914">
        <ele>94</ele>
        <time>2011-10-15T12:11:15Z</time>
      </trkpt>
      <trkpt lat="48.38366" lon="2.46902">
        <ele>94</ele>
        <time>2011-10-15T12:11:19Z</time>
      </trkpt>
      <trkpt lat="48.38366" lon="2.469">
        <ele>94</ele>
        <time>2011-10-15T12:11:26Z</time>
      </trkpt>
      <trkpt lat="48.38365" lon="2.46898">
        <ele>94</ele>
        <time>2011-10-15T12:11:32Z</time>
      </trkpt>
      <trkpt lat="48.38364" lon="2.469">
        <ele>94</ele>
        <time>2011-10-15T12:11:39Z</time>
      </trkpt>
      <trkpt lat="48.38365" lon="2.46902">
        <ele>94</ele>
        <time>2011-10-15T12:11:45Z</time>
      </trkpt>
      <trkpt lat="48.38365" lon="2.46903">
        <ele>94</ele>
        <time>2011-10-15T12:12:02Z</time>
      </trkpt>
      <trkpt lat="48.38364" lon="2.46903">
        <ele>94</ele>
        <time>2011-10-15T12:12:13Z</time>
      </trkpt>
      <trkpt lat="48.38363" lon="2.46902">
        <ele>94</ele>
        <time>2011-10-15T12:12:22Z</time>
      </trkpt>
      <trkpt lat="48.38366" lon="2.46903">
        <ele>94</ele>
        <time>2011-10-15T12:12:48Z</time>
      </trkpt>
      <trkpt lat="48.38366" lon="2.46904">
        <ele>94</ele>
        <time>2011-10-15T12:12:56Z</time>
      </trkpt>
      <trkpt lat="48.38365" lon="2.46904">
        <ele>94</ele>
        <time>2011-10-15T12:13:16Z</time>
      </trkpt>
      <trkpt lat="48.38364" lon="2.469">
        <ele>94</ele>
        <time>2011-10-15T12:13:23Z</time>
      </trkpt>
      <trkpt lat="48.38364" lon="2.46899">
        <ele>94</ele>
        <time>2011-10-15T12:13:29Z</time>
      </trkpt>
      <trkpt lat="48.38363" lon="2.46897">
        <ele>94</ele>
        <time>2011-10-15T12:13:48Z</time>
      </trkpt>
      <trkpt lat="48.38363" lon="2.46899">
        <ele>94</ele>
        <time>2011-10-15T12:13:55Z</time>
      </trkpt>
      <trkpt lat="48.38364" lon="2.46899">
        <ele>94</ele>
        <time>2011-10-15T12:14:05Z</time>
      </trkpt>
      <trkpt lat="48.38364" lon="2.46899">
        <ele>94</ele>
        <time>2011-10-15T12:14:14Z</time>
      </trkpt>
      <trkpt lat="48.38363" lon="2.46904">
        <ele>94</ele>
        <time>2011-10-15T12:14:19Z</time>
      </trkpt>
      <trkpt lat="48.3836" lon="2.46922">
        <ele>91</ele>
        <time>2011-10-15T12:14:26Z</time>
      </trkpt>
      <trkpt lat="48.38357" lon="2.46933">
        <ele>91</ele>
        <time>2011-10-15T12:14:34Z</time>
      </trkpt>
      <trkpt lat="48.38354" lon="2.46949">
        <ele>90</ele>
        <time>2011-10-15T12:14:42Z</time>
      </trkpt>
      <trkpt lat="48.38351" lon="2.46965">
        <ele>90</ele>
        <time>2011-10-15T12:14:49Z</time>
      </trkpt>
      <trkpt lat="48.38348" lon="2.46976">
        <ele>89</ele>
        <time>2011-10-15T12:14:57Z</time>
      </trkpt>
      <trkpt lat="48.38346" lon="2.46987">
        <ele>89</ele>
        <time>2011-10-15T12:15:01Z</time>
      </trkpt>
      <trkpt lat="48.38346" lon="2.46989">
        <ele>88</ele>
        <time>2011-10-15T12:15:02Z</time>
      </trkpt>
      <trkpt lat="48.3834" lon="2.46997">
        <ele>87</ele>
        <time>2011-10-15T12:15:07Z</time>
      </trkpt>
      <trkpt lat="48.38339" lon="2.47001">
        <ele>86</ele>
        <time>2011-10-15T12:15:09Z</time>
      </trkpt>
      <trkpt lat="48.38339" lon="2.47004">
        <ele>86</ele>
        <time>2011-10-15T12:15:18Z</time>
      </trkpt>
      <trkpt lat="48.3834" lon="2.47005">
        <ele>86</ele>
        <time>2011-10-15T12:15:31Z</time>
      </trkpt>
      <trkpt lat="48.38339" lon="2.47005">
        <ele>86</ele>
        <time>2011-10-15T12:15:39Z</time>
      </trkpt>
      <trkpt lat="48.38338" lon="2.47007">
        <ele>86</ele>
        <time>2011-10-15T12:15:47Z</time>
      </trkpt>
      <trkpt lat="48.38339" lon="2.47007">
        <ele>86</ele>
        <time>2011-10-15T12:16:07Z</time>
      </trkpt>
      <trkpt lat="48.38339" lon="2.47007">
        <ele>86</ele>
        <time>2011-10-15T12:16:22Z</time>
      </trkpt>
      <trkpt lat="48.38339" lon="2.47007">
        <ele>86</ele>
        <time>2011-10-15T12:16:29Z</time>
      </trkpt>
      <trkpt lat="48.3834" lon="2.47007">
        <ele>86</ele>
        <time>2011-10-15T12:16:48Z</time>
      </trkpt>
      <trkpt lat="48.3834" lon="2.47007">
        <ele>86</ele>
        <time>2011-10-15T12:17:04Z</time>
      </trkpt>
      <trkpt lat="48.3834" lon="2.47007">
        <ele>86</ele>
        <time>2011-10-15T12:17:46Z</time>
      </trkpt>
      <trkpt lat="48.3834" lon="2.47008">
        <ele>86</ele>
        <time>2011-10-15T12:17:56Z</time>
      </trkpt>
      <trkpt lat="48.3834" lon="2.47006">
        <ele>86</ele>
        <time>2011-10-15T12:18:14Z</time>
      </trkpt>
      <trkpt lat="48.38339" lon="2.47006">
        <ele>86</ele>
        <time>2011-10-15T12:18:27Z</time>
      </trkpt>
      <trkpt lat="48.38339" lon="2.47005">
        <ele>86</ele>
        <time>2011-10-15T12:18:57Z</time>
      </trkpt>
      <trkpt lat="48.38339" lon="2.47005">
        <ele>86</ele>
        <time>2011-10-15T12:19:09Z</time>
      </trkpt>
      <trkpt lat="48.38342" lon="2.47009">
        <ele>86</ele>
        <time>2011-10-15T12:19:35Z</time>
      </trkpt>
      <trkpt lat="48.38339" lon="2.47008">
        <ele>86</ele>
        <time>2011-10-15T12:20:21Z</time>
      </trkpt>
      <trkpt lat="48.38339" lon="2.47008">
        <ele>86</ele>
        <time>2011-10-15T12:20:28Z</time>
      </trkpt>
      <trkpt lat="48.3834" lon="2.47007">
        <ele>86</ele>
        <time>2011-10-15T12:20:39Z</time>
      </trkpt>
      <trkpt lat="48.38341" lon="2.47006">
        <ele>86</ele>
        <time>2011-10-15T12:20:49Z</time>
      </trkpt>
      <trkpt lat="48.3834" lon="2.47009">
        <ele>86</ele>
        <time>2011-10-15T12:20:56Z</time>
      </trkpt>
      <trkpt lat="48.3834" lon="2.4701">
        <ele>86</ele>
        <time>2011-10-15T12:21:05Z</time>
      </trkpt>
      <trkpt lat="48.38341" lon="2.47011">
        <ele>86</ele>
        <time>2011-10-15T12:21:23Z</time>
      </trkpt>
      <trkpt lat="48.3834" lon="2.47011">
        <ele>86</ele>
        <time>2011-10-15T12:21:46Z</time>
      </trkpt>
      <trkpt lat="48.3834" lon="2.47012">
        <ele>86</ele>
        <time>2011-10-15T12:21:56Z</time>
      </trkpt>
      <trkpt lat="48.38341" lon="2.47014">
        <ele>86</ele>
        <time>2011-10-15T12:22:26Z</time>
      </trkpt>
      <trkpt lat="48.38342" lon="2.47015">
        <ele>86</ele>
        <time>2011-10-15T12:22:39Z</time>
      </trkpt>
      <trkpt lat="48.38344" lon="2.47017">
        <ele>86</ele>
        <time>2011-10-15T12:22:48Z</time>
      </trkpt>
      <trkpt lat="48.38342" lon="2.47016">
        <ele>86</ele>
        <time>2011-10-15T12:22:59Z</time>
      </trkpt>
      <trkpt lat="48.38341" lon="2.47018">
        <ele>86</ele>
        <time>2011-10-15T12:23:05Z</time>
      </trkpt>
      <trkpt lat="48.38339" lon="2.47016">
        <ele>86</ele>
        <time>2011-10-15T12:23:16Z</time>
      </trkpt>
      <trkpt lat="48.38338" lon="2.47017">
        <ele>86</ele>
        <time>2011-10-15T12:23:28Z</time>
      </trkpt>
      <trkpt lat="48.38339" lon="2.47018">
        <ele>86</ele>
        <time>2011-10-15T12:23:58Z</time>
      </trkpt>
      <trkpt lat="48.38338" lon="2.47018">
        <ele>86</ele>
        <time>2011-10-15T12:24:11Z</time>
      </trkpt>
      <trkpt lat="48.38342" lon="2.47016">
        <ele>86</ele>
        <time>2011-10-15T12:24:26Z</time>
      </trkpt>
      <trkpt lat="48.38342" lon="2.47012">
        <ele>86</ele>
        <time>2011-10-15T12:24:31Z</time>
      </trkpt>
      <trkpt lat="48.3834" lon="2.4701">
        <ele>86</ele>
        <time>2011-10-15T12:24:37Z</time>
      </trkpt>
      <trkpt lat="48.38341" lon="2.47007">
        <ele>86</ele>
        <time>2011-10-15T12:24:39Z</time>
      </trkpt>
      <trkpt lat="48.38348" lon="2.46987">
        <ele>89</ele>
        <time>2011-10-15T12:24:44Z</time>
      </trkpt>
      <trkpt lat="48.38359" lon="2.4695">
        <ele>90</ele>
        <time>2011-10-15T12:24:50Z</time>
      </trkpt>
      <trkpt lat="48.38368" lon="2.46903">
        <ele>94</ele>
        <time>2011-10-15T12:24:57Z</time>
      </trkpt>
      <trkpt lat="48.38364" lon="2.4687">
        <ele>95</ele>
        <time>2011-10-15T12:25:02Z</time>
      </trkpt>
      <trkpt lat="48.38357" lon="2.46838">
        <ele>95</ele>
        <time>2011-10-15T12:25:06Z</time>
      </trkpt>
      <trkpt lat="48.38356" lon="2.4683">
        <ele>99</ele>
        <time>2011-10-15T12:25:07Z</time>
      </trkpt>
      <trkpt lat="48.38353" lon="2.46808">
        <ele>100</ele>
        <time>2011-10-15T12:25:10Z</time>
      </trkpt>
      <trkpt lat="48.38346" lon="2.46788">
        <ele>101</ele>
        <time>2011-10-15T12:25:13Z</time>
      </trkpt>
      <trkpt lat="48.38339" lon="2.46771">
        <ele>101</ele>
        <time>2011-10-15T12:25:16Z</time>
      </trkpt>
      <trkpt lat="48.38335" lon="2.46758">
        <ele>101</ele>
        <time>2011-10-15T12:25:18Z</time>
      </trkpt>
      <trkpt lat="48.38334" lon="2.46739">
        <ele>103</ele>
        <time>2011-10-15T12:25:21Z</time>
      </trkpt>
      <trkpt lat="48.38331" lon="2.46715">
        <ele>98</ele>
        <time>2011-10-15T12:25:26Z</time>
      </trkpt>
      <trkpt lat="48.38331" lon="2.46698">
        <ele>99</ele>
        <time>2011-10-15T12:25:30Z</time>
      </trkpt>
      <trkpt lat="48.38337" lon="2.46691">
        <ele>107</ele>
        <time>2011-10-15T12:25:34Z</time>
      </trkpt>
      <trkpt lat="48.38352" lon="2.46679">
        <ele>107</ele>
        <time>2011-10-15T12:25:40Z</time>
      </trkpt>
      <trkpt lat="48.38347" lon="2.46662">
        <ele>108</ele>
        <time>2011-10-15T12:25:45Z</time>
      </trkpt>
      <trkpt lat="48.38337" lon="2.46654">
        <ele>108</ele>
        <time>2011-10-15T12:25:49Z</time>
      </trkpt>
      <trkpt lat="48.38319" lon="2.46656">
        <ele>102</ele>
        <time>2011-10-15T12:25:53Z</time>
      </trkpt>
      <trkpt lat="48.38316" lon="2.46655">
        <ele>102</ele>
        <time>2011-10-15T12:25:54Z</time>
      </trkpt>
      <trkpt lat="48.38293" lon="2.46642">
        <ele>101</ele>
        <time>2011-10-15T12:25:59Z</time>
      </trkpt>
      <trkpt lat="48.38288" lon="2.46642">
        <ele>100</ele>
        <time>2011-10-15T12:26:00Z</time>
      </trkpt>
      <trkpt lat="48.38269" lon="2.46631">
        <ele>99</ele>
        <time>2011-10-15T12:26:05Z</time>
      </trkpt>
      <trkpt lat="48.38241" lon="2.46586">
        <ele>96</ele>
        <time>2011-10-15T12:26:12Z</time>
      </trkpt>
      <trkpt lat="48.38239" lon="2.46565">
        <ele>97</ele>
        <time>2011-10-15T12:26:16Z</time>
      </trkpt>
      <trkpt lat="48.38247" lon="2.46554">
        <ele>97</ele>
        <time>2011-10-15T12:26:19Z</time>
      </trkpt>
      <trkpt lat="48.3825" lon="2.46551">
        <ele>97</ele>
        <time>2011-10-15T12:26:20Z</time>
      </trkpt>
      <trkpt lat="48.38261" lon="2.46538">
        <ele>105</ele>
        <time>2011-10-15T12:26:26Z</time>
      </trkpt>
      <trkpt lat="48.3827" lon="2.46526">
        <ele>106</ele>
        <time>2011-10-15T12:26:33Z</time>
      </trkpt>
      <trkpt lat="48.38271" lon="2.46525">
        <ele>106</ele>
        <time>2011-10-15T12:26:34Z</time>
      </trkpt>
      <trkpt lat="48.38274" lon="2.46512">
        <ele>107</ele>
        <time>2011-10-15T12:26:40Z</time>
      </trkpt>
      <trkpt lat="48.38277" lon="2.46503">
        <ele>107</ele>
        <time>2011-10-15T12:26:44Z</time>
      </trkpt>
      <trkpt lat="48.3828" lon="2.46493">
        <ele>111</ele>
        <time>2011-10-15T12:26:49Z</time>
      </trkpt>
      <trkpt lat="48.38279" lon="2.46473">
        <ele>112</ele>
        <time>2011-10-15T12:26:55Z</time>
      </trkpt>
      <trkpt lat="48.38281" lon="2.46459">
        <ele>113</ele>
        <time>2011-10-15T12:26:59Z</time>
      </trkpt>
      <trkpt lat="48.38282" lon="2.46451">
        <ele>113</ele>
        <time>2011-10-15T12:27:01Z</time>
      </trkpt>
      <trkpt lat="48.38283" lon="2.46428">
        <ele>114</ele>
        <time>2011-10-15T12:27:06Z</time>
      </trkpt>
      <trkpt lat="48.38289" lon="2.46412">
        <ele>118</ele>
        <time>2011-10-15T12:27:10Z</time>
      </trkpt>
      <trkpt lat="48.38292" lon="2.46395">
        <ele>118</ele>
        <time>2011-10-15T12:27:14Z</time>
      </trkpt>
      <trkpt lat="48.38284" lon="2.46381">
        <ele>118</ele>
        <time>2011-10-15T12:27:18Z</time>
      </trkpt>
      <trkpt lat="48.38277" lon="2.46378">
        <ele>118</ele>
        <time>2011-10-15T12:27:21Z</time>
      </trkpt>
      <trkpt lat="48.38268" lon="2.46377">
        <ele>118</ele>
        <time>2011-10-15T12:27:23Z</time>
      </trkpt>
      <trkpt lat="48.3826" lon="2.46355">
        <ele>118</ele>
        <time>2011-10-15T12:27:27Z</time>
      </trkpt>
      <trkpt lat="48.38261" lon="2.4635">
        <ele>119</ele>
        <time>2011-10-15T12:27:28Z</time>
      </trkpt>
      <trkpt lat="48.38268" lon="2.46318">
        <ele>121</ele>
        <time>2011-10-15T12:27:35Z</time>
      </trkpt>
      <trkpt lat="48.38277" lon="2.46299">
        <ele>122</ele>
        <time>2011-10-15T12:27:40Z</time>
      </trkpt>
      <trkpt lat="48.3829" lon="2.46271">
        <ele>122</ele>
        <time>2011-10-15T12:27:47Z</time>
      </trkpt>
      <trkpt lat="48.38301" lon="2.46243">
        <ele>123</ele>
        <time>2011-10-15T12:27:52Z</time>
      </trkpt>
      <trkpt lat="48.38304" lon="2.46237">
        <ele>123</ele>
        <time>2011-10-15T12:27:53Z</time>
      </trkpt>
      <trkpt lat="48.38321" lon="2.46216">
        <ele>123</ele>
        <time>2011-10-15T12:27:57Z</time>
      </trkpt>
      <trkpt lat="48.38338" lon="2.46213">
        <ele>122</ele>
        <time>2011-10-15T12:28:00Z</time>
      </trkpt>
      <trkpt lat="48.38351" lon="2.46215">
        <ele>122</ele>
        <time>2011-10-15T12:28:02Z</time>
      </trkpt>
      <trkpt lat="48.38375" lon="2.4621">
        <ele>122</ele>
        <time>2011-10-15T12:28:06Z</time>
      </trkpt>
      <trkpt lat="48.38387" lon="2.46201">
        <ele>122</ele>
        <time>2011-10-15T12:28:08Z</time>
      </trkpt>
      <trkpt lat="48.38426" lon="2.46187">
        <ele>122</ele>
        <time>2011-10-15T12:28:14Z</time>
      </trkpt>
      <trkpt lat="48.38454" lon="2.46187">
        <ele>122</ele>
        <time>2011-10-15T12:28:18Z</time>
      </trkpt>
      <trkpt lat="48.38478" lon="2.46172">
        <ele>122</ele>
        <time>2011-10-15T12:28:22Z</time>
      </trkpt>
      <trkpt lat="48.38528" lon="2.4612">
        <ele>120</ele>
        <time>2011-10-15T12:28:31Z</time>
      </trkpt>
      <trkpt lat="48.38568" lon="2.46079">
        <ele>121</ele>
        <time>2011-10-15T12:28:38Z</time>
      </trkpt>
      <trkpt lat="48.38574" lon="2.46073">
        <ele>121</ele>
        <time>2011-10-15T12:28:39Z</time>
      </trkpt>
      <trkpt lat="48.38598" lon="2.46049">
        <ele>118</ele>
        <time>2011-10-15T12:28:44Z</time>
      </trkpt>
      <trkpt lat="48.38606" lon="2.46031">
        <ele>119</ele>
        <time>2011-10-15T12:28:48Z</time>
      </trkpt>
      <trkpt lat="48.38611" lon="2.46021">
        <ele>119</ele>
        <time>2011-10-15T12:28:50Z</time>
      </trkpt>
      <trkpt lat="48.38628" lon="2.46003">
        <ele>118</ele>
        <time>2011-10-15T12:28:55Z</time>
      </trkpt>
      <trkpt lat="48.3863" lon="2.45997">
        <ele>120</ele>
        <time>2011-10-15T12:28:56Z</time>
      </trkpt>
      <trkpt lat="48.38644" lon="2.45976">
        <ele>119</ele>
        <time>2011-10-15T12:29:00Z</time>
      </trkpt>
      <trkpt lat="48.38655" lon="2.4595">
        <ele>119</ele>
        <time>2011-10-15T12:29:05Z</time>
      </trkpt>
      <trkpt lat="48.3866" lon="2.45943">
        <ele>119</ele>
        <time>2011-10-15T12:29:06Z</time>
      </trkpt>
      <trkpt lat="48.38668" lon="2.45922">
        <ele>118</ele>
        <time>2011-10-15T12:29:08Z</time>
      </trkpt>
      <trkpt lat="48.38683" lon="2.45924">
        <ele>117</ele>
        <time>2011-10-15T12:29:11Z</time>
      </trkpt>
      <trkpt lat="48.387" lon="2.45945">
        <ele>117</ele>
        <time>2011-10-15T12:29:14Z</time>
      </trkpt>
      <trkpt lat="48.38749" lon="2.46007">
        <ele>110</ele>
        <time>2011-10-15T12:29:20Z</time>
      </trkpt>
      <trkpt lat="48.38784" lon="2.46066">
        <ele>105</ele>
        <time>2011-10-15T12:29:25Z</time>
      </trkpt>
      <trkpt lat="48.3879" lon="2.46077">
        <ele>105</ele>
        <time>2011-10-15T12:29:26Z</time>
      </trkpt>
      <trkpt lat="48.3881" lon="2.46135">
        <ele>100</ele>
        <time>2011-10-15T12:29:31Z</time>
      </trkpt>
      <trkpt lat="48.38816" lon="2.46158">
        <ele>100</ele>
        <time>2011-10-15T12:29:33Z</time>
      </trkpt>
      <trkpt lat="48.38815" lon="2.46186">
        <ele>99</ele>
        <time>2011-10-15T12:29:37Z</time>
      </trkpt>
      <trkpt lat="48.38811" lon="2.46189">
        <ele>99</ele>
        <time>2011-10-15T12:29:38Z</time>
      </trkpt>
      <trkpt lat="48.38778" lon="2.46218">
        <ele>99</ele>
        <time>2011-10-15T12:29:45Z</time>
      </trkpt>
      <trkpt lat="48.38759" lon="2.46236">
        <ele>99</ele>
        <time>2011-10-15T12:29:49Z</time>
      </trkpt>
      <trkpt lat="48.38741" lon="2.4627">
        <ele>104</ele>
        <time>2011-10-15T12:29:54Z</time>
      </trkpt>
      <trkpt lat="48.38731" lon="2.46285">
        <ele>105</ele>
        <time>2011-10-15T12:29:56Z</time>
      </trkpt>
      <trkpt lat="48.3871" lon="2.46276">
        <ele>107</ele>
        <time>2011-10-15T12:30:01Z</time>
      </trkpt>
      <trkpt lat="48.38704" lon="2.46266">
        <ele>108</ele>
        <time>2011-10-15T12:30:03Z</time>
      </trkpt>
      <trkpt lat="48.3869" lon="2.46244">
        <ele>108</ele>
        <time>2011-10-15T12:30:08Z</time>
      </trkpt>
      <trkpt lat="48.38685" lon="2.46232">
        <ele>108</ele>
        <time>2011-10-15T12:30:11Z</time>
      </trkpt>
      <trkpt lat="48.38669" lon="2.46207">
        <ele>107</ele>
        <time>2011-10-15T12:30:19Z</time>
      </trkpt>
      <trkpt lat="48.38666" lon="2.46205">
        <ele>114</ele>
        <time>2011-10-15T12:30:20Z</time>
      </trkpt>
      <trkpt lat="48.38649" lon="2.46215">
        <ele>115</ele>
        <time>2011-10-15T12:30:26Z</time>
      </trkpt>
      <trkpt lat="48.38643" lon="2.4622">
        <ele>115</ele>
        <time>2011-10-15T12:30:28Z</time>
      </trkpt>
      <trkpt lat="48.38626" lon="2.46245">
        <ele>116</ele>
        <time>2011-10-15T12:30:36Z</time>
      </trkpt>
      <trkpt lat="48.38616" lon="2.46263">
        <ele>120</ele>
        <time>2011-10-15T12:30:42Z</time>
      </trkpt>
      <trkpt lat="48.38599" lon="2.46281">
        <ele>120</ele>
        <time>2011-10-15T12:30:49Z</time>
      </trkpt>
      <trkpt lat="48.38579" lon="2.463">
        <ele>124</ele>
        <time>2011-10-15T12:30:56Z</time>
      </trkpt>
      <trkpt lat="48.38556" lon="2.46321">
        <ele>124</ele>
        <time>2011-10-15T12:31:03Z</time>
      </trkpt>
      <trkpt lat="48.38541" lon="2.46333">
        <ele>124</ele>
        <time>2011-10-15T12:31:07Z</time>
      </trkpt>
      <trkpt lat="48.38535" lon="2.46341">
        <ele>127</ele>
        <time>2011-10-15T12:31:09Z</time>
      </trkpt>
      <trkpt lat="48.38533" lon="2.46365">
        <ele>128</ele>
        <time>2011-10-15T12:31:14Z</time>
      </trkpt>
      <trkpt lat="48.38539" lon="2.46393">
        <ele>129</ele>
        <time>2011-10-15T12:31:19Z</time>
      </trkpt>
      <trkpt lat="48.38543" lon="2.46407">
        <ele>129</ele>
        <time>2011-10-15T12:31:21Z</time>
      </trkpt>
      <trkpt lat="48.38554" lon="2.46433">
        <ele>131</ele>
        <time>2011-10-15T12:31:25Z</time>
      </trkpt>
      <trkpt lat="48.38571" lon="2.46466">
        <ele>131</ele>
        <time>2011-10-15T12:31:30Z</time>
      </trkpt>
      <trkpt lat="48.38581" lon="2.46499">
        <ele>131</ele>
        <time>2011-10-15T12:31:35Z</time>
      </trkpt>
      <trkpt lat="48.38588" lon="2.46536">
        <ele>125</ele>
        <time>2011-10-15T12:31:40Z</time>
      </trkpt>
      <trkpt lat="48.3859" lon="2.46543">
        <ele>125</ele>
        <time>2011-10-15T12:31:41Z</time>
      </trkpt>
      <trkpt lat="48.38595" lon="2.46565">
        <ele>125</ele>
        <time>2011-10-15T12:31:45Z</time>
      </trkpt>
      <trkpt lat="48.38606" lon="2.46593">
        <ele>123</ele>
        <time>2011-10-15T12:31:49Z</time>
      </trkpt>
      <trkpt lat="48.38616" lon="2.46607">
        <ele>121</ele>
        <time>2011-10-15T12:31:51Z</time>
      </trkpt>
      <trkpt lat="48.38624" lon="2.46638">
        <ele>120</ele>
        <time>2011-10-15T12:31:56Z</time>
      </trkpt>
      <trkpt lat="48.38616" lon="2.46653">
        <ele>120</ele>
        <time>2011-10-15T12:31:58Z</time>
      </trkpt>
      <trkpt lat="48.38602" lon="2.46682">
        <ele>116</ele>
        <time>2011-10-15T12:32:02Z</time>
      </trkpt>
      <trkpt lat="48.38589" lon="2.46719">
        <ele>112</ele>
        <time>2011-10-15T12:32:06Z</time>
      </trkpt>
      <trkpt lat="48.38579" lon="2.46757">
        <ele>105</ele>
        <time>2011-10-15T12:32:10Z</time>
      </trkpt>
      <trkpt lat="48.38578" lon="2.46786">
        <ele>104</ele>
        <time>2011-10-15T12:32:12Z</time>
      </trkpt>
      <trkpt lat="48.38577" lon="2.46813">
        <ele>102</ele>
        <time>2011-10-15T12:32:14Z</time>
      </trkpt>
      <trkpt lat="48.38577" lon="2.46849">
        <ele>99</ele>
        <time>2011-10-15T12:32:18Z</time>
      </trkpt>
      <trkpt lat="48.38572" lon="2.46842">
        <ele>99</ele>
        <time>2011-10-15T12:32:20Z</time>
      </trkpt>
      <trkpt lat="48.38554" lon="2.46838">
        <ele>100</ele>
        <time>2011-10-15T12:32:24Z</time>
      </trkpt>
      <trkpt lat="48.3855" lon="2.4684">
        <ele>100</ele>
        <time>2011-10-15T12:32:25Z</time>
      </trkpt>
      <trkpt lat="48.38541" lon="2.46844">
        <ele>101</ele>
        <time>2011-10-15T12:32:27Z</time>
      </trkpt>
      <trkpt lat="48.38531" lon="2.46862">
        <ele>101</ele>
        <time>2011-10-15T12:32:32Z</time>
      </trkpt>
      <trkpt lat="48.38528" lon="2.46878">
        <ele>101</ele>
        <time>2011-10-15T12:32:36Z</time>
      </trkpt>
      <trkpt lat="48.38527" lon="2.46881">
        <ele>101</ele>
        <time>2011-10-15T12:32:37Z</time>
      </trkpt>
      <trkpt lat="48.3852" lon="2.469">
        <ele>101</ele>
        <time>2011-10-15T12:32:42Z</time>
      </trkpt>
      <trkpt lat="48.3851" lon="2.46918">
        <ele>101</ele>
        <time>2011-10-15T12:32:46Z</time>
      </trkpt>
      <trkpt lat="48.38492" lon="2.46936">
        <ele>100</ele>
        <time>2011-10-15T12:32:52Z</time>
      </trkpt>
      <trkpt lat="48.38488" lon="2.46943">
        <ele>99</ele>
        <time>2011-10-15T12:32:55Z</time>
      </trkpt>
      <trkpt lat="48.38493" lon="2.46951">
        <ele>99</ele>
        <time>2011-10-15T12:32:59Z</time>
      </trkpt>
      <trkpt lat="48.38494" lon="2.46977">
        <ele>98</ele>
        <time>2011-10-15T12:33:03Z</time>
      </trkpt>
      <trkpt lat="48.38489" lon="2.47004">
        <ele>96</ele>
        <time>2011-10-15T12:33:07Z</time>
      </trkpt>
      <trkpt lat="48.38487" lon="2.47019">
        <ele>95</ele>
        <time>2011-10-15T12:33:09Z</time>
      </trkpt>
      <trkpt lat="48.38488" lon="2.47049">
        <ele>93</ele>
        <time>2011-10-15T12:33:13Z</time>
      </trkpt>
      <trkpt lat="48.38495" lon="2.4709">
        <ele>91</ele>
        <time>2011-10-15T12:33:18Z</time>
      </trkpt>
      <trkpt lat="48.38497" lon="2.47096">
        <ele>90</ele>
        <time>2011-10-15T12:33:19Z</time>
      </trkpt>
      <trkpt lat="48.38509" lon="2.47127">
        <ele>88</ele>
        <time>2011-10-15T12:33:23Z</time>
      </trkpt>
      <trkpt lat="48.38506" lon="2.47151">
        <ele>88</ele>
        <time>2011-10-15T12:33:26Z</time>
      </trkpt>
      <trkpt lat="48.38503" lon="2.47159">
        <ele>88</ele>
        <time>2011-10-15T12:33:27Z</time>
      </trkpt>
      <trkpt lat="48.38493" lon="2.47195">
        <ele>85</ele>
        <time>2011-10-15T12:33:31Z</time>
      </trkpt>
      <trkpt lat="48.38472" lon="2.47249">
        <ele>83</ele>
        <time>2011-10-15T12:33:36Z</time>
      </trkpt>
      <trkpt lat="48.38443" lon="2.47312">
        <ele>75</ele>
        <time>2011-10-15T12:33:42Z</time>
      </trkpt>
      <trkpt lat="48.38431" lon="2.47317">
        <ele>75</ele>
        <time>2011-10-15T12:33:46Z</time>
      </trkpt>
      <trkpt lat="48.38425" lon="2.47307">
        <ele>75</ele>
        <time>2011-10-15T12:33:48Z</time>
      </trkpt>
      <trkpt lat="48.38391" lon="2.47272">
        <ele>75</ele>
        <time>2011-10-15T12:33:55Z</time>
      </trkpt>
      <trkpt lat="48.38387" lon="2.47267">
        <ele>75</ele>
        <time>2011-10-15T12:33:56Z</time>
      </trkpt>
      <trkpt lat="48.38328" lon="2.47228">
        <ele>76</ele>
        <time>2011-10-15T12:34:06Z</time>
      </trkpt>
      <trkpt lat="48.38317" lon="2.47221">
        <ele>76</ele>
        <time>2011-10-15T12:34:08Z</time>
      </trkpt>
      <trkpt lat="48.38304" lon="2.47194">
        <ele>76</ele>
        <time>2011-10-15T12:34:12Z</time>
      </trkpt>
      <trkpt lat="48.38305" lon="2.47186">
        <ele>76</ele>
        <time>2011-10-15T12:34:13Z</time>
      </trkpt>
      <trkpt lat="48.38309" lon="2.47169">
        <ele>77</ele>
        <time>2011-10-15T12:34:15Z</time>
      </trkpt>
      <trkpt lat="48.38324" lon="2.47107">
        <ele>79</ele>
        <time>2011-10-15T12:34:23Z</time>
      </trkpt>
      <trkpt lat="48.38335" lon="2.47054">
        <ele>85</ele>
        <time>2011-10-15T12:34:30Z</time>
      </trkpt>
      <trkpt lat="48.38346" lon="2.47012">
        <ele>86</ele>
        <time>2011-10-15T12:34:36Z</time>
      </trkpt>
      <trkpt lat="48.38347" lon="2.47006">
        <ele>86</ele>
        <time>2011-10-15T12:34:38Z</time>
      </trkpt>
      <trkpt lat="48.38346" lon="2.47002">
        <ele>86</ele>
        <time>2011-10-15T12:34:40Z</time>
      </trkpt>
      <trkpt lat="48.38346" lon="2.46993">
        <ele>88</ele>
        <time>2011-10-15T12:34:46Z</time>
      </trkpt>
      <trkpt lat="48.38346" lon="2.46992">
        <ele>88</ele>
        <time>2011-10-15T12:34:47Z</time>
      </trkpt>
      <trkpt lat="48.38346" lon="2.4699">
        <ele>88</ele>
        <time>2011-10-15T12:34:53Z</time>
      </trkpt>
      <trkpt lat="48.38346" lon="2.46991">
        <ele>88</ele>
        <time>2011-10-15T12:35:01Z</time>
      </trkpt>
      <trkpt lat="48.38346" lon="2.46992">
        <ele>88</ele>
        <time>2011-10-15T12:35:10Z</time>
      </trkpt>
      <trkpt lat="48.38345" lon="2.46991">
        <ele>88</ele>
        <time>2011-10-15T12:35:19Z</time>
      </trkpt>
      <trkpt lat="48.38345" lon="2.46991">
        <ele>88</ele>
        <time>2011-10-15T12:35:26Z</time>
      </trkpt>
      <trkpt lat="48.38345" lon="2.46993">
        <ele>88</ele>
        <time>2011-10-15T12:35:30Z</time>
      </trkpt>
      <trkpt lat="48.38344" lon="2.46991">
        <ele>88</ele>
        <time>2011-10-15T12:35:36Z</time>
      </trkpt>
      <trkpt lat="48.38338" lon="2.46991">
        <ele>88</ele>
        <time>2011-10-15T12:35:45Z</time>
      </trkpt>
      <trkpt lat="48.38337" lon="2.46991">
        <ele>88</ele>
        <time>2011-10-15T12:35:52Z</time>
      </trkpt>
      <trkpt lat="48.38341" lon="2.4699">
        <ele>88</ele>
        <time>2011-10-15T12:36:05Z</time>
      </trkpt>
      <trkpt lat="48.38341" lon="2.4699">
        <ele>88</ele>
        <time>2011-10-15T12:36:17Z</time>
      </trkpt>
      <trkpt lat="48.38342" lon="2.4699">
        <ele>88</ele>
        <time>2011-10-15T12:36:28Z</time>
      </trkpt>
      <trkpt lat="48.38345" lon="2.46991">
        <ele>88</ele>
        <time>2011-10-15T12:36:34Z</time>
      </trkpt>
      <trkpt lat="48.38348" lon="2.46991">
        <ele>88</ele>
        <time>2011-10-15T12:36:48Z</time>
      </trkpt>
      <trkpt lat="48.38348" lon="2.46992">
        <ele>88</ele>
        <time>2011-10-15T12:36:55Z</time>
      </trkpt>
      <trkpt lat="48.38346" lon="2.46993">
        <ele>88</ele>
        <time>2011-10-15T12:37:00Z</time>
      </trkpt>
      <trkpt lat="48.38346" lon="2.46993">
        <ele>88</ele>
        <time>2011-10-15T12:37:12Z</time>
      </trkpt>
      <trkpt lat="48.38348" lon="2.46987">
        <ele>89</ele>
        <time>2011-10-15T12:37:17Z</time>
      </trkpt>
      <trkpt lat="48.38349" lon="2.46984">
        <ele>89</ele>
        <time>2011-10-15T12:37:19Z</time>
      </trkpt>
      <trkpt lat="48.38351" lon="2.46976">
        <ele>89</ele>
        <time>2011-10-15T12:37:25Z</time>
      </trkpt>
      <trkpt lat="48.38351" lon="2.46967">
        <ele>90</ele>
        <time>2011-10-15T12:37:30Z</time>
      </trkpt>
      <trkpt lat="48.38353" lon="2.46955">
        <ele>90</ele>
        <time>2011-10-15T12:37:36Z</time>
      </trkpt>
      <trkpt lat="48.38356" lon="2.46944">
        <ele>90</ele>
        <time>2011-10-15T12:37:42Z</time>
      </trkpt>
      <trkpt lat="48.38357" lon="2.46934">
        <ele>91</ele>
        <time>2011-10-15T12:37:47Z</time>
      </trkpt>
      <trkpt lat="48.38359" lon="2.46931">
        <ele>91</ele>
        <time>2011-10-15T12:37:49Z</time>
      </trkpt>
      <trkpt lat="48.38364" lon="2.46923">
        <ele>91</ele>
        <time>2011-10-15T12:37:54Z</time>
      </trkpt>
      <trkpt lat="48.38368" lon="2.46912">
        <ele>94</ele>
        <time>2011-10-15T12:38:01Z</time>
      </trkpt>
      <trkpt lat="48.38369" lon="2.4691">
        <ele>94</ele>
        <time>2011-10-15T12:38:02Z</time>
      </trkpt>
      <trkpt lat="48.38371" lon="2.46906">
        <ele>94</ele>
        <time>2011-10-15T12:38:05Z</time>
      </trkpt>
      <trkpt lat="48.38372" lon="2.46905">
        <ele>94</ele>
        <time>2011-10-15T12:38:07Z</time>
      </trkpt>
      <trkpt lat="48.38368" lon="2.46902">
        <ele>94</ele>
        <time>2011-10-15T12:38:18Z</time>
      </trkpt>
      <trkpt lat="48.38367" lon="2.46901">
        <ele>94</ele>
        <time>2011-10-15T12:38:22Z</time>
      </trkpt>
      <trkpt lat="48.38366" lon="2.46898">
        <ele>94</ele>
        <time>2011-10-15T12:38:29Z</time>
      </trkpt>
      <trkpt lat="48.38366" lon="2.46897">
        <ele>94</ele>
        <time>2011-10-15T12:38:37Z</time>
      </trkpt>
      <trkpt lat="48.38363" lon="2.46897">
        <ele>94</ele>
        <time>2011-10-15T12:38:46Z</time>
      </trkpt>
      <trkpt lat="48.38364" lon="2.46897">
        <ele>94</ele>
        <time>2011-10-15T12:38:57Z</time>
      </trkpt>
      <trkpt lat="48.38363" lon="2.46897">
        <ele>94</ele>
        <time>2011-10-15T12:39:04Z</time>
      </trkpt>
      <trkpt lat="48.38362" lon="2.46897">
        <ele>94</ele>
        <time>2011-10-15T12:39:15Z</time>
      </trkpt>
      <trkpt lat="48.38363" lon="2.46898">
        <ele>94</ele>
        <time>2011-10-15T12:39:25Z</time>
      </trkpt>
      <trkpt lat="48.38363" lon="2.469">
        <ele>94</ele>
        <time>2011-10-15T12:39:34Z</time>
      </trkpt>
      <trkpt lat="48.38363" lon="2.46908">
        <ele>94</ele>
        <time>2011-10-15T12:39:38Z</time>
      </trkpt>
      <trkpt lat="48.3836" lon="2.4692">
        <ele>91</ele>
        <time>2011-10-15T12:39:44Z</time>
      </trkpt>
      <trkpt lat="48.38358" lon="2.46931">
        <ele>91</ele>
        <time>2011-10-15T12:39:50Z</time>
      </trkpt>
      <trkpt lat="48.38356" lon="2.46946">
        <ele>90</ele>
        <time>2011-10-15T12:39:58Z</time>
      </trkpt>
      <trkpt lat="48.38355" lon="2.46953">
        <ele>90</ele>
        <time>2011-10-15T12:40:02Z</time>
      </trkpt>
      <trkpt lat="48.38352" lon="2.46968">
        <ele>90</ele>
        <time>2011-10-15T12:40:10Z</time>
      </trkpt>
      <trkpt lat="48.38351" lon="2.46974">
        <ele>89</ele>
        <time>2011-10-15T12:40:13Z</time>
      </trkpt>
      <trkpt lat="48.38346" lon="2.46982">
        <ele>89</ele>
        <time>2011-10-15T12:40:20Z</time>
      </trkpt>
      <trkpt lat="48.38346" lon="2.46986">
        <ele>88</ele>
        <time>2011-10-15T12:40:23Z</time>
      </trkpt>
      <trkpt lat="48.38345" lon="2.4699">
        <ele>88</ele>
        <time>2011-10-15T12:40:32Z</time>
      </trkpt>
      <trkpt lat="48.38345" lon="2.46991">
        <ele>88</ele>
        <time>2011-10-15T12:40:44Z</time>
      </trkpt>
      <trkpt lat="48.38343" lon="2.46992">
        <ele>88</ele>
        <time>2011-10-15T12:40:48Z</time>
      </trkpt>
      <trkpt lat="48.38341" lon="2.47002">
        <ele>86</ele>
        <time>2011-10-15T12:40:55Z</time>
      </trkpt>
      <trkpt lat="48.38338" lon="2.47013">
        <ele>86</ele>
        <time>2011-10-15T12:41:03Z</time>
      </trkpt>
      <trkpt lat="48.38336" lon="2.47019">
        <ele>86</ele>
        <time>2011-10-15T12:41:11Z</time>
      </trkpt>
      <trkpt lat="48.38336" lon="2.4702">
        <ele>86</ele>
        <time>2011-10-15T12:41:24Z</time>
      </trkpt>
      <trkpt lat="48.38336" lon="2.47021">
        <ele>86</ele>
        <time>2011-10-15T12:42:01Z</time>
      </trkpt>
      <trkpt lat="48.38337" lon="2.47018">
        <ele>86</ele>
        <time>2011-10-15T12:42:17Z</time>
      </trkpt>
      <trkpt lat="48.38334" lon="2.47019">
        <ele>86</ele>
        <time>2011-10-15T12:42:25Z</time>
      </trkpt>
      <trkpt lat="48.38332" lon="2.4702">
        <ele>84</ele>
        <time>2011-10-15T12:42:38Z</time>
      </trkpt>
      <trkpt lat="48.38332" lon="2.4702">
        <ele>84</ele>
        <time>2011-10-15T12:42:52Z</time>
      </trkpt>
      <trkpt lat="48.38331" lon="2.47019">
        <ele>84</ele>
        <time>2011-10-15T12:43:00Z</time>
      </trkpt>
      <trkpt lat="48.38334" lon="2.47019">
        <ele>86</ele>
        <time>2011-10-15T12:43:06Z</time>
      </trkpt>
      <trkpt lat="48.38334" lon="2.47019">
        <ele>86</ele>
        <time>2011-10-15T12:43:20Z</time>
      </trkpt>
      <trkpt lat="48.38335" lon="2.47022">
        <ele>86</ele>
        <time>2011-10-15T12:43:37Z</time>
      </trkpt>
      <trkpt lat="48.38334" lon="2.47022">
        <ele>86</ele>
        <time>2011-10-15T12:43:45Z</time>
      </trkpt>
      <trkpt lat="48.38335" lon="2.47022">
        <ele>86</ele>
        <time>2011-10-15T12:44:25Z</time>
      </trkpt>
      <trkpt lat="48.38338" lon="2.47022">
        <ele>86</ele>
        <time>2011-10-15T12:44:36Z</time>
      </trkpt>
      <trkpt lat="48.38337" lon="2.47022">
        <ele>86</ele>
        <time>2011-10-15T12:44:47Z</time>
      </trkpt>
      <trkpt lat="48.38336" lon="2.47023">
        <ele>86</ele>
        <time>2011-10-15T12:44:54Z</time>
      </trkpt>
      <trkpt lat="48.38332" lon="2.47023">
        <ele>84</ele>
        <time>2011-10-15T12:45:03Z</time>
      </trkpt>
      <trkpt lat="48.38332" lon="2.47023">
        <ele>84</ele>
        <time>2011-10-15T12:45:10Z</time>
      </trkpt>
      <trkpt lat="48.38335" lon="2.47023">
        <ele>86</ele>
        <time>2011-10-15T12:45:29Z</time>
      </trkpt>
      <trkpt lat="48.38338" lon="2.47023">
        <ele>86</ele>
        <time>2011-10-15T12:45:39Z</time>
      </trkpt>
      <trkpt lat="48.38337" lon="2.47022">
        <ele>86</ele>
        <time>2011-10-15T12:45:50Z</time>
      </trkpt>
      <trkpt lat="48.38334" lon="2.47018">
        <ele>86</ele>
        <time>2011-10-15T12:46:22Z</time>
      </trkpt>
      <trkpt lat="48.38334" lon="2.47018">
        <ele>86</ele>
        <time>2011-10-15T12:46:38Z</time>
      </trkpt>
      <trkpt lat="48.38334" lon="2.47018">
        <ele>86</ele>
        <time>2011-10-15T12:46:48Z</time>
      </trkpt>
      <trkpt lat="48.38332" lon="2.47021">
        <ele>84</ele>
        <time>2011-10-15T12:47:10Z</time>
      </trkpt>
      <trkpt lat="48.38334" lon="2.47022">
        <ele>86</ele>
        <time>2011-10-15T12:47:30Z</time>
      </trkpt>
      <trkpt lat="48.38332" lon="2.47022">
        <ele>84</ele>
        <time>2011-10-15T12:47:42Z</time>
      </trkpt>
      <trkpt lat="48.38329" lon="2.4702">
        <ele>84</ele>
        <time>2011-10-15T12:48:03Z</time>
      </trkpt>
      <trkpt lat="48.38332" lon="2.47022">
        <ele>84</ele>
        <time>2011-10-15T12:48:36Z</time>
      </trkpt>
      <trkpt lat="48.3833" lon="2.4702">
        <ele>84</ele>
        <time>2011-10-15T12:48:50Z</time>
      </trkpt>
      <trkpt lat="48.3833" lon="2.47019">
        <ele>84</ele>
        <time>2011-10-15T12:49:03Z</time>
      </trkpt>
      <trkpt lat="48.38331" lon="2.47019">
        <ele>84</ele>
        <time>2011-10-15T12:49:11Z</time>
      </trkpt>
      <trkpt lat="48.38333" lon="2.47018">
        <ele>84</ele>
        <time>2011-10-15T12:49:31Z</time>
      </trkpt>
      <trkpt lat="48.3833" lon="2.47018">
        <ele>84</ele>
        <time>2011-10-15T12:49:41Z</time>
      </trkpt>
      <trkpt lat="48.38329" lon="2.47018">
        <ele>84</ele>
        <time>2011-10-15T12:49:50Z</time>
      </trkpt>
      <trkpt lat="48.38331" lon="2.47019">
        <ele>84</ele>
        <time>2011-10-15T12:49:52Z</time>
      </trkpt>
      <trkpt lat="48.38335" lon="2.47018">
        <ele>86</ele>
        <time>2011-10-15T12:49:59Z</time>
      </trkpt>
      <trkpt lat="48.38335" lon="2.47016">
        <ele>86</ele>
        <time>2011-10-15T12:50:09Z</time>
      </trkpt>
      <trkpt lat="48.38342" lon="2.46992">
        <ele>88</ele>
        <time>2011-10-15T12:50:15Z</time>
      </trkpt>
      <trkpt lat="48.3835" lon="2.46957">
        <ele>90</ele>
        <time>2011-10-15T12:50:21Z</time>
      </trkpt>
      <trkpt lat="48.38361" lon="2.46907">
        <ele>94</ele>
        <time>2011-10-15T12:50:29Z</time>
      </trkpt>
      <trkpt lat="48.38363" lon="2.46901">
        <ele>94</ele>
        <time>2011-10-15T12:50:30Z</time>
      </trkpt>
      <trkpt lat="48.3836" lon="2.46877">
        <ele>95</ele>
        <time>2011-10-15T12:50:34Z</time>
      </trkpt>
      <trkpt lat="48.38354" lon="2.46857">
        <ele>95</ele>
        <time>2011-10-15T12:50:37Z</time>
      </trkpt>
      <trkpt lat="48.3835" lon="2.46834">
        <ele>95</ele>
        <time>2011-10-15T12:50:40Z</time>
      </trkpt>
      <trkpt lat="48.38345" lon="2.46812">
        <ele>99</ele>
        <time>2011-10-15T12:50:43Z</time>
      </trkpt>
      <trkpt lat="48.38333" lon="2.46775">
        <ele>95</ele>
        <time>2011-10-15T12:50:49Z</time>
      </trkpt>
      <trkpt lat="48.38324" lon="2.46751">
        <ele>97</ele>
        <time>2011-10-15T12:50:53Z</time>
      </trkpt>
      <trkpt lat="48.38322" lon="2.46738">
        <ele>98</ele>
        <time>2011-10-15T12:50:55Z</time>
      </trkpt>
      <trkpt lat="48.38321" lon="2.46718">
        <ele>98</ele>
        <time>2011-10-15T12:50:59Z</time>
      </trkpt>
      <trkpt lat="48.38324" lon="2.467">
        <ele>98</ele>
        <time>2011-10-15T12:51:03Z</time>
      </trkpt>
      <trkpt lat="48.38331" lon="2.46691">
        <ele>99</ele>
        <time>2011-10-15T12:51:07Z</time>
      </trkpt>
      <trkpt lat="48.3834" lon="2.46683">
        <ele>106</ele>
        <time>2011-10-15T12:51:12Z</time>
      </trkpt>
      <trkpt lat="48.38347" lon="2.46676">
        <ele>107</ele>
        <time>2011-10-15T12:51:15Z</time>
      </trkpt>
      <trkpt lat="48.38342" lon="2.46658">
        <ele>108</ele>
        <time>2011-10-15T12:51:20Z</time>
      </trkpt>
      <trkpt lat="48.38334" lon="2.46647">
        <ele>109</ele>
        <time>2011-10-15T12:51:23Z</time>
      </trkpt>
      <trkpt lat="48.38319" lon="2.46652">
        <ele>102</ele>
        <time>2011-10-15T12:51:27Z</time>
      </trkpt>
      <trkpt lat="48.38304" lon="2.46644">
        <ele>101</ele>
        <time>2011-10-15T12:51:31Z</time>
      </trkpt>
      <trkpt lat="48.38279" lon="2.46641">
        <ele>99</ele>
        <time>2011-10-15T12:51:36Z</time>
      </trkpt>
      <trkpt lat="48.38269" lon="2.46635">
        <ele>99</ele>
        <time>2011-10-15T12:51:39Z</time>
      </trkpt>
      <trkpt lat="48.38266" lon="2.4663">
        <ele>99</ele>
        <time>2011-10-15T12:51:40Z</time>
      </trkpt>
      <trkpt lat="48.38237" lon="2.46581">
        <ele>97</ele>
        <time>2011-10-15T12:51:49Z</time>
      </trkpt>
      <trkpt lat="48.38233" lon="2.46575">
        <ele>97</ele>
        <time>2011-10-15T12:51:50Z</time>
      </trkpt>
      <trkpt lat="48.38235" lon="2.4656">
        <ele>97</ele>
        <time>2011-10-15T12:51:54Z</time>
      </trkpt>
      <trkpt lat="48.38251" lon="2.4654">
        <ele>105</ele>
        <time>2011-10-15T12:52:01Z</time>
      </trkpt>
      <trkpt lat="48.38258" lon="2.46529">
        <ele>106</ele>
        <time>2011-10-15T12:52:07Z</time>
      </trkpt>
      <trkpt lat="48.38263" lon="2.46521">
        <ele>106</ele>
        <time>2011-10-15T12:52:12Z</time>
      </trkpt>
      <trkpt lat="48.38266" lon="2.46509">
        <ele>106</ele>
        <time>2011-10-15T12:52:18Z</time>
      </trkpt>
      <trkpt lat="48.38269" lon="2.46502">
        <ele>106</ele>
        <time>2011-10-15T12:52:22Z</time>
      </trkpt>
      <trkpt lat="48.38271" lon="2.46491">
        <ele>110</ele>
        <time>2011-10-15T12:52:27Z</time>
      </trkpt>
      <trkpt lat="48.38269" lon="2.46475">
        <ele>111</ele>
        <time>2011-10-15T12:52:32Z</time>
      </trkpt>
      <trkpt lat="48.38271" lon="2.46461">
        <ele>112</ele>
        <time>2011-10-15T12:52:36Z</time>
      </trkpt>
      <trkpt lat="48.38273" lon="2.46449">
        <ele>113</ele>
        <time>2011-10-15T12:52:40Z</time>
      </trkpt>
      <trkpt lat="48.38273" lon="2.46428">
        <ele>113</ele>
        <time>2011-10-15T12:52:45Z</time>
      </trkpt>
      <trkpt lat="48.38276" lon="2.46408">
        <ele>116</ele>
        <time>2011-10-15T12:52:49Z</time>
      </trkpt>
      <trkpt lat="48.38278" lon="2.4639">
        <ele>118</ele>
        <time>2011-10-15T12:52:53Z</time>
      </trkpt>
      <trkpt lat="48.38271" lon="2.46376">
        <ele>118</ele>
        <time>2011-10-15T12:52:57Z</time>
      </trkpt>
      <trkpt lat="48.38258" lon="2.46372">
        <ele>118</ele>
        <time>2011-10-15T12:53:01Z</time>
      </trkpt>
      <trkpt lat="48.38248" lon="2.46362">
        <ele>113</ele>
        <time>2011-10-15T12:53:04Z</time>
      </trkpt>
      <trkpt lat="48.3825" lon="2.46343">
        <ele>116</ele>
        <time>2011-10-15T12:53:08Z</time>
      </trkpt>
      <trkpt lat="48.38253" lon="2.46335">
        <ele>119</ele>
        <time>2011-10-15T12:53:10Z</time>
      </trkpt>
      <trkpt lat="48.38266" lon="2.46307">
        <ele>121</ele>
        <time>2011-10-15T12:53:17Z</time>
      </trkpt>
      <trkpt lat="48.38277" lon="2.4629">
        <ele>122</ele>
        <time>2011-10-15T12:53:22Z</time>
      </trkpt>
      <trkpt lat="48.38287" lon="2.46271">
        <ele>122</ele>
        <time>2011-10-15T12:53:27Z</time>
      </trkpt>
      <trkpt lat="48.38298" lon="2.46242">
        <ele>123</ele>
        <time>2011-10-15T12:53:32Z</time>
      </trkpt>
      <trkpt lat="48.38301" lon="2.46235">
        <ele>123</ele>
        <time>2011-10-15T12:53:33Z</time>
      </trkpt>
      <trkpt lat="48.38322" lon="2.46213">
        <ele>123</ele>
        <time>2011-10-15T12:53:38Z</time>
      </trkpt>
      <trkpt lat="48.38334" lon="2.46213">
        <ele>122</ele>
        <time>2011-10-15T12:53:40Z</time>
      </trkpt>
      <trkpt lat="48.38352" lon="2.46215">
        <ele>122</ele>
        <time>2011-10-15T12:53:43Z</time>
      </trkpt>
      <trkpt lat="48.38381" lon="2.462">
        <ele>122</ele>
        <time>2011-10-15T12:53:48Z</time>
      </trkpt>
      <trkpt lat="48.38419" lon="2.46187">
        <ele>122</ele>
        <time>2011-10-15T12:53:54Z</time>
      </trkpt>
      <trkpt lat="48.38453" lon="2.46186">
        <ele>122</ele>
        <time>2011-10-15T12:53:59Z</time>
      </trkpt>
      <trkpt lat="48.38481" lon="2.46165">
        <ele>122</ele>
        <time>2011-10-15T12:54:04Z</time>
      </trkpt>
      <trkpt lat="48.38524" lon="2.4612">
        <ele>120</ele>
        <time>2011-10-15T12:54:12Z</time>
      </trkpt>
      <trkpt lat="48.38565" lon="2.4608">
        <ele>121</ele>
        <time>2011-10-15T12:54:19Z</time>
      </trkpt>
      <trkpt lat="48.38592" lon="2.46052">
        <ele>118</ele>
        <time>2011-10-15T12:54:24Z</time>
      </trkpt>
      <trkpt lat="48.38594" lon="2.46048">
        <ele>118</ele>
        <time>2011-10-15T12:54:25Z</time>
      </trkpt>
      <trkpt lat="48.38601" lon="2.46027">
        <ele>119</ele>
        <time>2011-10-15T12:54:29Z</time>
      </trkpt>
      <trkpt lat="48.3862" lon="2.46007">
        <ele>118</ele>
        <time>2011-10-15T12:54:35Z</time>
      </trkpt>
      <trkpt lat="48.38638" lon="2.45985">
        <ele>119</ele>
        <time>2011-10-15T12:54:39Z</time>
      </trkpt>
      <trkpt lat="48.38643" lon="2.45979">
        <ele>119</ele>
        <time>2011-10-15T12:54:40Z</time>
      </trkpt>
      <trkpt lat="48.3866" lon="2.45961">
        <ele>119</ele>
        <time>2011-10-15T12:54:44Z</time>
      </trkpt>
      <trkpt lat="48.38673" lon="2.45928">
        <ele>117</ele>
        <time>2011-10-15T12:54:48Z</time>
      </trkpt>
      <trkpt lat="48.38688" lon="2.45936">
        <ele>117</ele>
        <time>2011-10-15T12:54:52Z</time>
      </trkpt>
      <trkpt lat="48.38697" lon="2.45949">
        <ele>117</ele>
        <time>2011-10-15T12:54:54Z</time>
      </trkpt>
      <trkpt lat="48.38717" lon="2.45978">
        <ele>115</ele>
        <time>2011-10-15T12:54:57Z</time>
      </trkpt>
      <trkpt lat="48.38754" lon="2.46021">
        <ele>108</ele>
        <time>2011-10-15T12:55:01Z</time>
      </trkpt>
      <trkpt lat="48.38776" lon="2.46058">
        <ele>105</ele>
        <time>2011-10-15T12:55:04Z</time>
      </trkpt>
      <trkpt lat="48.38795" lon="2.46094">
        <ele>101</ele>
        <time>2011-10-15T12:55:07Z</time>
      </trkpt>
      <trkpt lat="48.38815" lon="2.46166">
        <ele>99</ele>
        <time>2011-10-15T12:55:13Z</time>
      </trkpt>
      <trkpt lat="48.38817" lon="2.46176">
        <ele>99</ele>
        <time>2011-10-15T12:55:14Z</time>
      </trkpt>
      <trkpt lat="48.38814" lon="2.46196">
        <ele>99</ele>
        <time>2011-10-15T12:55:17Z</time>
      </trkpt>
      <trkpt lat="48.38797" lon="2.46203">
        <ele>99</ele>
        <time>2011-10-15T12:55:20Z</time>
      </trkpt>
      <trkpt lat="48.38778" lon="2.46217">
        <ele>99</ele>
        <time>2011-10-15T12:55:24Z</time>
      </trkpt>
      <trkpt lat="48.38755" lon="2.46236">
        <ele>100</ele>
        <time>2011-10-15T12:55:29Z</time>
      </trkpt>
      <trkpt lat="48.38742" lon="2.46266">
        <ele>103</ele>
        <time>2011-10-15T12:55:33Z</time>
      </trkpt>
      <trkpt lat="48.38734" lon="2.46291">
        <ele>105</ele>
        <time>2011-10-15T12:55:36Z</time>
      </trkpt>
      <trkpt lat="48.3872" lon="2.4628">
        <ele>106</ele>
        <time>2011-10-15T12:55:40Z</time>
      </trkpt>
      <trkpt lat="48.38716" lon="2.46276">
        <ele>106</ele>
        <time>2011-10-15T12:55:41Z</time>
      </trkpt>
      <trkpt lat="48.38702" lon="2.46257">
        <ele>108</ele>
        <time>2011-10-15T12:55:45Z</time>
      </trkpt>
      <trkpt lat="48.38683" lon="2.46226">
        <ele>108</ele>
        <time>2011-10-15T12:55:54Z</time>
      </trkpt>
      <trkpt lat="48.38671" lon="2.46209">
        <ele>107</ele>
        <time>2011-10-15T12:56:00Z</time>
      </trkpt>
      <trkpt lat="48.38667" lon="2.46204">
        <ele>114</ele>
        <time>2011-10-15T12:56:02Z</time>
      </trkpt>
      <trkpt lat="48.38653" lon="2.46211">
        <ele>114</ele>
        <time>2011-10-15T12:56:07Z</time>
      </trkpt>
      <trkpt lat="48.3865" lon="2.46213">
        <ele>114</ele>
        <time>2011-10-15T12:56:08Z</time>
      </trkpt>
      <trkpt lat="48.38634" lon="2.46237">
        <ele>116</ele>
        <time>2011-10-15T12:56:16Z</time>
      </trkpt>
      <trkpt lat="48.38628" lon="2.46257">
        <ele>119</ele>
        <time>2011-10-15T12:56:22Z</time>
      </trkpt>
      <trkpt lat="48.38621" lon="2.46276">
        <ele>119</ele>
        <time>2011-10-15T12:56:28Z</time>
      </trkpt>
      <trkpt lat="48.38612" lon="2.46288">
        <ele>120</ele>
        <time>2011-10-15T12:56:33Z</time>
      </trkpt>
      <trkpt lat="48.38597" lon="2.46305">
        <ele>121</ele>
        <time>2011-10-15T12:56:40Z</time>
      </trkpt>
      <trkpt lat="48.3858" lon="2.46321">
        <ele>124</ele>
        <time>2011-10-15T12:56:46Z</time>
      </trkpt>
      <trkpt lat="48.3856" lon="2.46336">
        <ele>127</ele>
        <time>2011-10-15T12:56:52Z</time>
      </trkpt>
      <trkpt lat="48.38546" lon="2.46363">
        <ele>128</ele>
        <time>2011-10-15T12:56:58Z</time>
      </trkpt>
      <trkpt lat="48.38546" lon="2.46368">
        <ele>128</ele>
        <time>2011-10-15T12:56:59Z</time>
      </trkpt>
      <trkpt lat="48.38556" lon="2.46396">
        <ele>129</ele>
        <time>2011-10-15T12:57:04Z</time>
      </trkpt>
      <trkpt lat="48.38561" lon="2.46409">
        <ele>129</ele>
        <time>2011-10-15T12:57:06Z</time>
      </trkpt>
      <trkpt lat="48.38571" lon="2.4644">
        <ele>131</ele>
        <time>2011-10-15T12:57:11Z</time>
      </trkpt>
      <trkpt lat="48.38578" lon="2.46458">
        <ele>131</ele>
        <time>2011-10-15T12:57:14Z</time>
      </trkpt>
      <trkpt lat="48.38584" lon="2.46476">
        <ele>127</ele>
        <time>2011-10-15T12:57:17Z</time>
      </trkpt>
      <trkpt lat="48.38589" lon="2.46495">
        <ele>129</ele>
        <time>2011-10-15T12:57:20Z</time>
      </trkpt>
      <trkpt lat="48.38594" lon="2.4653">
        <ele>126</ele>
        <time>2011-10-15T12:57:25Z</time>
      </trkpt>
      <trkpt lat="48.38597" lon="2.46543">
        <ele>125</ele>
        <time>2011-10-15T12:57:27Z</time>
      </trkpt>
      <trkpt lat="48.38604" lon="2.46569">
        <ele>125</ele>
        <time>2011-10-15T12:57:31Z</time>
      </trkpt>
      <trkpt lat="48.38619" lon="2.46601">
        <ele>121</ele>
        <time>2011-10-15T12:57:36Z</time>
      </trkpt>
      <trkpt lat="48.38631" lon="2.46623">
        <ele>120</ele>
        <time>2011-10-15T12:57:40Z</time>
      </trkpt>
      <trkpt lat="48.38634" lon="2.46642">
        <ele>120</ele>
        <time>2011-10-15T12:57:43Z</time>
      </trkpt>
      <trkpt lat="48.38622" lon="2.46683">
        <ele>116</ele>
        <time>2011-10-15T12:57:48Z</time>
      </trkpt>
      <trkpt lat="48.3862" lon="2.46691">
        <ele>115</ele>
        <time>2011-10-15T12:57:49Z</time>
      </trkpt>
      <trkpt lat="48.38605" lon="2.46722">
        <ele>113</ele>
        <time>2011-10-15T12:57:53Z</time>
      </trkpt>
      <trkpt lat="48.38597" lon="2.46771">
        <ele>107</ele>
        <time>2011-10-15T12:57:57Z</time>
      </trkpt>
      <trkpt lat="48.38597" lon="2.46788">
        <ele>106</ele>
        <time>2011-10-15T12:57:58Z</time>
      </trkpt>
      <trkpt lat="48.38595" lon="2.46841">
        <ele>99</ele>
        <time>2011-10-15T12:58:02Z</time>
      </trkpt>
      <trkpt lat="48.38594" lon="2.46846">
        <ele>99</ele>
        <time>2011-10-15T12:58:03Z</time>
      </trkpt>
      <trkpt lat="48.38581" lon="2.46842">
        <ele>99</ele>
        <time>2011-10-15T12:58:07Z</time>
      </trkpt>
      <trkpt lat="48.38562" lon="2.46839">
        <ele>99</ele>
        <time>2011-10-15T12:58:11Z</time>
      </trkpt>
      <trkpt lat="48.38549" lon="2.46845">
        <ele>100</ele>
        <time>2011-10-15T12:58:14Z</time>
      </trkpt>
      <trkpt lat="48.38538" lon="2.46865">
        <ele>101</ele>
        <time>2011-10-15T12:58:19Z</time>
      </trkpt>
      <trkpt lat="48.38525" lon="2.46884">
        <ele>101</ele>
        <time>2011-10-15T12:58:25Z</time>
      </trkpt>
      <trkpt lat="48.38522" lon="2.46886">
        <ele>101</ele>
        <time>2011-10-15T12:58:26Z</time>
      </trkpt>
      <trkpt lat="48.38518" lon="2.46908">
        <ele>101</ele>
        <time>2011-10-15T12:58:31Z</time>
      </trkpt>
      <trkpt lat="48.385" lon="2.46928">
        <ele>101</ele>
        <time>2011-10-15T12:58:37Z</time>
      </trkpt>
      <trkpt lat="48.38488" lon="2.4694">
        <ele>99</ele>
        <time>2011-10-15T12:58:41Z</time>
      </trkpt>
      <trkpt lat="48.38497" lon="2.46947">
        <ele>99</ele>
        <time>2011-10-15T12:58:45Z</time>
      </trkpt>
      <trkpt lat="48.38502" lon="2.46966">
        <ele>98</ele>
        <time>2011-10-15T12:58:49Z</time>
      </trkpt>
      <trkpt lat="48.385" lon="2.46987">
        <ele>98</ele>
        <time>2011-10-15T12:58:52Z</time>
      </trkpt>
      <trkpt lat="48.38498" lon="2.47024">
        <ele>95</ele>
        <time>2011-10-15T12:58:56Z</time>
      </trkpt>
      <trkpt lat="48.38494" lon="2.47055">
        <ele>93</ele>
        <time>2011-10-15T12:59:00Z</time>
      </trkpt>
      <trkpt lat="48.38498" lon="2.47084">
        <ele>92</ele>
        <time>2011-10-15T12:59:04Z</time>
      </trkpt>
      <trkpt lat="48.38508" lon="2.47105">
        <ele>89</ele>
        <time>2011-10-15T12:59:07Z</time>
      </trkpt>
      <trkpt lat="48.38515" lon="2.47131">
        <ele>88</ele>
        <time>2011-10-15T12:59:10Z</time>
      </trkpt>
      <trkpt lat="48.3851" lon="2.47156">
        <ele>88</ele>
        <time>2011-10-15T12:59:13Z</time>
      </trkpt>
      <trkpt lat="48.38496" lon="2.47204">
        <ele>84</ele>
        <time>2011-10-15T12:59:18Z</time>
      </trkpt>
      <trkpt lat="48.38471" lon="2.47258">
        <ele>79</ele>
        <time>2011-10-15T12:59:23Z</time>
      </trkpt>
      <trkpt lat="48.38445" lon="2.47311">
        <ele>76</ele>
        <time>2011-10-15T12:59:28Z</time>
      </trkpt>
      <trkpt lat="48.38441" lon="2.47318">
        <ele>75</ele>
        <time>2011-10-15T12:59:29Z</time>
      </trkpt>
      <trkpt lat="48.3843" lon="2.47318">
        <ele>75</ele>
        <time>2011-10-15T12:59:32Z</time>
      </trkpt>
      <trkpt lat="48.38419" lon="2.47307">
        <ele>75</ele>
        <time>2011-10-15T12:59:34Z</time>
      </trkpt>
      <trkpt lat="48.38368" lon="2.47259">
        <ele>75</ele>
        <time>2011-10-15T12:59:44Z</time>
      </trkpt>
      <trkpt lat="48.38325" lon="2.47229">
        <ele>76</ele>
        <time>2011-10-15T12:59:52Z</time>
      </trkpt>
      <trkpt lat="48.38314" lon="2.47222">
        <ele>76</ele>
        <time>2011-10-15T12:59:54Z</time>
      </trkpt>
      <trkpt lat="48.38298" lon="2.47198">
        <ele>76</ele>
        <time>2011-10-15T12:59:58Z</time>
      </trkpt>
      <trkpt lat="48.383" lon="2.47182">
        <ele>76</ele>
        <time>2011-10-15T13:00:00Z</time>
      </trkpt>
      <trkpt lat="48.38314" lon="2.47128">
        <ele>79</ele>
        <time>2011-10-15T13:00:07Z</time>
      </trkpt>
      <trkpt lat="48.38328" lon="2.47066">
        <ele>82</ele>
        <time>2011-10-15T13:00:15Z</time>
      </trkpt>
      <trkpt lat="48.38337" lon="2.47021">
        <ele>86</ele>
        <time>2011-10-15T13:00:21Z</time>
      </trkpt>
      <trkpt lat="48.38342" lon="2.47001">
        <ele>86</ele>
        <time>2011-10-15T13:00:25Z</time>
      </trkpt>
      <trkpt lat="48.38342" lon="2.46991">
        <ele>88</ele>
        <time>2011-10-15T13:00:31Z</time>
      </trkpt>
      <trkpt lat="48.38341" lon="2.46991">
        <ele>88</ele>
        <time>2011-10-15T13:00:37Z</time>
      </trkpt>
      <trkpt lat="48.3834" lon="2.46993">
        <ele>88</ele>
        <time>2011-10-15T13:00:43Z</time>
      </trkpt>
      <trkpt lat="48.3834" lon="2.46994">
        <ele>87</ele>
        <time>2011-10-15T13:00:54Z</time>
      </trkpt>
      <trkpt lat="48.38341" lon="2.46994">
        <ele>88</ele>
        <time>2011-10-15T13:01:03Z</time>
      </trkpt>
      <trkpt lat="48.38342" lon="2.46994">
        <ele>88</ele>
        <time>2011-10-15T13:01:16Z</time>
      </trkpt>
      <trkpt lat="48.38342" lon="2.46994">
        <ele>88</ele>
        <time>2011-10-15T13:01:37Z</time>
      </trkpt>
      <trkpt lat="48.38342" lon="2.46994">
        <ele>88</ele>
        <time>2011-10-15T13:01:46Z</time>
      </trkpt>
      <trkpt lat="48.3834" lon="2.46994">
        <ele>87</ele>
        <time>2011-10-15T13:02:04Z</time>
      </trkpt>
      <trkpt lat="48.38339" lon="2.46994">
        <ele>87</ele>
        <time>2011-10-15T13:02:18Z</time>
      </trkpt>
      <trkpt lat="48.38339" lon="2.46993">
        <ele>87</ele>
        <time>2011-10-15T13:02:25Z</time>
      </trkpt>
      <trkpt lat="48.38339" lon="2.46993">
        <ele>87</ele>
        <time>2011-10-15T13:02:42Z</time>
      </trkpt>
      <trkpt lat="48.38339" lon="2.46993">
        <ele>87</ele>
        <time>2011-10-15T13:02:50Z</time>
      </trkpt>
      <trkpt lat="48.3834" lon="2.46993">
        <ele>87</ele>
        <time>2011-10-15T13:02:58Z</time>
      </trkpt>
      <trkpt lat="48.3834" lon="2.46993">
        <ele>87</ele>
        <time>2011-10-15T13:03:08Z</time>
      </trkpt>
      <trkpt lat="48.38339" lon="2.46992">
        <ele>88</ele>
        <time>2011-10-15T13:03:20Z</time>
      </trkpt>
      <trkpt lat="48.38338" lon="2.46992">
        <ele>87</ele>
        <time>2011-10-15T13:03:45Z</time>
      </trkpt>
      <trkpt lat="48.38338" lon="2.46992">
        <ele>87</ele>
        <time>2011-10-15T13:04:01Z</time>
      </trkpt>
      <trkpt lat="48.38338" lon="2.46993">
        <ele>87</ele>
        <time>2011-10-15T13:04:09Z</time>
      </trkpt>
      <trkpt lat="48.38338" lon="2.46993">
        <ele>87</ele>
        <time>2011-10-15T13:04:29Z</time>
      </trkpt>
      <trkpt lat="48.38339" lon="2.46993">
        <ele>87</ele>
        <time>2011-10-15T13:04:40Z</time>
      </trkpt>
      <trkpt lat="48.38338" lon="2.46993">
        <ele>87</ele>
        <time>2011-10-15T13:05:01Z</time>
      </trkpt>
      <trkpt lat="48.3834" lon="2.46994">
        <ele>87</ele>
        <time>2011-10-15T13:05:12Z</time>
      </trkpt>
      <trkpt lat="48.38341" lon="2.47009">
        <ele>86</ele>
        <time>2011-10-15T13:05:16Z</time>
      </trkpt>
      <trkpt lat="48.38337" lon="2.47024">
        <ele>86</ele>
        <time>2011-10-15T13:05:19Z</time>
      </trkpt>
      <trkpt lat="48.38337" lon="2.4703">
        <ele>86</ele>
        <time>2011-10-15T13:05:21Z</time>
      </trkpt>
      <trkpt lat="48.38337" lon="2.47031">
        <ele>86</ele>
        <time>2011-10-15T13:05:27Z</time>
      </trkpt>
      <trkpt lat="48.38338" lon="2.47031">
        <ele>86</ele>
        <time>2011-10-15T13:05:36Z</time>
      </trkpt>
      <trkpt lat="48.38338" lon="2.4703">
        <ele>86</ele>
        <time>2011-10-15T13:05:47Z</time>
      </trkpt>
      <trkpt lat="48.38342" lon="2.4703">
        <ele>86</ele>
        <time>2011-10-15T13:05:55Z</time>
      </trkpt>
      <trkpt lat="48.38343" lon="2.47029">
        <ele>86</ele>
        <time>2011-10-15T13:06:00Z</time>
      </trkpt>
      <trkpt lat="48.38344" lon="2.4703">
        <ele>86</ele>
        <time>2011-10-15T13:06:06Z</time>
      </trkpt>
      <trkpt lat="48.38343" lon="2.47031">
        <ele>86</ele>
        <time>2011-10-15T13:06:10Z</time>
      </trkpt>
      <trkpt lat="48.38342" lon="2.47032">
        <ele>86</ele>
        <time>2011-10-15T13:06:18Z</time>
      </trkpt>
      <trkpt lat="48.38342" lon="2.47031">
        <ele>86</ele>
        <time>2011-10-15T13:06:26Z</time>
      </trkpt>
      <trkpt lat="48.38342" lon="2.4703">
        <ele>86</ele>
        <time>2011-10-15T13:07:06Z</time>
      </trkpt>
      <trkpt lat="48.38342" lon="2.4703">
        <ele>86</ele>
        <time>2011-10-15T13:07:17Z</time>
      </trkpt>
      <trkpt lat="48.38342" lon="2.47031">
        <ele>86</ele>
        <time>2011-10-15T13:07:31Z</time>
      </trkpt>
      <trkpt lat="48.3834" lon="2.47029">
        <ele>86</ele>
        <time>2011-10-15T13:07:37Z</time>
      </trkpt>
      <trkpt lat="48.38341" lon="2.47029">
        <ele>86</ele>
        <time>2011-10-15T13:07:46Z</time>
      </trkpt>
      <trkpt lat="48.38341" lon="2.4703">
        <ele>86</ele>
        <time>2011-10-15T13:08:00Z</time>
      </trkpt>
      <trkpt lat="48.38339" lon="2.47031">
        <ele>86</ele>
        <time>2011-10-15T13:08:14Z</time>
      </trkpt>
      <trkpt lat="48.38335" lon="2.47031">
        <ele>86</ele>
        <time>2011-10-15T13:08:18Z</time>
      </trkpt>
      <trkpt lat="48.3833" lon="2.47026">
        <ele>83</ele>
        <time>2011-10-15T13:08:24Z</time>
      </trkpt>
      <trkpt lat="48.3833" lon="2.47026">
        <ele>83</ele>
        <time>2011-10-15T13:08:31Z</time>
      </trkpt>
      <trkpt lat="48.38331" lon="2.47025">
        <ele>83</ele>
        <time>2011-10-15T13:08:39Z</time>
      </trkpt>
      <trkpt lat="48.38332" lon="2.47024">
        <ele>84</ele>
        <time>2011-10-15T13:08:44Z</time>
      </trkpt>
      <trkpt lat="48.3833" lon="2.47019">
        <ele>84</ele>
        <time>2011-10-15T13:08:57Z</time>
      </trkpt>
      <trkpt lat="48.38329" lon="2.47024">
        <ele>83</ele>
        <time>2011-10-15T13:09:07Z</time>
      </trkpt>
      <trkpt lat="48.38327" lon="2.47026">
        <ele>83</ele>
        <time>2011-10-15T13:09:11Z</time>
      </trkpt>
      <trkpt lat="48.38327" lon="2.47026">
        <ele>83</ele>
        <time>2011-10-15T13:09:18Z</time>
      </trkpt>
      <trkpt lat="48.38327" lon="2.47026">
        <ele>83</ele>
        <time>2011-10-15T13:09:26Z</time>
      </trkpt>
      <trkpt lat="48.38329" lon="2.47024">
        <ele>83</ele>
        <time>2011-10-15T13:09:32Z</time>
      </trkpt>
      <trkpt lat="48.38329" lon="2.47029">
        <ele>83</ele>
        <time>2011-10-15T13:09:39Z</time>
      </trkpt>
      <trkpt lat="48.3833" lon="2.4703">
        <ele>83</ele>
        <time>2011-10-15T13:09:44Z</time>
      </trkpt>
      <trkpt lat="48.38332" lon="2.4703">
        <ele>83</ele>
        <time>2011-10-15T13:09:59Z</time>
      </trkpt>
      <trkpt lat="48.38332" lon="2.47032">
        <ele>83</ele>
        <time>2011-10-15T13:10:06Z</time>
      </trkpt>
      <trkpt lat="48.38332" lon="2.47029">
        <ele>83</ele>
        <time>2011-10-15T13:10:13Z</time>
      </trkpt>
      <trkpt lat="48.38332" lon="2.47029">
        <ele>83</ele>
        <time>2011-10-15T13:10:18Z</time>
      </trkpt>
      <trkpt lat="48.38332" lon="2.47032">
        <ele>83</ele>
        <time>2011-10-15T13:10:28Z</time>
      </trkpt>
      <trkpt lat="48.38334" lon="2.47032">
        <ele>86</ele>
        <time>2011-10-15T13:10:34Z</time>
      </trkpt>
      <trkpt lat="48.38334" lon="2.47032">
        <ele>86</ele>
        <time>2011-10-15T13:10:43Z</time>
      </trkpt>
      <trkpt lat="48.38331" lon="2.47031">
        <ele>83</ele>
        <time>2011-10-15T13:10:49Z</time>
      </trkpt>
      <trkpt lat="48.38331" lon="2.47029">
        <ele>83</ele>
        <time>2011-10-15T13:10:54Z</time>
      </trkpt>
      <trkpt lat="48.38331" lon="2.4703">
        <ele>83</ele>
        <time>2011-10-15T13:11:02Z</time>
      </trkpt>
      <trkpt lat="48.38333" lon="2.47031">
        <ele>83</ele>
        <time>2011-10-15T13:11:10Z</time>
      </trkpt>
      <trkpt lat="48.38332" lon="2.47031">
        <ele>83</ele>
        <time>2011-10-15T13:11:18Z</time>
      </trkpt>
      <trkpt lat="48.38332" lon="2.47029">
        <ele>83</ele>
        <time>2011-10-15T13:11:24Z</time>
      </trkpt>
      <trkpt lat="48.38332" lon="2.4703">
        <ele>83</ele>
        <time>2011-10-15T13:11:31Z</time>
      </trkpt>
      <trkpt lat="48.38331" lon="2.47032">
        <ele>83</ele>
        <time>2011-10-15T13:11:37Z</time>
      </trkpt>
      <trkpt lat="48.38327" lon="2.47033">
        <ele>83</ele>
        <time>2011-10-15T13:11:48Z</time>
      </trkpt>
      <trkpt lat="48.38323" lon="2.47035">
        <ele>83</ele>
        <time>2011-10-15T13:11:53Z</time>
      </trkpt>
      <trkpt lat="48.38321" lon="2.47036">
        <ele>83</ele>
        <time>2011-10-15T13:11:54Z</time>
      </trkpt>
      <trkpt lat="48.38314" lon="2.47039">
        <ele>82</ele>
        <time>2011-10-15T13:12:00Z</time>
      </trkpt>
      <trkpt lat="48.38313" lon="2.4704">
        <ele>82</ele>
        <time>2011-10-15T13:12:01Z</time>
      </trkpt>
      <trkpt lat="48.38311" lon="2.47042">
        <ele>82</ele>
        <time>2011-10-15T13:12:08Z</time>
      </trkpt>
      <trkpt lat="48.38313" lon="2.4704">
        <ele>82</ele>
        <time>2011-10-15T13:12:26Z</time>
      </trkpt>
      <trkpt lat="48.38316" lon="2.47034">
        <ele>83</ele>
        <time>2011-10-15T13:12:32Z</time>
      </trkpt>
      <trkpt lat="48.38322" lon="2.47031">
        <ele>83</ele>
        <time>2011-10-15T13:12:40Z</time>
      </trkpt>
      <trkpt lat="48.38327" lon="2.47032">
        <ele>83</ele>
        <time>2011-10-15T13:12:47Z</time>
      </trkpt>
      <trkpt lat="48.3833" lon="2.47034">
        <ele>83</ele>
        <time>2011-10-15T13:12:55Z</time>
      </trkpt>
      <trkpt lat="48.38331" lon="2.47035">
        <ele>83</ele>
        <time>2011-10-15T13:13:07Z</time>
      </trkpt>
      <trkpt lat="48.38331" lon="2.47037">
        <ele>83</ele>
        <time>2011-10-15T13:13:16Z</time>
      </trkpt>
      <trkpt lat="48.38332" lon="2.47037">
        <ele>83</ele>
        <time>2011-10-15T13:13:23Z</time>
      </trkpt>
      <trkpt lat="48.38332" lon="2.47036">
        <ele>83</ele>
        <time>2011-10-15T13:13:33Z</time>
      </trkpt>
      <trkpt lat="48.38332" lon="2.47035">
        <ele>83</ele>
        <time>2011-10-15T13:14:19Z</time>
      </trkpt>
      <trkpt lat="48.3833" lon="2.4703">
        <ele>83</ele>
        <time>2011-10-15T13:14:25Z</time>
      </trkpt>
      <trkpt lat="48.38331" lon="2.47025">
        <ele>83</ele>
        <time>2011-10-15T13:14:30Z</time>
      </trkpt>
      <trkpt lat="48.38332" lon="2.47021">
        <ele>84</ele>
        <time>2011-10-15T13:14:38Z</time>
      </trkpt>
      <trkpt lat="48.38334" lon="2.47017">
        <ele>86</ele>
        <time>2011-10-15T13:14:45Z</time>
      </trkpt>
      <trkpt lat="48.38338" lon="2.47018">
        <ele>86</ele>
        <time>2011-10-15T13:14:59Z</time>
      </trkpt>
      <trkpt lat="48.38337" lon="2.47018">
        <ele>86</ele>
        <time>2011-10-15T13:15:11Z</time>
      </trkpt>
      <trkpt lat="48.38337" lon="2.47018">
        <ele>86</ele>
        <time>2011-10-15T13:15:27Z</time>
      </trkpt>
      <trkpt lat="48.38335" lon="2.47015">
        <ele>86</ele>
        <time>2011-10-15T13:15:55Z</time>
      </trkpt>
      <trkpt lat="48.38335" lon="2.47015">
        <ele>86</ele>
        <time>2011-10-15T13:16:08Z</time>
      </trkpt>
      <trkpt lat="48.38336" lon="2.47015">
        <ele>86</ele>
        <time>2011-10-15T13:16:27Z</time>
      </trkpt>
      <trkpt lat="48.38336" lon="2.47015">
        <ele>86</ele>
        <time>2011-10-15T13:16:35Z</time>
      </trkpt>
      <trkpt lat="48.38337" lon="2.47013">
        <ele>86</ele>
        <time>2011-10-15T13:16:41Z</time>
      </trkpt>
      <trkpt lat="48.38337" lon="2.47012">
        <ele>86</ele>
        <time>2011-10-15T13:16:42Z</time>
      </trkpt>
      <trkpt lat="48.38346" lon="2.46988">
        <ele>88</ele>
        <time>2011-10-15T13:16:48Z</time>
      </trkpt>
      <trkpt lat="48.38353" lon="2.46958">
        <ele>90</ele>
        <time>2011-10-15T13:16:53Z</time>
      </trkpt>
      <trkpt lat="48.38364" lon="2.46911">
        <ele>94</ele>
        <time>2011-10-15T13:17:00Z</time>
      </trkpt>
      <trkpt lat="48.38364" lon="2.46884">
        <ele>95</ele>
        <time>2011-10-15T13:17:04Z</time>
      </trkpt>
      <trkpt lat="48.38353" lon="2.46848">
        <ele>95</ele>
        <time>2011-10-15T13:17:09Z</time>
      </trkpt>
      <trkpt lat="48.38348" lon="2.46825">
        <ele>98</ele>
        <time>2011-10-15T13:17:12Z</time>
      </trkpt>
      <trkpt lat="48.38342" lon="2.46798">
        <ele>100</ele>
        <time>2011-10-15T13:17:16Z</time>
      </trkpt>
      <trkpt lat="48.38332" lon="2.46775">
        <ele>95</ele>
        <time>2011-10-15T13:17:20Z</time>
      </trkpt>
      <trkpt lat="48.38324" lon="2.46745">
        <ele>99</ele>
        <time>2011-10-15T13:17:25Z</time>
      </trkpt>
      <trkpt lat="48.38323" lon="2.46723">
        <ele>98</ele>
        <time>2011-10-15T13:17:29Z</time>
      </trkpt>
      <trkpt lat="48.38322" lon="2.46713">
        <ele>98</ele>
        <time>2011-10-15T13:17:31Z</time>
      </trkpt>
      <trkpt lat="48.38324" lon="2.467">
        <ele>98</ele>
        <time>2011-10-15T13:17:34Z</time>
      </trkpt>
      <trkpt lat="48.38332" lon="2.46692">
        <ele>99</ele>
        <time>2011-10-15T13:17:39Z</time>
      </trkpt>
      <trkpt lat="48.38338" lon="2.46686">
        <ele>107</ele>
        <time>2011-10-15T13:17:42Z</time>
      </trkpt>
      <trkpt lat="48.38343" lon="2.46672">
        <ele>106</ele>
        <time>2011-10-15T13:17:48Z</time>
      </trkpt>
      <trkpt lat="48.38335" lon="2.46651">
        <ele>109</ele>
        <time>2011-10-15T13:17:53Z</time>
      </trkpt>
      <trkpt lat="48.38323" lon="2.46647">
        <ele>102</ele>
        <time>2011-10-15T13:17:57Z</time>
      </trkpt>
      <trkpt lat="48.38312" lon="2.46654">
        <ele>102</ele>
        <time>2011-10-15T13:18:01Z</time>
      </trkpt>
      <trkpt lat="48.38309" lon="2.46652">
        <ele>102</ele>
        <time>2011-10-15T13:18:02Z</time>
      </trkpt>
      <trkpt lat="48.38301" lon="2.46643">
        <ele>101</ele>
        <time>2011-10-15T13:18:05Z</time>
      </trkpt>
      <trkpt lat="48.38276" lon="2.4664">
        <ele>99</ele>
        <time>2011-10-15T13:18:10Z</time>
      </trkpt>
      <trkpt lat="48.38268" lon="2.46629">
        <ele>99</ele>
        <time>2011-10-15T13:18:13Z</time>
      </trkpt>
      <trkpt lat="48.38242" lon="2.46585">
        <ele>96</ele>
        <time>2011-10-15T13:18:20Z</time>
      </trkpt>
      <trkpt lat="48.38238" lon="2.4658">
        <ele>97</ele>
        <time>2011-10-15T13:18:21Z</time>
      </trkpt>
      <trkpt lat="48.38236" lon="2.46559">
        <ele>97</ele>
        <time>2011-10-15T13:18:26Z</time>
      </trkpt>
      <trkpt lat="48.38239" lon="2.46556">
        <ele>97</ele>
        <time>2011-10-15T13:18:27Z</time>
      </trkpt>
      <trkpt lat="48.38253" lon="2.46536">
        <ele>105</ele>
        <time>2011-10-15T13:18:34Z</time>
      </trkpt>
      <trkpt lat="48.3826" lon="2.46526">
        <ele>106</ele>
        <time>2011-10-15T13:18:40Z</time>
      </trkpt>
      <trkpt lat="48.38265" lon="2.46504">
        <ele>106</ele>
        <time>2011-10-15T13:18:50Z</time>
      </trkpt>
      <trkpt lat="48.38268" lon="2.46494">
        <ele>109</ele>
        <time>2011-10-15T13:18:55Z</time>
      </trkpt>
      <trkpt lat="48.38268" lon="2.46492">
        <ele>109</ele>
        <time>2011-10-15T13:18:56Z</time>
      </trkpt>
      <trkpt lat="48.38268" lon="2.46479">
        <ele>110</ele>
        <time>2011-10-15T13:19:00Z</time>
      </trkpt>
      <trkpt lat="48.38271" lon="2.46454">
        <ele>112</ele>
        <time>2011-10-15T13:19:06Z</time>
      </trkpt>
      <trkpt lat="48.38272" lon="2.46448">
        <ele>113</ele>
        <time>2011-10-15T13:19:08Z</time>
      </trkpt>
      <trkpt lat="48.38274" lon="2.46427">
        <ele>113</ele>
        <time>2011-10-15T13:19:13Z</time>
      </trkpt>
      <trkpt lat="48.38278" lon="2.46403">
        <ele>117</ele>
        <time>2011-10-15T13:19:18Z</time>
      </trkpt>
      <trkpt lat="48.38279" lon="2.46398">
        <ele>117</ele>
        <time>2011-10-15T13:19:19Z</time>
      </trkpt>
      <trkpt lat="48.38274" lon="2.46379">
        <ele>118</ele>
        <time>2011-10-15T13:19:24Z</time>
      </trkpt>
      <trkpt lat="48.38268" lon="2.46373">
        <ele>118</ele>
        <time>2011-10-15T13:19:27Z</time>
      </trkpt>
      <trkpt lat="48.38259" lon="2.46372">
        <ele>118</ele>
        <time>2011-10-15T13:19:29Z</time>
      </trkpt>
      <trkpt lat="48.3825" lon="2.46357">
        <ele>114</ele>
        <time>2011-10-15T13:19:33Z</time>
      </trkpt>
      <trkpt lat="48.38251" lon="2.46338">
        <ele>119</ele>
        <time>2011-10-15T13:19:37Z</time>
      </trkpt>
      <trkpt lat="48.38262" lon="2.46319">
        <ele>121</ele>
        <time>2011-10-15T13:19:43Z</time>
      </trkpt>
      <trkpt lat="48.38272" lon="2.46298">
        <ele>122</ele>
        <time>2011-10-15T13:19:49Z</time>
      </trkpt>
      <trkpt lat="48.38282" lon="2.46285">
        <ele>122</ele>
        <time>2011-10-15T13:19:53Z</time>
      </trkpt>
      <trkpt lat="48.38298" lon="2.46254">
        <ele>122</ele>
        <time>2011-10-15T13:19:59Z</time>
      </trkpt>
      <trkpt lat="48.38302" lon="2.4624">
        <ele>123</ele>
        <time>2011-10-15T13:20:01Z</time>
      </trkpt>
      <trkpt lat="48.38324" lon="2.46215">
        <ele>123</ele>
        <time>2011-10-15T13:20:06Z</time>
      </trkpt>
      <trkpt lat="48.38336" lon="2.46214">
        <ele>122</ele>
        <time>2011-10-15T13:20:08Z</time>
      </trkpt>
      <trkpt lat="48.38354" lon="2.46216">
        <ele>122</ele>
        <time>2011-10-15T13:20:11Z</time>
      </trkpt>
      <trkpt lat="48.3838" lon="2.46204">
        <ele>122</ele>
        <time>2011-10-15T13:20:16Z</time>
      </trkpt>
      <trkpt lat="48.38385" lon="2.462">
        <ele>122</ele>
        <time>2011-10-15T13:20:17Z</time>
      </trkpt>
      <trkpt lat="48.38419" lon="2.46188">
        <ele>122</ele>
        <time>2011-10-15T13:20:23Z</time>
      </trkpt>
      <trkpt lat="48.38448" lon="2.46188">
        <ele>122</ele>
        <time>2011-10-15T13:20:28Z</time>
      </trkpt>
      <trkpt lat="48.38469" lon="2.46178">
        <ele>122</ele>
        <time>2011-10-15T13:20:32Z</time>
      </trkpt>
      <trkpt lat="48.38516" lon="2.4613">
        <ele>121</ele>
        <time>2011-10-15T13:20:42Z</time>
      </trkpt>
      <trkpt lat="48.38563" lon="2.46083">
        <ele>121</ele>
        <time>2011-10-15T13:20:51Z</time>
      </trkpt>
      <trkpt lat="48.38584" lon="2.46062">
        <ele>119</ele>
        <time>2011-10-15T13:20:55Z</time>
      </trkpt>
      <trkpt lat="48.38593" lon="2.46042">
        <ele>119</ele>
        <time>2011-10-15T13:20:59Z</time>
      </trkpt>
      <trkpt lat="48.38593" lon="2.46036">
        <ele>119</ele>
        <time>2011-10-15T13:21:00Z</time>
      </trkpt>
      <trkpt lat="48.38594" lon="2.46024">
        <ele>120</ele>
        <time>2011-10-15T13:21:02Z</time>
      </trkpt>
      <trkpt lat="48.38597" lon="2.46016">
        <ele>120</ele>
        <time>2011-10-15T13:21:04Z</time>
      </trkpt>
      <trkpt lat="48.38612" lon="2.46005">
        <ele>119</ele>
        <time>2011-10-15T13:21:09Z</time>
      </trkpt>
      <trkpt lat="48.38617" lon="2.46001">
        <ele>119</ele>
        <time>2011-10-15T13:21:10Z</time>
      </trkpt>
      <trkpt lat="48.38626" lon="2.45992">
        <ele>120</ele>
        <time>2011-10-15T13:21:12Z</time>
      </trkpt>
      <trkpt lat="48.38644" lon="2.45971">
        <ele>119</ele>
        <time>2011-10-15T13:21:16Z</time>
      </trkpt>
      <trkpt lat="48.38655" lon="2.45944">
        <ele>119</ele>
        <time>2011-10-15T13:21:20Z</time>
      </trkpt>
      <trkpt lat="48.38662" lon="2.45926">
        <ele>119</ele>
        <time>2011-10-15T13:21:22Z</time>
      </trkpt>
      <trkpt lat="48.38678" lon="2.4593">
        <ele>117</ele>
        <time>2011-10-15T13:21:25Z</time>
      </trkpt>
      <trkpt lat="48.38703" lon="2.45952">
        <ele>117</ele>
        <time>2011-10-15T13:21:28Z</time>
      </trkpt>
      <trkpt lat="48.38748" lon="2.46008">
        <ele>110</ele>
        <time>2011-10-15T13:21:34Z</time>
      </trkpt>
      <trkpt lat="48.38781" lon="2.46062">
        <ele>105</ele>
        <time>2011-10-15T13:21:39Z</time>
      </trkpt>
      <trkpt lat="48.38797" lon="2.46095">
        <ele>101</ele>
        <time>2011-10-15T13:21:42Z</time>
      </trkpt>
      <trkpt lat="48.3881" lon="2.46142">
        <ele>100</ele>
        <time>2011-10-15T13:21:46Z</time>
      </trkpt>
      <trkpt lat="48.38817" lon="2.46164">
        <ele>99</ele>
        <time>2011-10-15T13:21:48Z</time>
      </trkpt>
      <trkpt lat="48.38813" lon="2.46189">
        <ele>99</ele>
        <time>2011-10-15T13:21:52Z</time>
      </trkpt>
      <trkpt lat="48.38799" lon="2.46203">
        <ele>99</ele>
        <time>2011-10-15T13:21:55Z</time>
      </trkpt>
      <trkpt lat="48.38775" lon="2.46223">
        <ele>99</ele>
        <time>2011-10-15T13:22:00Z</time>
      </trkpt>
      <trkpt lat="48.38755" lon="2.46237">
        <ele>100</ele>
        <time>2011-10-15T13:22:04Z</time>
      </trkpt>
      <trkpt lat="48.38741" lon="2.46262">
        <ele>103</ele>
        <time>2011-10-15T13:22:08Z</time>
      </trkpt>
      <trkpt lat="48.38725" lon="2.46289">
        <ele>106</ele>
        <time>2011-10-15T13:22:12Z</time>
      </trkpt>
      <trkpt lat="48.38716" lon="2.46284">
        <ele>107</ele>
        <time>2011-10-15T13:22:14Z</time>
      </trkpt>
      <trkpt lat="48.38704" lon="2.46272">
        <ele>108</ele>
        <time>2011-10-15T13:22:17Z</time>
      </trkpt>
      <trkpt lat="48.38698" lon="2.46263">
        <ele>108</ele>
        <time>2011-10-15T13:22:19Z</time>
      </trkpt>
      <trkpt lat="48.38682" lon="2.46239">
        <ele>109</ele>
        <time>2011-10-15T13:22:26Z</time>
      </trkpt>
      <trkpt lat="48.3867" lon="2.46221">
        <ele>108</ele>
        <time>2011-10-15T13:22:32Z</time>
      </trkpt>
      <trkpt lat="48.38657" lon="2.46205">
        <ele>114</ele>
        <time>2011-10-15T13:22:39Z</time>
      </trkpt>
      <trkpt lat="48.38644" lon="2.46217">
        <ele>115</ele>
        <time>2011-10-15T13:22:45Z</time>
      </trkpt>
      <trkpt lat="48.3863" lon="2.46238">
        <ele>116</ele>
        <time>2011-10-15T13:22:52Z</time>
      </trkpt>
      <trkpt lat="48.38623" lon="2.46258">
        <ele>119</ele>
        <time>2011-10-15T13:22:58Z</time>
      </trkpt>
      <trkpt lat="48.38615" lon="2.46274">
        <ele>120</ele>
        <time>2011-10-15T13:23:03Z</time>
      </trkpt>
      <trkpt lat="48.38601" lon="2.46288">
        <ele>120</ele>
        <time>2011-10-15T13:23:09Z</time>
      </trkpt>
      <trkpt lat="48.38583" lon="2.46306">
        <ele>124</ele>
        <time>2011-10-15T13:23:17Z</time>
      </trkpt>
      <trkpt lat="48.38568" lon="2.4632">
        <ele>124</ele>
        <time>2011-10-15T13:23:23Z</time>
      </trkpt>
      <trkpt lat="48.3855" lon="2.46337">
        <ele>127</ele>
        <time>2011-10-15T13:23:29Z</time>
      </trkpt>
      <trkpt lat="48.3854" lon="2.46349">
        <ele>127</ele>
        <time>2011-10-15T13:23:32Z</time>
      </trkpt>
      <trkpt lat="48.38543" lon="2.46375">
        <ele>128</ele>
        <time>2011-10-15T13:23:36Z</time>
      </trkpt>
      <trkpt lat="48.38548" lon="2.46387">
        <ele>129</ele>
        <time>2011-10-15T13:23:38Z</time>
      </trkpt>
      <trkpt lat="48.38557" lon="2.46412">
        <ele>129</ele>
        <time>2011-10-15T13:23:42Z</time>
      </trkpt>
      <trkpt lat="48.38569" lon="2.46441">
        <ele>131</ele>
        <time>2011-10-15T13:23:47Z</time>
      </trkpt>
      <trkpt lat="48.38575" lon="2.46458">
        <ele>131</ele>
        <time>2011-10-15T13:23:50Z</time>
      </trkpt>
      <trkpt lat="48.38584" lon="2.46482">
        <ele>128</ele>
        <time>2011-10-15T13:23:54Z</time>
      </trkpt>
      <trkpt lat="48.38589" lon="2.46509">
        <ele>128</ele>
        <time>2011-10-15T13:23:58Z</time>
      </trkpt>
      <trkpt lat="48.386" lon="2.46549">
        <ele>125</ele>
        <time>2011-10-15T13:24:04Z</time>
      </trkpt>
      <trkpt lat="48.38609" lon="2.4657">
        <ele>124</ele>
        <time>2011-10-15T13:24:08Z</time>
      </trkpt>
      <trkpt lat="48.38612" lon="2.46576">
        <ele>124</ele>
        <time>2011-10-15T13:24:09Z</time>
      </trkpt>
      <trkpt lat="48.38621" lon="2.46597">
        <ele>121</ele>
        <time>2011-10-15T13:24:12Z</time>
      </trkpt>
      <trkpt lat="48.38634" lon="2.46627">
        <ele>120</ele>
        <time>2011-10-15T13:24:17Z</time>
      </trkpt>
      <trkpt lat="48.38628" lon="2.46659">
        <ele>119</ele>
        <time>2011-10-15T13:24:21Z</time>
      </trkpt>
      <trkpt lat="48.38625" lon="2.46667">
        <ele>119</ele>
        <time>2011-10-15T13:24:22Z</time>
      </trkpt>
      <trkpt lat="48.38618" lon="2.46691">
        <ele>115</ele>
        <time>2011-10-15T13:24:25Z</time>
      </trkpt>
      <trkpt lat="48.38599" lon="2.46724">
        <ele>112</ele>
        <time>2011-10-15T13:24:30Z</time>
      </trkpt>
      <trkpt lat="48.38592" lon="2.46776">
        <ele>106</ele>
        <time>2011-10-15T13:24:34Z</time>
      </trkpt>
      <trkpt lat="48.3859" lon="2.4682">
        <ele>102</ele>
        <time>2011-10-15T13:24:37Z</time>
      </trkpt>
      <trkpt lat="48.38581" lon="2.46849">
        <ele>99</ele>
        <time>2011-10-15T13:24:41Z</time>
      </trkpt>
      <trkpt lat="48.38572" lon="2.46843">
        <ele>99</ele>
        <time>2011-10-15T13:24:43Z</time>
      </trkpt>
      <trkpt lat="48.38567" lon="2.46841">
        <ele>99</ele>
        <time>2011-10-15T13:24:44Z</time>
      </trkpt>
      <trkpt lat="48.38558" lon="2.46838">
        <ele>100</ele>
        <time>2011-10-15T13:24:46Z</time>
      </trkpt>
      <trkpt lat="48.38537" lon="2.46845">
        <ele>101</ele>
        <time>2011-10-15T13:24:51Z</time>
      </trkpt>
      <trkpt lat="48.38529" lon="2.46859">
        <ele>101</ele>
        <time>2011-10-15T13:24:55Z</time>
      </trkpt>
      <trkpt lat="48.38527" lon="2.46864">
        <ele>101</ele>
        <time>2011-10-15T13:24:56Z</time>
      </trkpt>
      <trkpt lat="48.38519" lon="2.46884">
        <ele>101</ele>
        <time>2011-10-15T13:25:01Z</time>
      </trkpt>
      <trkpt lat="48.38515" lon="2.46907">
        <ele>102</ele>
        <time>2011-10-15T13:25:06Z</time>
      </trkpt>
      <trkpt lat="48.3851" lon="2.46915">
        <ele>102</ele>
        <time>2011-10-15T13:25:08Z</time>
      </trkpt>
      <trkpt lat="48.38491" lon="2.46938">
        <ele>99</ele>
        <time>2011-10-15T13:25:14Z</time>
      </trkpt>
      <trkpt lat="48.38488" lon="2.46941">
        <ele>99</ele>
        <time>2011-10-15T13:25:15Z</time>
      </trkpt>
      <trkpt lat="48.38493" lon="2.46949">
        <ele>99</ele>
        <time>2011-10-15T13:25:19Z</time>
      </trkpt>
      <trkpt lat="48.38496" lon="2.46952">
        <ele>99</ele>
        <time>2011-10-15T13:25:20Z</time>
      </trkpt>
      <trkpt lat="48.38502" lon="2.46979">
        <ele>98</ele>
        <time>2011-10-15T13:25:25Z</time>
      </trkpt>
      <trkpt lat="48.38497" lon="2.47013">
        <ele>96</ele>
        <time>2011-10-15T13:25:30Z</time>
      </trkpt>
      <trkpt lat="48.38497" lon="2.47021">
        <ele>95</ele>
        <time>2011-10-15T13:25:31Z</time>
      </trkpt>
      <trkpt lat="48.38495" lon="2.47055">
        <ele>93</ele>
        <time>2011-10-15T13:25:36Z</time>
      </trkpt>
      <trkpt lat="48.38497" lon="2.47072">
        <ele>92</ele>
        <time>2011-10-15T13:25:38Z</time>
      </trkpt>
      <trkpt lat="48.38508" lon="2.47105">
        <ele>89</ele>
        <time>2011-10-15T13:25:42Z</time>
      </trkpt>
      <trkpt lat="48.38515" lon="2.4714">
        <ele>88</ele>
        <time>2011-10-15T13:25:46Z</time>
      </trkpt>
      <trkpt lat="48.38507" lon="2.47163">
        <ele>88</ele>
        <time>2011-10-15T13:25:49Z</time>
      </trkpt>
      <trkpt lat="48.38494" lon="2.47209">
        <ele>84</ele>
        <time>2011-10-15T13:25:54Z</time>
      </trkpt>
      <trkpt lat="48.38471" lon="2.4726">
        <ele>79</ele>
        <time>2011-10-15T13:25:59Z</time>
      </trkpt>
      <trkpt lat="48.38445" lon="2.47312">
        <ele>75</ele>
        <time>2011-10-15T13:26:04Z</time>
      </trkpt>
      <trkpt lat="48.38427" lon="2.47315">
        <ele>75</ele>
        <time>2011-10-15T13:26:08Z</time>
      </trkpt>
      <trkpt lat="48.38384" lon="2.4727">
        <ele>75</ele>
        <time>2011-10-15T13:26:16Z</time>
      </trkpt>
      <trkpt lat="48.38346" lon="2.4724">
        <ele>77</ele>
        <time>2011-10-15T13:26:23Z</time>
      </trkpt>
      <trkpt lat="48.38313" lon="2.4722">
        <ele>76</ele>
        <time>2011-10-15T13:26:29Z</time>
      </trkpt>
      <trkpt lat="48.38299" lon="2.47195">
        <ele>76</ele>
        <time>2011-10-15T13:26:33Z</time>
      </trkpt>
      <trkpt lat="48.383" lon="2.47187">
        <ele>76</ele>
        <time>2011-10-15T13:26:34Z</time>
      </trkpt>
      <trkpt lat="48.38312" lon="2.47134">
        <ele>78</ele>
        <time>2011-10-15T13:26:41Z</time>
      </trkpt>
      <trkpt lat="48.38323" lon="2.4709">
        <ele>80</ele>
        <time>2011-10-15T13:26:47Z</time>
      </trkpt>
      <trkpt lat="48.38338" lon="2.47024">
        <ele>86</ele>
        <time>2011-10-15T13:26:56Z</time>
      </trkpt>
      <trkpt lat="48.38341" lon="2.4701">
        <ele>86</ele>
        <time>2011-10-15T13:26:58Z</time>
      </trkpt>
      <trkpt lat="48.38345" lon="2.46993">
        <ele>88</ele>
        <time>2011-10-15T13:27:02Z</time>
      </trkpt>
      <trkpt lat="48.38342" lon="2.46994">
        <ele>88</ele>
        <time>2011-10-15T13:27:06Z</time>
      </trkpt>
      <trkpt lat="48.38341" lon="2.46996">
        <ele>87</ele>
        <time>2011-10-15T13:27:07Z</time>
      </trkpt>
      <trkpt lat="48.38337" lon="2.47011">
        <ele>86</ele>
        <time>2011-10-15T13:27:13Z</time>
      </trkpt>
      <trkpt lat="48.38337" lon="2.47012">
        <ele>86</ele>
        <time>2011-10-15T13:27:21Z</time>
      </trkpt>
      <trkpt lat="48.38337" lon="2.47008">
        <ele>86</ele>
        <time>2011-10-15T13:27:30Z</time>
      </trkpt>
      <trkpt lat="48.38337" lon="2.47005">
        <ele>86</ele>
        <time>2011-10-15T13:27:32Z</time>
      </trkpt>
      <trkpt lat="48.38337" lon="2.47">
        <ele>86</ele>
        <time>2011-10-15T13:27:38Z</time>
      </trkpt>
      <trkpt lat="48.38337" lon="2.47007">
        <ele>86</ele>
        <time>2011-10-15T13:27:43Z</time>
      </trkpt>
      <trkpt lat="48.38336" lon="2.47014">
        <ele>86</ele>
        <time>2011-10-15T13:27:50Z</time>
      </trkpt>
      <trkpt lat="48.38334" lon="2.4702">
        <ele>86</ele>
        <time>2011-10-15T13:27:56Z</time>
      </trkpt>
      <trkpt lat="48.38335" lon="2.47021">
        <ele>86</ele>
        <time>2011-10-15T13:28:03Z</time>
      </trkpt>
      <trkpt lat="48.38335" lon="2.47024">
        <ele>86</ele>
        <time>2011-10-15T13:28:11Z</time>
      </trkpt>
      <trkpt lat="48.38335" lon="2.4703">
        <ele>86</ele>
        <time>2011-10-15T13:28:17Z</time>
      </trkpt>
      <trkpt lat="48.38335" lon="2.47032">
        <ele>86</ele>
        <time>2011-10-15T13:28:24Z</time>
      </trkpt>
      <trkpt lat="48.38333" lon="2.47031">
        <ele>83</ele>
        <time>2011-10-15T13:28:34Z</time>
      </trkpt>
      <trkpt lat="48.38331" lon="2.47029">
        <ele>83</ele>
        <time>2011-10-15T13:28:44Z</time>
      </trkpt>
      <trkpt lat="48.38331" lon="2.47029">
        <ele>83</ele>
        <time>2011-10-15T13:28:50Z</time>
      </trkpt>
      <trkpt lat="48.38332" lon="2.4703">
        <ele>83</ele>
        <time>2011-10-15T13:28:58Z</time>
      </trkpt>
      <trkpt lat="48.38333" lon="2.4703">
        <ele>83</ele>
        <time>2011-10-15T13:29:04Z</time>
      </trkpt>
      <trkpt lat="48.38333" lon="2.4703">
        <ele>83</ele>
        <time>2011-10-15T13:29:18Z</time>
      </trkpt>
      <trkpt lat="48.38333" lon="2.4703">
        <ele>83</ele>
        <time>2011-10-15T13:29:29Z</time>
      </trkpt>
      <trkpt lat="48.38332" lon="2.47031">
        <ele>83</ele>
        <time>2011-10-15T13:29:36Z</time>
      </trkpt>
      <trkpt lat="48.38333" lon="2.47032">
        <ele>83</ele>
        <time>2011-10-15T13:29:42Z</time>
      </trkpt>
      <trkpt lat="48.38331" lon="2.4703">
        <ele>83</ele>
        <time>2011-10-15T13:29:57Z</time>
      </trkpt>
      <trkpt lat="48.3833" lon="2.47031">
        <ele>83</ele>
        <time>2011-10-15T13:30:15Z</time>
      </trkpt>
      <trkpt lat="48.38329" lon="2.47031">
        <ele>83</ele>
        <time>2011-10-15T13:30:25Z</time>
      </trkpt>
      <trkpt lat="48.38329" lon="2.47031">
        <ele>83</ele>
        <time>2011-10-15T13:30:34Z</time>
      </trkpt>
      <trkpt lat="48.38333" lon="2.47031">
        <ele>83</ele>
        <time>2011-10-15T13:30:46Z</time>
      </trkpt>
      <trkpt lat="48.38335" lon="2.47029">
        <ele>86</ele>
        <time>2011-10-15T13:31:22Z</time>
      </trkpt>
      <trkpt lat="48.38335" lon="2.4703">
        <ele>86</ele>
        <time>2011-10-15T13:31:35Z</time>
      </trkpt>
      <trkpt lat="48.38335" lon="2.4703">
        <ele>86</ele>
        <time>2011-10-15T13:31:48Z</time>
      </trkpt>
      <trkpt lat="48.38335" lon="2.4703">
        <ele>86</ele>
        <time>2011-10-15T13:31:54Z</time>
      </trkpt>
      <trkpt lat="48.38335" lon="2.47031">
        <ele>86</ele>
        <time>2011-10-15T13:32:03Z</time>
      </trkpt>
      <trkpt lat="48.38334" lon="2.47028">
        <ele>86</ele>
        <time>2011-10-15T13:32:14Z</time>
      </trkpt>
      <trkpt lat="48.38336" lon="2.47028">
        <ele>86</ele>
        <time>2011-10-15T13:32:23Z</time>
      </trkpt>
      <trkpt lat="48.38337" lon="2.47032">
        <ele>86</ele>
        <time>2011-10-15T13:32:32Z</time>
      </trkpt>
      <trkpt lat="48.38334" lon="2.47032">
        <ele>86</ele>
        <time>2011-10-15T13:32:40Z</time>
      </trkpt>
      <trkpt lat="48.38334" lon="2.47029">
        <ele>86</ele>
        <time>2011-10-15T13:32:45Z</time>
      </trkpt>
      <trkpt lat="48.38336" lon="2.47018">
        <ele>86</ele>
        <time>2011-10-15T13:32:54Z</time>
      </trkpt>
      <trkpt lat="48.38337" lon="2.4701">
        <ele>86</ele>
        <time>2011-10-15T13:33:02Z</time>
      </trkpt>
      <trkpt lat="48.38338" lon="2.4701">
        <ele>86</ele>
        <time>2011-10-15T13:33:08Z</time>
      </trkpt>
      <trkpt lat="48.38337" lon="2.47009">
        <ele>86</ele>
        <time>2011-10-15T13:33:35Z</time>
      </trkpt>
      <trkpt lat="48.38337" lon="2.4701">
        <ele>86</ele>
        <time>2011-10-15T13:33:49Z</time>
      </trkpt>
      <trkpt lat="48.38338" lon="2.47011">
        <ele>86</ele>
        <time>2011-10-15T13:34:05Z</time>
      </trkpt>
      <trkpt lat="48.38339" lon="2.4701">
        <ele>86</ele>
        <time>2011-10-15T13:34:17Z</time>
      </trkpt>
      <trkpt lat="48.38338" lon="2.47007">
        <ele>86</ele>
        <time>2011-10-15T13:34:29Z</time>
      </trkpt>
      <trkpt lat="48.38338" lon="2.47006">
        <ele>86</ele>
        <time>2011-10-15T13:34:42Z</time>
      </trkpt>
      <trkpt lat="48.38337" lon="2.47007">
        <ele>86</ele>
        <time>2011-10-15T13:35:00Z</time>
      </trkpt>
      <trkpt lat="48.38338" lon="2.47007">
        <ele>86</ele>
        <time>2011-10-15T13:35:10Z</time>
      </trkpt>
      <trkpt lat="48.38337" lon="2.47007">
        <ele>86</ele>
        <time>2011-10-15T13:35:23Z</time>
      </trkpt>
      <trkpt lat="48.38337" lon="2.47008">
        <ele>86</ele>
        <time>2011-10-15T13:35:44Z</time>
      </trkpt>
      <trkpt lat="48.38338" lon="2.47009">
        <ele>86</ele>
        <time>2011-10-15T13:35:57Z</time>
      </trkpt>
      <trkpt lat="48.38338" lon="2.4701">
        <ele>86</ele>
        <time>2011-10-15T13:36:10Z</time>
      </trkpt>
      <trkpt lat="48.38337" lon="2.47009">
        <ele>86</ele>
        <time>2011-10-15T13:36:20Z</time>
      </trkpt>
      <trkpt lat="48.38337" lon="2.47009">
        <ele>86</ele>
        <time>2011-10-15T13:36:27Z</time>
      </trkpt>
      <trkpt lat="48.38337" lon="2.4701">
        <ele>86</ele>
        <time>2011-10-15T13:36:49Z</time>
      </trkpt>
      <trkpt lat="48.38337" lon="2.47011">
        <ele>86</ele>
        <time>2011-10-15T13:36:58Z</time>
      </trkpt>
      <trkpt lat="48.38338" lon="2.4701">
        <ele>86</ele>
        <time>2011-10-15T13:37:11Z</time>
      </trkpt>
      <trkpt lat="48.38339" lon="2.4701">
        <ele>86</ele>
        <time>2011-10-15T13:37:22Z</time>
      </trkpt>
      <trkpt lat="48.38338" lon="2.47011">
        <ele>86</ele>
        <time>2011-10-15T13:37:40Z</time>
      </trkpt>
      <trkpt lat="48.38338" lon="2.47012">
        <ele>86</ele>
        <time>2011-10-15T13:37:46Z</time>
      </trkpt>
      <trkpt lat="48.38337" lon="2.47013">
        <ele>86</ele>
        <time>2011-10-15T13:37:52Z</time>
      </trkpt>
      <trkpt lat="48.38337" lon="2.47013">
        <ele>86</ele>
        <time>2011-10-15T13:37:56Z</time>
      </trkpt>
      <trkpt lat="48.38334" lon="2.4702">
        <ele>86</ele>
        <time>2011-10-15T13:38:02Z</time>
      </trkpt>
      <trkpt lat="48.38334" lon="2.47025">
        <ele>86</ele>
        <time>2011-10-15T13:38:10Z</time>
      </trkpt>
      <trkpt lat="48.38333" lon="2.47032">
        <ele>83</ele>
        <time>2011-10-15T13:38:15Z</time>
      </trkpt>
      <trkpt lat="48.38332" lon="2.47035">
        <ele>83</ele>
        <time>2011-10-15T13:38:17Z</time>
      </trkpt>
      <trkpt lat="48.38325" lon="2.47033">
        <ele>83</ele>
        <time>2011-10-15T13:38:22Z</time>
      </trkpt>
      <trkpt lat="48.38324" lon="2.47034">
        <ele>83</ele>
        <time>2011-10-15T13:38:24Z</time>
      </trkpt>
      <trkpt lat="48.38331" lon="2.47044">
        <ele>82</ele>
        <time>2011-10-15T13:38:31Z</time>
      </trkpt>
      <trkpt lat="48.38332" lon="2.47046">
        <ele>82</ele>
        <time>2011-10-15T13:38:32Z</time>
      </trkpt>
      <trkpt lat="48.38331" lon="2.47055">
        <ele>82</ele>
        <time>2011-10-15T13:38:38Z</time>
      </trkpt>
      <trkpt lat="48.38328" lon="2.47057">
        <ele>82</ele>
        <time>2011-10-15T13:38:44Z</time>
      </trkpt>
      <trkpt lat="48.38328" lon="2.47055">
        <ele>82</ele>
        <time>2011-10-15T13:38:49Z</time>
      </trkpt>
      <trkpt lat="48.38329" lon="2.47055">
        <ele>82</ele>
        <time>2011-10-15T13:38:58Z</time>
      </trkpt>
      <trkpt lat="48.38329" lon="2.47057">
        <ele>82</ele>
        <time>2011-10-15T13:39:27Z</time>
      </trkpt>
      <trkpt lat="48.38328" lon="2.47057">
        <ele>82</ele>
        <time>2011-10-15T13:39:34Z</time>
      </trkpt>
      <trkpt lat="48.38329" lon="2.47058">
        <ele>82</ele>
        <time>2011-10-15T13:39:39Z</time>
      </trkpt>
      <trkpt lat="48.38329" lon="2.47055">
        <ele>82</ele>
        <time>2011-10-15T13:39:43Z</time>
      </trkpt>
      <trkpt lat="48.38326" lon="2.47055">
        <ele>82</ele>
        <time>2011-10-15T13:39:56Z</time>
      </trkpt>
      <trkpt lat="48.38328" lon="2.47057">
        <ele>82</ele>
        <time>2011-10-15T13:40:16Z</time>
      </trkpt>
      <trkpt lat="48.38329" lon="2.47056">
        <ele>82</ele>
        <time>2011-10-15T13:40:24Z</time>
      </trkpt>
      <trkpt lat="48.38329" lon="2.47058">
        <ele>82</ele>
        <time>2011-10-15T13:40:32Z</time>
      </trkpt>
      <trkpt lat="48.38329" lon="2.4706">
        <ele>82</ele>
        <time>2011-10-15T13:40:44Z</time>
      </trkpt>
      <trkpt lat="48.38329" lon="2.47059">
        <ele>82</ele>
        <time>2011-10-15T13:40:55Z</time>
      </trkpt>
      <trkpt lat="48.38329" lon="2.47057">
        <ele>82</ele>
        <time>2011-10-15T13:41:11Z</time>
      </trkpt>
      <trkpt lat="48.38329" lon="2.47055">
        <ele>82</ele>
        <time>2011-10-15T13:41:19Z</time>
      </trkpt>
      <trkpt lat="48.38329" lon="2.47056">
        <ele>82</ele>
        <time>2011-10-15T13:41:29Z</time>
      </trkpt>
      <trkpt lat="48.38332" lon="2.47055">
        <ele>82</ele>
        <time>2011-10-15T13:41:38Z</time>
      </trkpt>
      <trkpt lat="48.38332" lon="2.4705">
        <ele>82</ele>
        <time>2011-10-15T13:41:40Z</time>
      </trkpt>
      <trkpt lat="48.38334" lon="2.47043">
        <ele>86</ele>
        <time>2011-10-15T13:41:44Z</time>
      </trkpt>
      <trkpt lat="48.38334" lon="2.47032">
        <ele>86</ele>
        <time>2011-10-15T13:41:51Z</time>
      </trkpt>
      <trkpt lat="48.38339" lon="2.47019">
        <ele>86</ele>
        <time>2011-10-15T13:41:59Z</time>
      </trkpt>
      <trkpt lat="48.38338" lon="2.47015">
        <ele>86</ele>
        <time>2011-10-15T13:42:05Z</time>
      </trkpt>
      <trkpt lat="48.38338" lon="2.47017">
        <ele>86</ele>
        <time>2011-10-15T13:42:11Z</time>
      </trkpt>
      <trkpt lat="48.38338" lon="2.47016">
        <ele>86</ele>
        <time>2011-10-15T13:42:31Z</time>
      </trkpt>
      <trkpt lat="48.38339" lon="2.47017">
        <ele>86</ele>
        <time>2011-10-15T13:42:39Z</time>
      </trkpt>
      <trkpt lat="48.38338" lon="2.47016">
        <ele>86</ele>
        <time>2011-10-15T13:42:47Z</time>
      </trkpt>
      <trkpt lat="48.38339" lon="2.47009">
        <ele>86</ele>
        <time>2011-10-15T13:42:51Z</time>
      </trkpt>
      <trkpt lat="48.38339" lon="2.47005">
        <ele>86</ele>
        <time>2011-10-15T13:42:56Z</time>
      </trkpt>
      <trkpt lat="48.38338" lon="2.47009">
        <ele>86</ele>
        <time>2011-10-15T13:43:02Z</time>
      </trkpt>
      <trkpt lat="48.38337" lon="2.47009">
        <ele>86</ele>
        <time>2011-10-15T13:43:27Z</time>
      </trkpt>
      <trkpt lat="48.38336" lon="2.4701">
        <ele>86</ele>
        <time>2011-10-15T13:43:39Z</time>
      </trkpt>
      <trkpt lat="48.38335" lon="2.47012">
        <ele>86</ele>
        <time>2011-10-15T13:43:51Z</time>
      </trkpt>
      <trkpt lat="48.38337" lon="2.47011">
        <ele>86</ele>
        <time>2011-10-15T13:43:59Z</time>
      </trkpt>
      <trkpt lat="48.38341" lon="2.46998">
        <ele>87</ele>
        <time>2011-10-15T13:44:05Z</time>
      </trkpt>
      <trkpt lat="48.3835" lon="2.46971">
        <ele>90</ele>
        <time>2011-10-15T13:44:10Z</time>
      </trkpt>
      <trkpt lat="48.38364" lon="2.46917">
        <ele>91</ele>
        <time>2011-10-15T13:44:19Z</time>
      </trkpt>
      <trkpt lat="48.38365" lon="2.46911">
        <ele>94</ele>
        <time>2011-10-15T13:44:20Z</time>
      </trkpt>
      <trkpt lat="48.38364" lon="2.46882">
        <ele>95</ele>
        <time>2011-10-15T13:44:25Z</time>
      </trkpt>
      <trkpt lat="48.3836" lon="2.4687">
        <ele>95</ele>
        <time>2011-10-15T13:44:27Z</time>
      </trkpt>
      <trkpt lat="48.38354" lon="2.46849">
        <ele>95</ele>
        <time>2011-10-15T13:44:30Z</time>
      </trkpt>
      <trkpt lat="48.38348" lon="2.4681">
        <ele>99</ele>
        <time>2011-10-15T13:44:36Z</time>
      </trkpt>
      <trkpt lat="48.38345" lon="2.46799">
        <ele>100</ele>
        <time>2011-10-15T13:44:38Z</time>
      </trkpt>
      <trkpt lat="48.38332" lon="2.46771">
        <ele>95</ele>
        <time>2011-10-15T13:44:43Z</time>
      </trkpt>
      <trkpt lat="48.38327" lon="2.46748">
        <ele>99</ele>
        <time>2011-10-15T13:44:47Z</time>
      </trkpt>
      <trkpt lat="48.38326" lon="2.46728">
        <ele>98</ele>
        <time>2011-10-15T13:44:51Z</time>
      </trkpt>
      <trkpt lat="48.38324" lon="2.46704">
        <ele>98</ele>
        <time>2011-10-15T13:44:56Z</time>
      </trkpt>
      <trkpt lat="48.38324" lon="2.46697">
        <ele>99</ele>
        <time>2011-10-15T13:44:58Z</time>
      </trkpt>
      <trkpt lat="48.38336" lon="2.4669">
        <ele>107</ele>
        <time>2011-10-15T13:45:03Z</time>
      </trkpt>
      <trkpt lat="48.38344" lon="2.46684">
        <ele>107</ele>
        <time>2011-10-15T13:45:07Z</time>
      </trkpt>
      <trkpt lat="48.38346" lon="2.4667">
        <ele>106</ele>
        <time>2011-10-15T13:45:12Z</time>
      </trkpt>
      <trkpt lat="48.38339" lon="2.46656">
        <ele>108</ele>
        <time>2011-10-15T13:45:15Z</time>
      </trkpt>
      <trkpt lat="48.38324" lon="2.46653">
        <ele>103</ele>
        <time>2011-10-15T13:45:20Z</time>
      </trkpt>
      <trkpt lat="48.38316" lon="2.46658">
        <ele>102</ele>
        <time>2011-10-15T13:45:23Z</time>
      </trkpt>
      <trkpt lat="48.383" lon="2.46645">
        <ele>101</ele>
        <time>2011-10-15T13:45:28Z</time>
      </trkpt>
      <trkpt lat="48.38289" lon="2.46643">
        <ele>100</ele>
        <time>2011-10-15T13:45:30Z</time>
      </trkpt>
      <trkpt lat="48.38274" lon="2.46642">
        <ele>99</ele>
        <time>2011-10-15T13:45:33Z</time>
      </trkpt>
      <trkpt lat="48.3826" lon="2.46618">
        <ele>99</ele>
        <time>2011-10-15T13:45:37Z</time>
      </trkpt>
      <trkpt lat="48.38234" lon="2.46576">
        <ele>97</ele>
        <time>2011-10-15T13:45:43Z</time>
      </trkpt>
      <trkpt lat="48.38232" lon="2.46571">
        <ele>97</ele>
        <time>2011-10-15T13:45:44Z</time>
      </trkpt>
      <trkpt lat="48.38239" lon="2.46558">
        <ele>97</ele>
        <time>2011-10-15T13:45:48Z</time>
      </trkpt>
      <trkpt lat="48.38243" lon="2.46551">
        <ele>97</ele>
        <time>2011-10-15T13:45:50Z</time>
      </trkpt>
      <trkpt lat="48.38256" lon="2.46534">
        <ele>105</ele>
        <time>2011-10-15T13:45:57Z</time>
      </trkpt>
      <trkpt lat="48.38262" lon="2.46522">
        <ele>106</ele>
        <time>2011-10-15T13:46:03Z</time>
      </trkpt>
      <trkpt lat="48.38266" lon="2.46507">
        <ele>106</ele>
        <time>2011-10-15T13:46:10Z</time>
      </trkpt>
      <trkpt lat="48.3827" lon="2.46494">
        <ele>109</ele>
        <time>2011-10-15T13:46:16Z</time>
      </trkpt>
      <trkpt lat="48.38271" lon="2.4649">
        <ele>110</ele>
        <time>2011-10-15T13:46:18Z</time>
      </trkpt>
      <trkpt lat="48.3827" lon="2.46474">
        <ele>111</ele>
        <time>2011-10-15T13:46:23Z</time>
      </trkpt>
      <trkpt lat="48.38274" lon="2.46455">
        <ele>112</ele>
        <time>2011-10-15T13:46:28Z</time>
      </trkpt>
      <trkpt lat="48.38278" lon="2.46435">
        <ele>113</ele>
        <time>2011-10-15T13:46:34Z</time>
      </trkpt>
      <trkpt lat="48.3828" lon="2.46418">
        <ele>114</ele>
        <time>2011-10-15T13:46:37Z</time>
      </trkpt>
      <trkpt lat="48.38285" lon="2.464">
        <ele>118</ele>
        <time>2011-10-15T13:46:41Z</time>
      </trkpt>
      <trkpt lat="48.38286" lon="2.46397">
        <ele>118</ele>
        <time>2011-10-15T13:46:42Z</time>
      </trkpt>
      <trkpt lat="48.38283" lon="2.46382">
        <ele>118</ele>
        <time>2011-10-15T13:46:46Z</time>
      </trkpt>
      <trkpt lat="48.38266" lon="2.46375">
        <ele>118</ele>
        <time>2011-10-15T13:46:52Z</time>
      </trkpt>
      <trkpt lat="48.38256" lon="2.4636">
        <ele>118</ele>
        <time>2011-10-15T13:46:56Z</time>
      </trkpt>
      <trkpt lat="48.38256" lon="2.46351">
        <ele>119</ele>
        <time>2011-10-15T13:46:58Z</time>
      </trkpt>
      <trkpt lat="48.38258" lon="2.46337">
        <ele>119</ele>
        <time>2011-10-15T13:47:01Z</time>
      </trkpt>
      <trkpt lat="48.38268" lon="2.46317">
        <ele>121</ele>
        <time>2011-10-15T13:47:07Z</time>
      </trkpt>
      <trkpt lat="48.3828" lon="2.46298">
        <ele>122</ele>
        <time>2011-10-15T13:47:13Z</time>
      </trkpt>
      <trkpt lat="48.38291" lon="2.46285">
        <ele>122</ele>
        <time>2011-10-15T13:47:17Z</time>
      </trkpt>
      <trkpt lat="48.38308" lon="2.46244">
        <ele>123</ele>
        <time>2011-10-15T13:47:24Z</time>
      </trkpt>
      <trkpt lat="48.3832" lon="2.46222">
        <ele>123</ele>
        <time>2011-10-15T13:47:28Z</time>
      </trkpt>
      <trkpt lat="48.3834" lon="2.46215">
        <ele>122</ele>
        <time>2011-10-15T13:47:32Z</time>
      </trkpt>
      <trkpt lat="48.38356" lon="2.46217">
        <ele>122</ele>
        <time>2011-10-15T13:47:35Z</time>
      </trkpt>
      <trkpt lat="48.38377" lon="2.46209">
        <ele>122</ele>
        <time>2011-10-15T13:47:39Z</time>
      </trkpt>
      <trkpt lat="48.38388" lon="2.462">
        <ele>122</ele>
        <time>2011-10-15T13:47:41Z</time>
      </trkpt>
      <trkpt lat="48.38422" lon="2.46189">
        <ele>122</ele>
        <time>2011-10-15T13:47:47Z</time>
      </trkpt>
      <trkpt lat="48.38451" lon="2.46188">
        <ele>122</ele>
        <time>2011-10-15T13:47:52Z</time>
      </trkpt>
      <trkpt lat="48.38472" lon="2.46176">
        <ele>122</ele>
        <time>2011-10-15T13:47:56Z</time>
      </trkpt>
      <trkpt lat="48.38511" lon="2.46137">
        <ele>121</ele>
        <time>2011-10-15T13:48:04Z</time>
      </trkpt>
      <trkpt lat="48.38556" lon="2.46091">
        <ele>120</ele>
        <time>2011-10-15T13:48:13Z</time>
      </trkpt>
      <trkpt lat="48.38588" lon="2.4606">
        <ele>119</ele>
        <time>2011-10-15T13:48:19Z</time>
      </trkpt>
      <trkpt lat="48.38597" lon="2.4604">
        <ele>119</ele>
        <time>2011-10-15T13:48:23Z</time>
      </trkpt>
      <trkpt lat="48.38602" lon="2.46026">
        <ele>119</ele>
        <time>2011-10-15T13:48:26Z</time>
      </trkpt>
      <trkpt lat="48.38611" lon="2.46017">
        <ele>119</ele>
        <time>2011-10-15T13:48:29Z</time>
      </trkpt>
      <trkpt lat="48.3862" lon="2.46012">
        <ele>118</ele>
        <time>2011-10-15T13:48:31Z</time>
      </trkpt>
      <trkpt lat="48.38628" lon="2.46003">
        <ele>118</ele>
        <time>2011-10-15T13:48:33Z</time>
      </trkpt>
      <trkpt lat="48.38645" lon="2.45981">
        <ele>119</ele>
        <time>2011-10-15T13:48:37Z</time>
      </trkpt>
      <trkpt lat="48.38665" lon="2.45959">
        <ele>119</ele>
        <time>2011-10-15T13:48:42Z</time>
      </trkpt>
      <trkpt lat="48.38674" lon="2.45934">
        <ele>117</ele>
        <time>2011-10-15T13:48:45Z</time>
      </trkpt>
      <trkpt lat="48.38692" lon="2.45935">
        <ele>117</ele>
        <time>2011-10-15T13:48:49Z</time>
      </trkpt>
      <trkpt lat="48.3871" lon="2.45956">
        <ele>116</ele>
        <time>2011-10-15T13:48:52Z</time>
      </trkpt>
      <trkpt lat="48.38759" lon="2.46022">
        <ele>108</ele>
        <time>2011-10-15T13:48:59Z</time>
      </trkpt>
      <trkpt lat="48.38784" lon="2.46066">
        <ele>105</ele>
        <time>2011-10-15T13:49:03Z</time>
      </trkpt>
      <trkpt lat="48.38795" lon="2.46088">
        <ele>101</ele>
        <time>2011-10-15T13:49:05Z</time>
      </trkpt>
      <trkpt lat="48.38813" lon="2.46144">
        <ele>100</ele>
        <time>2011-10-15T13:49:10Z</time>
      </trkpt>
      <trkpt lat="48.38821" lon="2.46181">
        <ele>99</ele>
        <time>2011-10-15T13:49:14Z</time>
      </trkpt>
      <trkpt lat="48.38809" lon="2.46192">
        <ele>99</ele>
        <time>2011-10-15T13:49:17Z</time>
      </trkpt>
      <trkpt lat="48.38784" lon="2.46211">
        <ele>99</ele>
        <time>2011-10-15T13:49:23Z</time>
      </trkpt>
      <trkpt lat="48.38759" lon="2.46232">
        <ele>99</ele>
        <time>2011-10-15T13:49:29Z</time>
      </trkpt>
      <trkpt lat="48.38744" lon="2.4626">
        <ele>103</ele>
        <time>2011-10-15T13:49:34Z</time>
      </trkpt>
      <trkpt lat="48.38734" lon="2.46285">
        <ele>105</ele>
        <time>2011-10-15T13:49:37Z</time>
      </trkpt>
      <trkpt lat="48.38721" lon="2.46288">
        <ele>106</ele>
        <time>2011-10-15T13:49:40Z</time>
      </trkpt>
      <trkpt lat="48.38709" lon="2.46278">
        <ele>107</ele>
        <time>2011-10-15T13:49:43Z</time>
      </trkpt>
      <trkpt lat="48.38702" lon="2.46269">
        <ele>108</ele>
        <time>2011-10-15T13:49:45Z</time>
      </trkpt>
      <trkpt lat="48.38683" lon="2.4624">
        <ele>109</ele>
        <time>2011-10-15T13:49:53Z</time>
      </trkpt>
      <trkpt lat="48.38669" lon="2.4622">
        <ele>108</ele>
        <time>2011-10-15T13:50:00Z</time>
      </trkpt>
      <trkpt lat="48.38657" lon="2.46206">
        <ele>114</ele>
        <time>2011-10-15T13:50:06Z</time>
      </trkpt>
      <trkpt lat="48.38649" lon="2.46213">
        <ele>114</ele>
        <time>2011-10-15T13:50:10Z</time>
      </trkpt>
      <trkpt lat="48.38636" lon="2.46228">
        <ele>115</ele>
        <time>2011-10-15T13:50:16Z</time>
      </trkpt>
      <trkpt lat="48.38625" lon="2.46254">
        <ele>119</ele>
        <time>2011-10-15T13:50:24Z</time>
      </trkpt>
      <trkpt lat="48.38615" lon="2.46271">
        <ele>120</ele>
        <time>2011-10-15T13:50:30Z</time>
      </trkpt>
      <trkpt lat="48.38604" lon="2.46283">
        <ele>120</ele>
        <time>2011-10-15T13:50:36Z</time>
      </trkpt>
      <trkpt lat="48.3859" lon="2.46293">
        <ele>121</ele>
        <time>2011-10-15T13:50:43Z</time>
      </trkpt>
      <trkpt lat="48.3858" lon="2.46301">
        <ele>124</ele>
        <time>2011-10-15T13:50:48Z</time>
      </trkpt>
      <trkpt lat="48.38564" lon="2.46316">
        <ele>124</ele>
        <time>2011-10-15T13:50:55Z</time>
      </trkpt>
      <trkpt lat="48.38545" lon="2.4633">
        <ele>124</ele>
        <time>2011-10-15T13:51:01Z</time>
      </trkpt>
      <trkpt lat="48.38546" lon="2.46352">
        <ele>128</ele>
        <time>2011-10-15T13:51:06Z</time>
      </trkpt>
      <trkpt lat="48.38562" lon="2.46393">
        <ele>129</ele>
        <time>2011-10-15T13:51:13Z</time>
      </trkpt>
      <trkpt lat="48.38563" lon="2.46397">
        <ele>129</ele>
        <time>2011-10-15T13:51:14Z</time>
      </trkpt>
      <trkpt lat="48.38568" lon="2.46414">
        <ele>129</ele>
        <time>2011-10-15T13:51:17Z</time>
      </trkpt>
      <trkpt lat="48.38577" lon="2.46438">
        <ele>131</ele>
        <time>2011-10-15T13:51:21Z</time>
      </trkpt>
      <trkpt lat="48.38583" lon="2.46456">
        <ele>131</ele>
        <time>2011-10-15T13:51:24Z</time>
      </trkpt>
      <trkpt lat="48.38588" lon="2.46474">
        <ele>127</ele>
        <time>2011-10-15T13:51:27Z</time>
      </trkpt>
      <trkpt lat="48.3859" lon="2.46491">
        <ele>128</ele>
        <time>2011-10-15T13:51:30Z</time>
      </trkpt>
      <trkpt lat="48.38593" lon="2.46505">
        <ele>128</ele>
        <time>2011-10-15T13:51:32Z</time>
      </trkpt>
      <trkpt lat="48.38602" lon="2.46537">
        <ele>125</ele>
        <time>2011-10-15T13:51:37Z</time>
      </trkpt>
      <trkpt lat="48.38612" lon="2.4656">
        <ele>124</ele>
        <time>2011-10-15T13:51:41Z</time>
      </trkpt>
      <trkpt lat="48.3862" lon="2.46585">
        <ele>122</ele>
        <time>2011-10-15T13:51:44Z</time>
      </trkpt>
      <trkpt lat="48.38633" lon="2.46612">
        <ele>120</ele>
        <time>2011-10-15T13:51:48Z</time>
      </trkpt>
      <trkpt lat="48.38638" lon="2.46625">
        <ele>120</ele>
        <time>2011-10-15T13:51:50Z</time>
      </trkpt>
      <trkpt lat="48.3863" lon="2.46661">
        <ele>119</ele>
        <time>2011-10-15T13:51:54Z</time>
      </trkpt>
      <trkpt lat="48.38621" lon="2.46685">
        <ele>116</ele>
        <time>2011-10-15T13:51:57Z</time>
      </trkpt>
      <trkpt lat="48.3861" lon="2.46707">
        <ele>114</ele>
        <time>2011-10-15T13:52:00Z</time>
      </trkpt>
      <trkpt lat="48.38602" lon="2.46717">
        <ele>113</ele>
        <time>2011-10-15T13:52:02Z</time>
      </trkpt>
      <trkpt lat="48.38594" lon="2.46762">
        <ele>106</ele>
        <time>2011-10-15T13:52:06Z</time>
      </trkpt>
      <trkpt lat="48.3859" lon="2.46824">
        <ele>102</ele>
        <time>2011-10-15T13:52:10Z</time>
      </trkpt>
      <trkpt lat="48.38577" lon="2.46848">
        <ele>99</ele>
        <time>2011-10-15T13:52:14Z</time>
      </trkpt>
      <trkpt lat="48.38567" lon="2.46844">
        <ele>99</ele>
        <time>2011-10-15T13:52:16Z</time>
      </trkpt>
      <trkpt lat="48.38557" lon="2.46842">
        <ele>100</ele>
        <time>2011-10-15T13:52:18Z</time>
      </trkpt>
      <trkpt lat="48.38543" lon="2.46843">
        <ele>101</ele>
        <time>2011-10-15T13:52:21Z</time>
      </trkpt>
      <trkpt lat="48.38537" lon="2.46848">
        <ele>101</ele>
        <time>2011-10-15T13:52:23Z</time>
      </trkpt>
      <trkpt lat="48.38526" lon="2.4687">
        <ele>101</ele>
        <time>2011-10-15T13:52:29Z</time>
      </trkpt>
      <trkpt lat="48.38517" lon="2.4689">
        <ele>101</ele>
        <time>2011-10-15T13:52:34Z</time>
      </trkpt>
      <trkpt lat="48.38514" lon="2.46908">
        <ele>102</ele>
        <time>2011-10-15T13:52:38Z</time>
      </trkpt>
      <trkpt lat="48.385" lon="2.46923">
        <ele>102</ele>
        <time>2011-10-15T13:52:42Z</time>
      </trkpt>
      <trkpt lat="48.38486" lon="2.4694">
        <ele>99</ele>
        <time>2011-10-15T13:52:46Z</time>
      </trkpt>
      <trkpt lat="48.38489" lon="2.46949">
        <ele>99</ele>
        <time>2011-10-15T13:52:50Z</time>
      </trkpt>
      <trkpt lat="48.38499" lon="2.46967">
        <ele>98</ele>
        <time>2011-10-15T13:52:54Z</time>
      </trkpt>
      <trkpt lat="48.38499" lon="2.46989">
        <ele>98</ele>
        <time>2011-10-15T13:52:57Z</time>
      </trkpt>
      <trkpt lat="48.38499" lon="2.47002">
        <ele>98</ele>
        <time>2011-10-15T13:52:59Z</time>
      </trkpt>
      <trkpt lat="48.38501" lon="2.47031">
        <ele>94</ele>
        <time>2011-10-15T13:53:03Z</time>
      </trkpt>
      <trkpt lat="48.38498" lon="2.47064">
        <ele>93</ele>
        <time>2011-10-15T13:53:08Z</time>
      </trkpt>
      <trkpt lat="48.38498" lon="2.47082">
        <ele>92</ele>
        <time>2011-10-15T13:53:10Z</time>
      </trkpt>
      <trkpt lat="48.38511" lon="2.47112">
        <ele>89</ele>
        <time>2011-10-15T13:53:14Z</time>
      </trkpt>
      <trkpt lat="48.38514" lon="2.47138">
        <ele>88</ele>
        <time>2011-10-15T13:53:17Z</time>
      </trkpt>
      <trkpt lat="48.38512" lon="2.47146">
        <ele>88</ele>
        <time>2011-10-15T13:53:18Z</time>
      </trkpt>
      <trkpt lat="48.38494" lon="2.47208">
        <ele>84</ele>
        <time>2011-10-15T13:53:25Z</time>
      </trkpt>
      <trkpt lat="48.38475" lon="2.47251">
        <ele>79</ele>
        <time>2011-10-15T13:53:29Z</time>
      </trkpt>
      <trkpt lat="48.38445" lon="2.47312">
        <ele>75</ele>
        <time>2011-10-15T13:53:35Z</time>
      </trkpt>
      <trkpt lat="48.38428" lon="2.47319">
        <ele>74</ele>
        <time>2011-10-15T13:53:39Z</time>
      </trkpt>
      <trkpt lat="48.38404" lon="2.47291">
        <ele>74</ele>
        <time>2011-10-15T13:53:44Z</time>
      </trkpt>
      <trkpt lat="48.38375" lon="2.47265">
        <ele>75</ele>
        <time>2011-10-15T13:53:50Z</time>
      </trkpt>
      <trkpt lat="48.38327" lon="2.4723">
        <ele>76</ele>
        <time>2011-10-15T13:53:59Z</time>
      </trkpt>
      <trkpt lat="48.38311" lon="2.4722">
        <ele>76</ele>
        <time>2011-10-15T13:54:02Z</time>
      </trkpt>
      <trkpt lat="48.38298" lon="2.47196">
        <ele>76</ele>
        <time>2011-10-15T13:54:06Z</time>
      </trkpt>
      <trkpt lat="48.38301" lon="2.47181">
        <ele>76</ele>
        <time>2011-10-15T13:54:08Z</time>
      </trkpt>
      <trkpt lat="48.38317" lon="2.47114">
        <ele>79</ele>
        <time>2011-10-15T13:54:17Z</time>
      </trkpt>
      <trkpt lat="48.38324" lon="2.47085">
        <ele>80</ele>
        <time>2011-10-15T13:54:21Z</time>
      </trkpt>
      <trkpt lat="48.38334" lon="2.47042">
        <ele>86</ele>
        <time>2011-10-15T13:54:26Z</time>
      </trkpt>
      <trkpt lat="48.38341" lon="2.47008">
        <ele>86</ele>
        <time>2011-10-15T13:54:31Z</time>
      </trkpt>
      <trkpt lat="48.38342" lon="2.47004">
        <ele>86</ele>
        <time>2011-10-15T13:54:32Z</time>
      </trkpt>
      <trkpt lat="48.38342" lon="2.46994">
        <ele>88</ele>
        <time>2011-10-15T13:54:37Z</time>
      </trkpt>
      <trkpt lat="48.38341" lon="2.46996">
        <ele>87</ele>
        <time>2011-10-15T13:54:39Z</time>
      </trkpt>
      <trkpt lat="48.38339" lon="2.47">
        <ele>87</ele>
        <time>2011-10-15T13:54:45Z</time>
      </trkpt>
      <trkpt lat="48.38339" lon="2.46999">
        <ele>87</ele>
        <time>2011-10-15T13:54:50Z</time>
      </trkpt>
      <trkpt lat="48.3834" lon="2.47">
        <ele>87</ele>
        <time>2011-10-15T13:54:55Z</time>
      </trkpt>
      <trkpt lat="48.38338" lon="2.47002">
        <ele>86</ele>
        <time>2011-10-15T13:55:00Z</time>
      </trkpt>
      <trkpt lat="48.38338" lon="2.47002">
        <ele>86</ele>
        <time>2011-10-15T13:55:08Z</time>
      </trkpt>
      <trkpt lat="48.38337" lon="2.47005">
        <ele>86</ele>
        <time>2011-10-15T13:55:13Z</time>
      </trkpt>
      <trkpt lat="48.38335" lon="2.47011">
        <ele>86</ele>
        <time>2011-10-15T13:55:20Z</time>
      </trkpt>
      <trkpt lat="48.38335" lon="2.47018">
        <ele>86</ele>
        <time>2011-10-15T13:55:27Z</time>
      </trkpt>
      <trkpt lat="48.38335" lon="2.47019">
        <ele>86</ele>
        <time>2011-10-15T13:55:34Z</time>
      </trkpt>
      <trkpt lat="48.38335" lon="2.47018">
        <ele>86</ele>
        <time>2011-10-15T13:55:41Z</time>
      </trkpt>
      <trkpt lat="48.38336" lon="2.47018">
        <ele>86</ele>
        <time>2011-10-15T13:55:50Z</time>
      </trkpt>
      <trkpt lat="48.38335" lon="2.47018">
        <ele>86</ele>
        <time>2011-10-15T13:55:57Z</time>
      </trkpt>
      <trkpt lat="48.38336" lon="2.47019">
        <ele>86</ele>
        <time>2011-10-15T13:56:16Z</time>
      </trkpt>
      <trkpt lat="48.38334" lon="2.4702">
        <ele>86</ele>
        <time>2011-10-15T13:56:32Z</time>
      </trkpt>
      <trkpt lat="48.38335" lon="2.47019">
        <ele>86</ele>
        <time>2011-10-15T13:56:41Z</time>
      </trkpt>
      <trkpt lat="48.38337" lon="2.47019">
        <ele>86</ele>
        <time>2011-10-15T13:57:10Z</time>
      </trkpt>
      <trkpt lat="48.38336" lon="2.47017">
        <ele>86</ele>
        <time>2011-10-15T13:57:21Z</time>
      </trkpt>
      <trkpt lat="48.38336" lon="2.47018">
        <ele>86</ele>
        <time>2011-10-15T13:57:30Z</time>
      </trkpt>
      <trkpt lat="48.38337" lon="2.47019">
        <ele>86</ele>
        <time>2011-10-15T13:57:40Z</time>
      </trkpt>
      <trkpt lat="48.38338" lon="2.4702">
        <ele>86</ele>
        <time>2011-10-15T13:57:47Z</time>
      </trkpt>
      <trkpt lat="48.38338" lon="2.47021">
        <ele>86</ele>
        <time>2011-10-15T13:57:58Z</time>
      </trkpt>
      <trkpt lat="48.38337" lon="2.47021">
        <ele>86</ele>
        <time>2011-10-15T13:58:13Z</time>
      </trkpt>
      <trkpt lat="48.38336" lon="2.47021">
        <ele>86</ele>
        <time>2011-10-15T13:58:30Z</time>
      </trkpt>
      <trkpt lat="48.38335" lon="2.47021">
        <ele>86</ele>
        <time>2011-10-15T13:58:48Z</time>
      </trkpt>
      <trkpt lat="48.38336" lon="2.4702">
        <ele>86</ele>
        <time>2011-10-15T13:59:12Z</time>
      </trkpt>
      <trkpt lat="48.38335" lon="2.47017">
        <ele>86</ele>
        <time>2011-10-15T14:00:07Z</time>
      </trkpt>
      <trkpt lat="48.38335" lon="2.47017">
        <ele>86</ele>
        <time>2011-10-15T14:00:12Z</time>
      </trkpt>
      <trkpt lat="48.38335" lon="2.47018">
        <ele>86</ele>
        <time>2011-10-15T14:00:20Z</time>
      </trkpt>
      <trkpt lat="48.38335" lon="2.47018">
        <ele>86</ele>
        <time>2011-10-15T14:00:36Z</time>
      </trkpt>
      <trkpt lat="48.38336" lon="2.47018">
        <ele>86</ele>
        <time>2011-10-15T14:00:44Z</time>
      </trkpt>
      <trkpt lat="48.38336" lon="2.47017">
        <ele>86</ele>
        <time>2011-10-15T14:00:52Z</time>
      </trkpt>
      <trkpt lat="48.38336" lon="2.47018">
        <ele>86</ele>
        <time>2011-10-15T14:00:57Z</time>
      </trkpt>
      <trkpt lat="48.38337" lon="2.47018">
        <ele>86</ele>
        <time>2011-10-15T14:01:02Z</time>
      </trkpt>
      <trkpt lat="48.38338" lon="2.4702">
        <ele>86</ele>
        <time>2011-10-15T14:01:12Z</time>
      </trkpt>
      <trkpt lat="48.38338" lon="2.47021">
        <ele>86</ele>
        <time>2011-10-15T14:01:24Z</time>
      </trkpt>
      <trkpt lat="48.38337" lon="2.47022">
        <ele>86</ele>
        <time>2011-10-15T14:01:31Z</time>
      </trkpt>
      <trkpt lat="48.38338" lon="2.47023">
        <ele>86</ele>
        <time>2011-10-15T14:01:42Z</time>
      </trkpt>
      <trkpt lat="48.3834" lon="2.47023">
        <ele>86</ele>
        <time>2011-10-15T14:01:48Z</time>
      </trkpt>
      <trkpt lat="48.38341" lon="2.4702">
        <ele>86</ele>
        <time>2011-10-15T14:02:06Z</time>
      </trkpt>
      <trkpt lat="48.38338" lon="2.4702">
        <ele>86</ele>
        <time>2011-10-15T14:02:59Z</time>
      </trkpt>
      <trkpt lat="48.38337" lon="2.47022">
        <ele>86</ele>
        <time>2011-10-15T14:03:15Z</time>
      </trkpt>
      <trkpt lat="48.38336" lon="2.47024">
        <ele>86</ele>
        <time>2011-10-15T14:03:34Z</time>
      </trkpt>
      <trkpt lat="48.38341" lon="2.47024">
        <ele>86</ele>
        <time>2011-10-15T14:03:43Z</time>
      </trkpt>
      <trkpt lat="48.38342" lon="2.47024">
        <ele>86</ele>
        <time>2011-10-15T14:04:11Z</time>
      </trkpt>
      <trkpt lat="48.38341" lon="2.47023">
        <ele>86</ele>
        <time>2011-10-15T14:04:23Z</time>
      </trkpt>
      <trkpt lat="48.38339" lon="2.47026">
        <ele>86</ele>
        <time>2011-10-15T14:04:35Z</time>
      </trkpt>
      <trkpt lat="48.38338" lon="2.47027">
        <ele>86</ele>
        <time>2011-10-15T14:04:40Z</time>
      </trkpt>
      <trkpt lat="48.38337" lon="2.47023">
        <ele>86</ele>
        <time>2011-10-15T14:04:47Z</time>
      </trkpt>
      <trkpt lat="48.38337" lon="2.47022">
        <ele>86</ele>
        <time>2011-10-15T14:04:54Z</time>
      </trkpt>
      <trkpt lat="48.38338" lon="2.4702">
        <ele>86</ele>
        <time>2011-10-15T14:05:20Z</time>
      </trkpt>
      <trkpt lat="48.38338" lon="2.47018">
        <ele>86</ele>
        <time>2011-10-15T14:05:28Z</time>
      </trkpt>
      <trkpt lat="48.38338" lon="2.4702">
        <ele>86</ele>
        <time>2011-10-15T14:05:35Z</time>
      </trkpt>
      <trkpt lat="48.38338" lon="2.47021">
        <ele>86</ele>
        <time>2011-10-15T14:05:41Z</time>
      </trkpt>
      <trkpt lat="48.38337" lon="2.47023">
        <ele>86</ele>
        <time>2011-10-15T14:05:49Z</time>
      </trkpt>
      <trkpt lat="48.38337" lon="2.47023">
        <ele>86</ele>
        <time>2011-10-15T14:05:57Z</time>
      </trkpt>
      <trkpt lat="48.38334" lon="2.47023">
        <ele>86</ele>
        <time>2011-10-15T14:06:18Z</time>
      </trkpt>
      <trkpt lat="48.38333" lon="2.47023">
        <ele>84</ele>
        <time>2011-10-15T14:06:25Z</time>
      </trkpt>
      <trkpt lat="48.38334" lon="2.47026">
        <ele>86</ele>
        <time>2011-10-15T14:06:36Z</time>
      </trkpt>
      <trkpt lat="48.38332" lon="2.47032">
        <ele>83</ele>
        <time>2011-10-15T14:06:42Z</time>
      </trkpt>
      <trkpt lat="48.38332" lon="2.47031">
        <ele>83</ele>
        <time>2011-10-15T14:06:48Z</time>
      </trkpt>
      <trkpt lat="48.38332" lon="2.4703">
        <ele>83</ele>
        <time>2011-10-15T14:06:54Z</time>
      </trkpt>
      <trkpt lat="48.38331" lon="2.47031">
        <ele>83</ele>
        <time>2011-10-15T14:07:03Z</time>
      </trkpt>
      <trkpt lat="48.3833" lon="2.47031">
        <ele>83</ele>
        <time>2011-10-15T14:07:08Z</time>
      </trkpt>
      <trkpt lat="48.38331" lon="2.4703">
        <ele>83</ele>
        <time>2011-10-15T14:07:16Z</time>
      </trkpt>
      <trkpt lat="48.38333" lon="2.47022">
        <ele>84</ele>
        <time>2011-10-15T14:07:25Z</time>
      </trkpt>
      <trkpt lat="48.38333" lon="2.47022">
        <ele>84</ele>
        <time>2011-10-15T14:07:38Z</time>
      </trkpt>
      <trkpt lat="48.38333" lon="2.47023">
        <ele>84</ele>
        <time>2011-10-15T14:07:57Z</time>
      </trkpt>
      <trkpt lat="48.38331" lon="2.47031">
        <ele>83</ele>
        <time>2011-10-15T14:08:04Z</time>
      </trkpt>
      <trkpt lat="48.3833" lon="2.47031">
        <ele>83</ele>
        <time>2011-10-15T14:08:20Z</time>
      </trkpt>
      <trkpt lat="48.3833" lon="2.4703">
        <ele>83</ele>
        <time>2011-10-15T14:08:28Z</time>
      </trkpt>
      <trkpt lat="48.38334" lon="2.4702">
        <ele>86</ele>
        <time>2011-10-15T14:08:35Z</time>
      </trkpt>
      <trkpt lat="48.38335" lon="2.47018">
        <ele>86</ele>
        <time>2011-10-15T14:08:42Z</time>
      </trkpt>
      <trkpt lat="48.38334" lon="2.47017">
        <ele>86</ele>
        <time>2011-10-15T14:08:54Z</time>
      </trkpt>
      <trkpt lat="48.38335" lon="2.4702">
        <ele>86</ele>
        <time>2011-10-15T14:09:04Z</time>
      </trkpt>
      <trkpt lat="48.38335" lon="2.47019">
        <ele>86</ele>
        <time>2011-10-15T14:09:13Z</time>
      </trkpt>
      <trkpt lat="48.38334" lon="2.47019">
        <ele>86</ele>
        <time>2011-10-15T14:09:21Z</time>
      </trkpt>
      <trkpt lat="48.38336" lon="2.47018">
        <ele>86</ele>
        <time>2011-10-15T14:09:36Z</time>
      </trkpt>
      <trkpt lat="48.38336" lon="2.47018">
        <ele>86</ele>
        <time>2011-10-15T14:09:52Z</time>
      </trkpt>
      <trkpt lat="48.38335" lon="2.47018">
        <ele>86</ele>
        <time>2011-10-15T14:10:29Z</time>
      </trkpt>
      <trkpt lat="48.38335" lon="2.47018">
        <ele>86</ele>
        <time>2011-10-15T14:10:38Z</time>
      </trkpt>
      <trkpt lat="48.38336" lon="2.47019">
        <ele>86</ele>
        <time>2011-10-15T14:10:49Z</time>
      </trkpt>
      <trkpt lat="48.38354" lon="2.4702">
        <ele>87</ele>
        <time>2011-10-15T14:10:53Z</time>
      </trkpt>
      <trkpt lat="48.38353" lon="2.47011">
        <ele>87</ele>
        <time>2011-10-15T14:10:59Z</time>
      </trkpt>
      <trkpt lat="48.3835" lon="2.47008">
        <ele>87</ele>
        <time>2011-10-15T14:11:03Z</time>
      </trkpt>
      <trkpt lat="48.3835" lon="2.47009">
        <ele>87</ele>
        <time>2011-10-15T14:11:04Z</time>
      </trkpt>
      <trkpt lat="48.38344" lon="2.47014">
        <ele>86</ele>
        <time>2011-10-15T14:11:09Z</time>
      </trkpt>
      <trkpt lat="48.38343" lon="2.47018">
        <ele>86</ele>
        <time>2011-10-15T14:11:15Z</time>
      </trkpt>
      <trkpt lat="48.38341" lon="2.47018">
        <ele>86</ele>
        <time>2011-10-15T14:11:21Z</time>
      </trkpt>
      <trkpt lat="48.38338" lon="2.47018">
        <ele>86</ele>
        <time>2011-10-15T14:11:50Z</time>
      </trkpt>
      <trkpt lat="48.38337" lon="2.47018">
        <ele>86</ele>
        <time>2011-10-15T14:12:01Z</time>
      </trkpt>
      <trkpt lat="48.38337" lon="2.47018">
        <ele>86</ele>
        <time>2011-10-15T14:12:09Z</time>
      </trkpt>
      <trkpt lat="48.38338" lon="2.47016">
        <ele>86</ele>
        <time>2011-10-15T14:12:12Z</time>
      </trkpt>
      <trkpt lat="48.38343" lon="2.47">
        <ele>87</ele>
        <time>2011-10-15T14:12:16Z</time>
      </trkpt>
      <trkpt lat="48.38353" lon="2.46962">
        <ele>90</ele>
        <time>2011-10-15T14:12:22Z</time>
      </trkpt>
      <trkpt lat="48.38366" lon="2.46908">
        <ele>94</ele>
        <time>2011-10-15T14:12:30Z</time>
      </trkpt>
      <trkpt lat="48.38364" lon="2.46882">
        <ele>95</ele>
        <time>2011-10-15T14:12:34Z</time>
      </trkpt>
      <trkpt lat="48.38359" lon="2.46868">
        <ele>95</ele>
        <time>2011-10-15T14:12:36Z</time>
      </trkpt>
      <trkpt lat="48.38353" lon="2.46831">
        <ele>98</ele>
        <time>2011-10-15T14:12:41Z</time>
      </trkpt>
      <trkpt lat="48.38352" lon="2.46824">
        <ele>99</ele>
        <time>2011-10-15T14:12:42Z</time>
      </trkpt>
      <trkpt lat="48.38346" lon="2.468">
        <ele>100</ele>
        <time>2011-10-15T14:12:46Z</time>
      </trkpt>
      <trkpt lat="48.38335" lon="2.46774">
        <ele>101</ele>
        <time>2011-10-15T14:12:51Z</time>
      </trkpt>
      <trkpt lat="48.3833" lon="2.46748">
        <ele>99</ele>
        <time>2011-10-15T14:12:55Z</time>
      </trkpt>
      <trkpt lat="48.38327" lon="2.46726">
        <ele>98</ele>
        <time>2011-10-15T14:12:59Z</time>
      </trkpt>
      <trkpt lat="48.38326" lon="2.4671">
        <ele>98</ele>
        <time>2011-10-15T14:13:02Z</time>
      </trkpt>
      <trkpt lat="48.38332" lon="2.46696">
        <ele>99</ele>
        <time>2011-10-15T14:13:07Z</time>
      </trkpt>
      <trkpt lat="48.38341" lon="2.46689">
        <ele>107</ele>
        <time>2011-10-15T14:13:12Z</time>
      </trkpt>
      <trkpt lat="48.38348" lon="2.46678">
        <ele>107</ele>
        <time>2011-10-15T14:13:17Z</time>
      </trkpt>
      <trkpt lat="48.38343" lon="2.46665">
        <ele>107</ele>
        <time>2011-10-15T14:13:21Z</time>
      </trkpt>
      <trkpt lat="48.38335" lon="2.46652">
        <ele>108</ele>
        <time>2011-10-15T14:13:25Z</time>
      </trkpt>
      <trkpt lat="48.3832" lon="2.46655">
        <ele>102</ele>
        <time>2011-10-15T14:13:29Z</time>
      </trkpt>
      <trkpt lat="48.38311" lon="2.46654">
        <ele>102</ele>
        <time>2011-10-15T14:13:32Z</time>
      </trkpt>
      <trkpt lat="48.38303" lon="2.46647">
        <ele>101</ele>
        <time>2011-10-15T14:13:34Z</time>
      </trkpt>
      <trkpt lat="48.3828" lon="2.46642">
        <ele>99</ele>
        <time>2011-10-15T14:13:39Z</time>
      </trkpt>
      <trkpt lat="48.38263" lon="2.46627">
        <ele>99</ele>
        <time>2011-10-15T14:13:43Z</time>
      </trkpt>
      <trkpt lat="48.3824" lon="2.46587">
        <ele>95</ele>
        <time>2011-10-15T14:13:49Z</time>
      </trkpt>
      <trkpt lat="48.38236" lon="2.46565">
        <ele>97</ele>
        <time>2011-10-15T14:13:53Z</time>
      </trkpt>
      <trkpt lat="48.38244" lon="2.46554">
        <ele>97</ele>
        <time>2011-10-15T14:13:57Z</time>
      </trkpt>
      <trkpt lat="48.38254" lon="2.46538">
        <ele>105</ele>
        <time>2011-10-15T14:14:04Z</time>
      </trkpt>
      <trkpt lat="48.38258" lon="2.46531">
        <ele>106</ele>
        <time>2011-10-15T14:14:07Z</time>
      </trkpt>
      <trkpt lat="48.38262" lon="2.46523">
        <ele>106</ele>
        <time>2011-10-15T14:14:11Z</time>
      </trkpt>
      <trkpt lat="48.38266" lon="2.46512">
        <ele>106</ele>
        <time>2011-10-15T14:14:18Z</time>
      </trkpt>
      <trkpt lat="48.38268" lon="2.46505">
        <ele>106</ele>
        <time>2011-10-15T14:14:21Z</time>
      </trkpt>
      <trkpt lat="48.38272" lon="2.46491">
        <ele>110</ele>
        <time>2011-10-15T14:14:28Z</time>
      </trkpt>
      <trkpt lat="48.38271" lon="2.46475">
        <ele>111</ele>
        <time>2011-10-15T14:14:33Z</time>
      </trkpt>
      <trkpt lat="48.38274" lon="2.46456">
        <ele>112</ele>
        <time>2011-10-15T14:14:38Z</time>
      </trkpt>
      <trkpt lat="48.38276" lon="2.46439">
        <ele>113</ele>
        <time>2011-10-15T14:14:43Z</time>
      </trkpt>
      <trkpt lat="48.38277" lon="2.4642">
        <ele>113</ele>
        <time>2011-10-15T14:14:47Z</time>
      </trkpt>
      <trkpt lat="48.38283" lon="2.46398">
        <ele>117</ele>
        <time>2011-10-15T14:14:52Z</time>
      </trkpt>
      <trkpt lat="48.38284" lon="2.46394">
        <ele>118</ele>
        <time>2011-10-15T14:14:53Z</time>
      </trkpt>
      <trkpt lat="48.38277" lon="2.46377">
        <ele>118</ele>
        <time>2011-10-15T14:14:58Z</time>
      </trkpt>
      <trkpt lat="48.38264" lon="2.46372">
        <ele>118</ele>
        <time>2011-10-15T14:15:02Z</time>
      </trkpt>
      <trkpt lat="48.38254" lon="2.46365">
        <ele>118</ele>
        <time>2011-10-15T14:15:05Z</time>
      </trkpt>
      <trkpt lat="48.38254" lon="2.46351">
        <ele>119</ele>
        <time>2011-10-15T14:15:08Z</time>
      </trkpt>
      <trkpt lat="48.38262" lon="2.46327">
        <ele>120</ele>
        <time>2011-10-15T14:15:14Z</time>
      </trkpt>
      <trkpt lat="48.38271" lon="2.46305">
        <ele>121</ele>
        <time>2011-10-15T14:15:20Z</time>
      </trkpt>
      <trkpt lat="48.38283" lon="2.46286">
        <ele>122</ele>
        <time>2011-10-15T14:15:26Z</time>
      </trkpt>
      <trkpt lat="48.38293" lon="2.46267">
        <ele>122</ele>
        <time>2011-10-15T14:15:31Z</time>
      </trkpt>
      <trkpt lat="48.38307" lon="2.46233">
        <ele>123</ele>
        <time>2011-10-15T14:15:37Z</time>
      </trkpt>
      <trkpt lat="48.38309" lon="2.46228">
        <ele>123</ele>
        <time>2011-10-15T14:15:38Z</time>
      </trkpt>
      <trkpt lat="48.38331" lon="2.46214">
        <ele>123</ele>
        <time>2011-10-15T14:15:43Z</time>
      </trkpt>
      <trkpt lat="48.38342" lon="2.46214">
        <ele>122</ele>
        <time>2011-10-15T14:15:45Z</time>
      </trkpt>
      <trkpt lat="48.38352" lon="2.46216">
        <ele>122</ele>
        <time>2011-10-15T14:15:47Z</time>
      </trkpt>
      <trkpt lat="48.38378" lon="2.46206">
        <ele>122</ele>
        <time>2011-10-15T14:15:52Z</time>
      </trkpt>
      <trkpt lat="48.38388" lon="2.46198">
        <ele>122</ele>
        <time>2011-10-15T14:15:54Z</time>
      </trkpt>
      <trkpt lat="48.38429" lon="2.46188">
        <ele>122</ele>
        <time>2011-10-15T14:16:01Z</time>
      </trkpt>
      <trkpt lat="48.38453" lon="2.46187">
        <ele>122</ele>
        <time>2011-10-15T14:16:05Z</time>
      </trkpt>
      <trkpt lat="48.3848" lon="2.46167">
        <ele>122</ele>
        <time>2011-10-15T14:16:10Z</time>
      </trkpt>
      <trkpt lat="48.38539" lon="2.46106">
        <ele>120</ele>
        <time>2011-10-15T14:16:21Z</time>
      </trkpt>
      <trkpt lat="48.38579" lon="2.46068">
        <ele>121</ele>
        <time>2011-10-15T14:16:28Z</time>
      </trkpt>
      <trkpt lat="48.38594" lon="2.46051">
        <ele>118</ele>
        <time>2011-10-15T14:16:31Z</time>
      </trkpt>
      <trkpt lat="48.38601" lon="2.4602">
        <ele>119</ele>
        <time>2011-10-15T14:16:36Z</time>
      </trkpt>
      <trkpt lat="48.38619" lon="2.46009">
        <ele>118</ele>
        <time>2011-10-15T14:16:40Z</time>
      </trkpt>
      <trkpt lat="48.38631" lon="2.46">
        <ele>120</ele>
        <time>2011-10-15T14:16:42Z</time>
      </trkpt>
      <trkpt lat="48.3865" lon="2.45977">
        <ele>119</ele>
        <time>2011-10-15T14:16:46Z</time>
      </trkpt>
      <trkpt lat="48.38665" lon="2.45961">
        <ele>119</ele>
        <time>2011-10-15T14:16:50Z</time>
      </trkpt>
      <trkpt lat="48.38673" lon="2.4595">
        <ele>117</ele>
        <time>2011-10-15T14:16:52Z</time>
      </trkpt>
      <trkpt lat="48.38686" lon="2.45932">
        <ele>117</ele>
        <time>2011-10-15T14:16:56Z</time>
      </trkpt>
      <trkpt lat="48.38698" lon="2.45941">
        <ele>117</ele>
        <time>2011-10-15T14:16:58Z</time>
      </trkpt>
      <trkpt lat="48.38716" lon="2.45966">
        <ele>116</ele>
        <time>2011-10-15T14:17:01Z</time>
      </trkpt>
      <trkpt lat="48.3876" lon="2.46022">
        <ele>108</ele>
        <time>2011-10-15T14:17:07Z</time>
      </trkpt>
      <trkpt lat="48.38786" lon="2.46069">
        <ele>105</ele>
        <time>2011-10-15T14:17:11Z</time>
      </trkpt>
      <trkpt lat="48.38797" lon="2.46092">
        <ele>101</ele>
        <time>2011-10-15T14:17:13Z</time>
      </trkpt>
      <trkpt lat="48.38817" lon="2.46163">
        <ele>99</ele>
        <time>2011-10-15T14:17:19Z</time>
      </trkpt>
      <trkpt lat="48.38814" lon="2.46187">
        <ele>99</ele>
        <time>2011-10-15T14:17:22Z</time>
      </trkpt>
      <trkpt lat="48.38809" lon="2.4619">
        <ele>99</ele>
        <time>2011-10-15T14:17:23Z</time>
      </trkpt>
      <trkpt lat="48.38771" lon="2.46221">
        <ele>99</ele>
        <time>2011-10-15T14:17:31Z</time>
      </trkpt>
      <trkpt lat="48.38754" lon="2.46238">
        <ele>100</ele>
        <time>2011-10-15T14:17:35Z</time>
      </trkpt>
      <trkpt lat="48.38742" lon="2.46266">
        <ele>103</ele>
        <time>2011-10-15T14:17:39Z</time>
      </trkpt>
      <trkpt lat="48.38721" lon="2.46289">
        <ele>106</ele>
        <time>2011-10-15T14:17:43Z</time>
      </trkpt>
      <trkpt lat="48.38707" lon="2.46278">
        <ele>107</ele>
        <time>2011-10-15T14:17:46Z</time>
      </trkpt>
      <trkpt lat="48.38701" lon="2.46269">
        <ele>108</ele>
        <time>2011-10-15T14:17:48Z</time>
      </trkpt>
      <trkpt lat="48.38689" lon="2.46249">
        <ele>108</ele>
        <time>2011-10-15T14:17:53Z</time>
      </trkpt>
      <trkpt lat="48.38676" lon="2.46228">
        <ele>108</ele>
        <time>2011-10-15T14:18:01Z</time>
      </trkpt>
      <trkpt lat="48.38663" lon="2.46208">
        <ele>114</ele>
        <time>2011-10-15T14:18:08Z</time>
      </trkpt>
      <trkpt lat="48.38653" lon="2.46209">
        <ele>114</ele>
        <time>2011-10-15T14:18:12Z</time>
      </trkpt>
      <trkpt lat="48.38639" lon="2.46225">
        <ele>115</ele>
        <time>2011-10-15T14:18:18Z</time>
      </trkpt>
      <trkpt lat="48.38629" lon="2.46246">
        <ele>116</ele>
        <time>2011-10-15T14:18:24Z</time>
      </trkpt>
      <trkpt lat="48.3862" lon="2.46265">
        <ele>119</ele>
        <time>2011-10-15T14:18:30Z</time>
      </trkpt>
      <trkpt lat="48.38608" lon="2.4628">
        <ele>120</ele>
        <time>2011-10-15T14:18:36Z</time>
      </trkpt>
      <trkpt lat="48.38594" lon="2.46293">
        <ele>121</ele>
        <time>2011-10-15T14:18:42Z</time>
      </trkpt>
      <trkpt lat="48.38582" lon="2.46309">
        <ele>124</ele>
        <time>2011-10-15T14:18:47Z</time>
      </trkpt>
      <trkpt lat="48.38565" lon="2.46327">
        <ele>124</ele>
        <time>2011-10-15T14:18:53Z</time>
      </trkpt>
      <trkpt lat="48.38547" lon="2.4634">
        <ele>127</ele>
        <time>2011-10-15T14:18:58Z</time>
      </trkpt>
      <trkpt lat="48.3854" lon="2.46352">
        <ele>128</ele>
        <time>2011-10-15T14:19:01Z</time>
      </trkpt>
      <trkpt lat="48.38548" lon="2.46379">
        <ele>128</ele>
        <time>2011-10-15T14:19:06Z</time>
      </trkpt>
      <trkpt lat="48.38557" lon="2.464">
        <ele>129</ele>
        <time>2011-10-15T14:19:09Z</time>
      </trkpt>
      <trkpt lat="48.38565" lon="2.46426">
        <ele>131</ele>
        <time>2011-10-15T14:19:13Z</time>
      </trkpt>
      <trkpt lat="48.38575" lon="2.46458">
        <ele>131</ele>
        <time>2011-10-15T14:19:18Z</time>
      </trkpt>
      <trkpt lat="48.38577" lon="2.46465">
        <ele>131</ele>
        <time>2011-10-15T14:19:19Z</time>
      </trkpt>
      <trkpt lat="48.38584" lon="2.46492">
        <ele>129</ele>
        <time>2011-10-15T14:19:23Z</time>
      </trkpt>
      <trkpt lat="48.38587" lon="2.46522">
        <ele>127</ele>
        <time>2011-10-15T14:19:27Z</time>
      </trkpt>
      <trkpt lat="48.38597" lon="2.46558">
        <ele>125</ele>
        <time>2011-10-15T14:19:32Z</time>
      </trkpt>
      <trkpt lat="48.3861" lon="2.46587">
        <ele>123</ele>
        <time>2011-10-15T14:19:37Z</time>
      </trkpt>
      <trkpt lat="48.38615" lon="2.46602">
        <ele>122</ele>
        <time>2011-10-15T14:19:39Z</time>
      </trkpt>
      <trkpt lat="48.38637" lon="2.46636">
        <ele>120</ele>
        <time>2011-10-15T14:19:45Z</time>
      </trkpt>
      <trkpt lat="48.38634" lon="2.46658">
        <ele>119</ele>
        <time>2011-10-15T14:19:48Z</time>
      </trkpt>
      <trkpt lat="48.38625" lon="2.46681">
        <ele>116</ele>
        <time>2011-10-15T14:19:51Z</time>
      </trkpt>
      <trkpt lat="48.38597" lon="2.46732">
        <ele>111</ele>
        <time>2011-10-15T14:19:56Z</time>
      </trkpt>
      <trkpt lat="48.38591" lon="2.4678">
        <ele>106</ele>
        <time>2011-10-15T14:19:59Z</time>
      </trkpt>
      <trkpt lat="48.38583" lon="2.4685">
        <ele>99</ele>
        <time>2011-10-15T14:20:04Z</time>
      </trkpt>
      <trkpt lat="48.38567" lon="2.46846">
        <ele>99</ele>
        <time>2011-10-15T14:20:07Z</time>
      </trkpt>
      <trkpt lat="48.38561" lon="2.46844">
        <ele>100</ele>
        <time>2011-10-15T14:20:08Z</time>
      </trkpt>
      <trkpt lat="48.38538" lon="2.46844">
        <ele>101</ele>
        <time>2011-10-15T14:20:13Z</time>
      </trkpt>
      <trkpt lat="48.38528" lon="2.46864">
        <ele>101</ele>
        <time>2011-10-15T14:20:20Z</time>
      </trkpt>
      <trkpt lat="48.38515" lon="2.46883">
        <ele>101</ele>
        <time>2011-10-15T14:20:26Z</time>
      </trkpt>
      <trkpt lat="48.38512" lon="2.46901">
        <ele>101</ele>
        <time>2011-10-15T14:20:30Z</time>
      </trkpt>
      <trkpt lat="48.38503" lon="2.46917">
        <ele>102</ele>
        <time>2011-10-15T14:20:34Z</time>
      </trkpt>
      <trkpt lat="48.38488" lon="2.46936">
        <ele>99</ele>
        <time>2011-10-15T14:20:39Z</time>
      </trkpt>
      <trkpt lat="48.38493" lon="2.46944">
        <ele>99</ele>
        <time>2011-10-15T14:20:43Z</time>
      </trkpt>
      <trkpt lat="48.38505" lon="2.46963">
        <ele>98</ele>
        <time>2011-10-15T14:20:47Z</time>
      </trkpt>
      <trkpt lat="48.38507" lon="2.46978">
        <ele>98</ele>
        <time>2011-10-15T14:20:49Z</time>
      </trkpt>
      <trkpt lat="48.38504" lon="2.46992">
        <ele>98</ele>
        <time>2011-10-15T14:20:51Z</time>
      </trkpt>
      <trkpt lat="48.38498" lon="2.47037">
        <ele>94</ele>
        <time>2011-10-15T14:20:57Z</time>
      </trkpt>
      <trkpt lat="48.38495" lon="2.47068">
        <ele>93</ele>
        <time>2011-10-15T14:21:01Z</time>
      </trkpt>
      <trkpt lat="48.38499" lon="2.47094">
        <ele>91</ele>
        <time>2011-10-15T14:21:04Z</time>
      </trkpt>
      <trkpt lat="48.38513" lon="2.47118">
        <ele>89</ele>
        <time>2011-10-15T14:21:07Z</time>
      </trkpt>
      <trkpt lat="48.38513" lon="2.47137">
        <ele>88</ele>
        <time>2011-10-15T14:21:09Z</time>
      </trkpt>
      <trkpt lat="48.38505" lon="2.47163">
        <ele>88</ele>
        <time>2011-10-15T14:21:12Z</time>
      </trkpt>
      <trkpt lat="48.38489" lon="2.47216">
        <ele>84</ele>
        <time>2011-10-15T14:21:17Z</time>
      </trkpt>
      <trkpt lat="48.3845" lon="2.47297">
        <ele>76</ele>
        <time>2011-10-15T14:21:24Z</time>
      </trkpt>
      <trkpt lat="48.38438" lon="2.47322">
        <ele>75</ele>
        <time>2011-10-15T14:21:27Z</time>
      </trkpt>
      <trkpt lat="48.38422" lon="2.47313">
        <ele>75</ele>
        <time>2011-10-15T14:21:30Z</time>
      </trkpt>
      <trkpt lat="48.38411" lon="2.47299">
        <ele>74</ele>
        <time>2011-10-15T14:21:32Z</time>
      </trkpt>
      <trkpt lat="48.3837" lon="2.47261">
        <ele>75</ele>
        <time>2011-10-15T14:21:38Z</time>
      </trkpt>
      <trkpt lat="48.38328" lon="2.47231">
        <ele>76</ele>
        <time>2011-10-15T14:21:44Z</time>
      </trkpt>
      <trkpt lat="48.38307" lon="2.47217">
        <ele>76</ele>
        <time>2011-10-15T14:21:47Z</time>
      </trkpt>
      <trkpt lat="48.38298" lon="2.47186">
        <ele>76</ele>
        <time>2011-10-15T14:21:50Z</time>
      </trkpt>
      <trkpt lat="48.383" lon="2.47174">
        <ele>77</ele>
        <time>2011-10-15T14:21:51Z</time>
      </trkpt>
      <trkpt lat="48.38317" lon="2.47112">
        <ele>79</ele>
        <time>2011-10-15T14:21:57Z</time>
      </trkpt>
      <trkpt lat="48.38332" lon="2.47049">
        <ele>82</ele>
        <time>2011-10-15T14:22:04Z</time>
      </trkpt>
      <trkpt lat="48.38336" lon="2.47034">
        <ele>86</ele>
        <time>2011-10-15T14:22:06Z</time>
      </trkpt>
      <trkpt lat="48.38338" lon="2.47019">
        <ele>86</ele>
        <time>2011-10-15T14:22:09Z</time>
      </trkpt>
      <trkpt lat="48.38339" lon="2.47012">
        <ele>86</ele>
        <time>2011-10-15T14:22:14Z</time>
      </trkpt>
      <trkpt lat="48.38338" lon="2.47023">
        <ele>86</ele>
        <time>2011-10-15T14:22:19Z</time>
      </trkpt>
      <trkpt lat="48.38341" lon="2.47023">
        <ele>86</ele>
        <time>2011-10-15T14:22:22Z</time>
      </trkpt>
      <trkpt lat="48.38342" lon="2.47019">
        <ele>86</ele>
        <time>2011-10-15T14:22:28Z</time>
      </trkpt>
      <trkpt lat="48.38342" lon="2.47019">
        <ele>86</ele>
        <time>2011-10-15T14:22:35Z</time>
      </trkpt>
      <trkpt lat="48.38342" lon="2.47021">
        <ele>86</ele>
        <time>2011-10-15T14:23:06Z</time>
      </trkpt>
      <trkpt lat="48.38342" lon="2.47021">
        <ele>86</ele>
        <time>2011-10-15T14:23:14Z</time>
      </trkpt>
      <trkpt lat="48.38343" lon="2.47022">
        <ele>86</ele>
        <time>2011-10-15T14:23:28Z</time>
      </trkpt>
      <trkpt lat="48.38343" lon="2.47022">
        <ele>86</ele>
        <time>2011-10-15T14:23:39Z</time>
      </trkpt>
      <trkpt lat="48.38342" lon="2.47021">
        <ele>86</ele>
        <time>2011-10-15T14:23:53Z</time>
      </trkpt>
      <trkpt lat="48.38342" lon="2.4702">
        <ele>86</ele>
        <time>2011-10-15T14:24:07Z</time>
      </trkpt>
      <trkpt lat="48.38341" lon="2.47019">
        <ele>86</ele>
        <time>2011-10-15T14:24:31Z</time>
      </trkpt>
      <trkpt lat="48.38342" lon="2.47021">
        <ele>86</ele>
        <time>2011-10-15T14:25:01Z</time>
      </trkpt>
      <trkpt lat="48.38342" lon="2.47021">
        <ele>86</ele>
        <time>2011-10-15T14:25:12Z</time>
      </trkpt>
      <trkpt lat="48.3834" lon="2.47021">
        <ele>86</ele>
        <time>2011-10-15T14:25:26Z</time>
      </trkpt>
      <trkpt lat="48.38339" lon="2.47025">
        <ele>86</ele>
        <time>2011-10-15T14:25:32Z</time>
      </trkpt>
      <trkpt lat="48.38332" lon="2.47029">
        <ele>83</ele>
        <time>2011-10-15T14:25:37Z</time>
      </trkpt>
      <trkpt lat="48.38332" lon="2.4703">
        <ele>83</ele>
        <time>2011-10-15T14:25:44Z</time>
      </trkpt>
      <trkpt lat="48.38332" lon="2.4703">
        <ele>83</ele>
        <time>2011-10-15T14:25:59Z</time>
      </trkpt>
      <trkpt lat="48.38333" lon="2.47029">
        <ele>83</ele>
        <time>2011-10-15T14:26:22Z</time>
      </trkpt>
      <trkpt lat="48.38332" lon="2.4703">
        <ele>83</ele>
        <time>2011-10-15T14:26:39Z</time>
      </trkpt>
      <trkpt lat="48.38332" lon="2.4703">
        <ele>83</ele>
        <time>2011-10-15T14:26:49Z</time>
      </trkpt>
      <trkpt lat="48.38332" lon="2.47031">
        <ele>83</ele>
        <time>2011-10-15T14:27:05Z</time>
      </trkpt>
      <trkpt lat="48.38331" lon="2.47031">
        <ele>83</ele>
        <time>2011-10-15T14:27:13Z</time>
      </trkpt>
      <trkpt lat="48.38331" lon="2.47031">
        <ele>83</ele>
        <time>2011-10-15T14:27:14Z</time>
      </trkpt>
    </trkseg>
  </trk>
</gpx>